PWSweather.com
Personal Weather Stations
Station Observations
HVALPSUND
Hvalpsund, FarsoeDK 9640

HvalpsundFarsoeDK 9640

Lat: 56.705311, Lon: 9.203638

Elevation: 5

Station Type: Vantage Pro2

http://hvalpsundvejr.dk

High Low Average
Temperature 40.9°F4.9°C 36.9°F2.7°C 38.5°F3.6°C
Dew Point 36.3°F2.4°C 29.8°F-1.2°C 32.3°F0.2°C
Winds 27.0 mph 43.5 kmh 10.7 mph 17.2 kmh 18.0 mph NW29.0 kmh NW
Wind Gusts 31.0 mph49.9 kmh 13.0 mph20.9 kmh 21.0 mph33.8 kmh
Humidity 89% 68% 78%
Pressure 30.07 in1018.3 mb 29.22 in989.5 mb -
Precipitation 0.01 in0.3 mm - -
Hour Temp Dew Point Humidity Winds Wind Gusts Pressure Precip Precip Rate Daily Precip Total
12:00 AM 40.7°F4.8°C 36.2°F2.3°C 84% 13.4 mph WNW21.6 kmh WNW 15.0 mph24.1 kmh 29.22 in989.5 mb 0.00 in0.0 mm 0.00 in0.0 mm 0.00 in0.0 mm
12:01 AM 40.7°F4.8°C 36.2°F2.3°C 84% 12.0 mph WNW19.3 kmh WNW 13.0 mph20.9 kmh 29.22 in989.5 mb 0.00 in0.0 mm 0.00 in0.0 mm 0.00 in0.0 mm
12:02 AM 40.7°F4.8°C 36.2°F2.3°C 84% 15.0 mph WNW24.1 kmh WNW 17.0 mph27.4 kmh 29.23 in989.8 mb 0.00 in0.0 mm 0.00 in0.0 mm 0.00 in0.0 mm
12:03 AM 40.8°F4.9°C 36.3°F2.4°C 84% 12.0 mph WNW19.3 kmh WNW 14.0 mph22.5 kmh 29.23 in989.8 mb 0.00 in0.0 mm 0.00 in0.0 mm 0.00 in0.0 mm
12:04 AM 40.8°F4.9°C 36.0°F2.2°C 83% 14.9 mph WNW24.0 kmh WNW 16.0 mph25.7 kmh 29.23 in989.8 mb 0.00 in0.0 mm 0.00 in0.0 mm 0.00 in0.0 mm
12:05 AM 40.8°F4.9°C 36.0°F2.2°C 83% 13.4 mph WNW21.6 kmh WNW 16.0 mph25.7 kmh 29.23 in989.8 mb 0.00 in0.0 mm 0.00 in0.0 mm 0.00 in0.0 mm
12:06 AM 40.8°F4.9°C 36.0°F2.2°C 83% 13.6 mph WNW21.9 kmh WNW 15.0 mph24.1 kmh 29.23 in989.8 mb 0.00 in0.0 mm 0.00 in0.0 mm 0.00 in0.0 mm
12:07 AM 40.9°F4.9°C 36.1°F2.3°C 83% 14.3 mph WNW23.0 kmh WNW 16.0 mph25.7 kmh 29.23 in989.8 mb 0.00 in0.0 mm 0.00 in0.0 mm 0.00 in0.0 mm
12:08 AM 40.9°F4.9°C 36.1°F2.3°C 83% 13.1 mph WNW21.1 kmh WNW 16.0 mph25.7 kmh 29.23 in989.8 mb 0.00 in0.0 mm 0.00 in0.0 mm 0.00 in0.0 mm
12:09 AM 40.9°F4.9°C 36.1°F2.3°C 83% 13.1 mph WNW21.1 kmh WNW 15.0 mph24.1 kmh 29.23 in989.8 mb 0.00 in0.0 mm 0.00 in0.0 mm 0.00 in0.0 mm
12:10 AM 40.9°F4.9°C 36.1°F2.3°C 83% 11.8 mph WNW19.0 kmh WNW 15.0 mph24.1 kmh 29.23 in989.8 mb 0.00 in0.0 mm 0.00 in0.0 mm 0.00 in0.0 mm
12:11 AM 40.9°F4.9°C 36.1°F2.3°C 83% 11.9 mph WNW19.2 kmh WNW 15.0 mph24.1 kmh 29.23 in989.8 mb 0.00 in0.0 mm 0.00 in0.0 mm 0.00 in0.0 mm
12:12 AM 40.8°F4.9°C 36.0°F2.2°C 83% 12.9 mph WNW20.8 kmh WNW 15.0 mph24.1 kmh 29.23 in989.8 mb 0.00 in0.0 mm 0.00 in0.0 mm 0.00 in0.0 mm
12:13 AM 40.8°F4.9°C 36.0°F2.2°C 83% 10.7 mph WNW17.2 kmh WNW 15.0 mph24.1 kmh 29.23 in989.8 mb 0.00 in0.0 mm 0.00 in0.0 mm 0.00 in0.0 mm
12:14 AM 40.7°F4.8°C 35.9°F2.2°C 83% 11.9 mph WNW19.2 kmh WNW 14.0 mph22.5 kmh 29.23 in989.8 mb 0.00 in0.0 mm 0.00 in0.0 mm 0.00 in0.0 mm
12:15 AM 40.7°F4.8°C 35.9°F2.2°C 83% 14.3 mph WNW23.0 kmh WNW 17.0 mph27.4 kmh 29.23 in989.8 mb 0.00 in0.0 mm 0.00 in0.0 mm 0.00 in0.0 mm
12:16 AM 40.8°F4.9°C 36.0°F2.2°C 83% 13.5 mph WNW21.7 kmh WNW 17.0 mph27.4 kmh 29.23 in989.8 mb 0.00 in0.0 mm 0.00 in0.0 mm 0.00 in0.0 mm
12:17 AM 40.7°F4.8°C 35.9°F2.2°C 83% 13.1 mph WNW21.1 kmh WNW 17.0 mph27.4 kmh 29.23 in989.8 mb 0.00 in0.0 mm 0.00 in0.0 mm 0.00 in0.0 mm
12:18 AM 40.7°F4.8°C 35.9°F2.2°C 83% 15.0 mph WNW24.1 kmh WNW 18.0 mph29.0 kmh 29.23 in989.8 mb 0.00 in0.0 mm 0.00 in0.0 mm 0.00 in0.0 mm
12:19 AM 40.8°F4.9°C 36.0°F2.2°C 83% 14.0 mph WNW22.5 kmh WNW 16.0 mph25.7 kmh 29.23 in989.8 mb 0.00 in0.0 mm 0.00 in0.0 mm 0.00 in0.0 mm
12:20 AM 40.8°F4.9°C 36.0°F2.2°C 83% 14.0 mph WNW22.5 kmh WNW 16.0 mph25.7 kmh 29.23 in989.8 mb 0.00 in0.0 mm 0.00 in0.0 mm 0.00 in0.0 mm
12:21 AM 40.7°F4.8°C 35.9°F2.2°C 83% 12.9 mph WNW20.8 kmh WNW 14.0 mph22.5 kmh 29.23 in989.8 mb 0.00 in0.0 mm 0.00 in0.0 mm 0.00 in0.0 mm
12:22 AM 40.7°F4.8°C 36.2°F2.3°C 84% 13.5 mph WNW21.7 kmh WNW 15.0 mph24.1 kmh 29.23 in989.8 mb 0.00 in0.0 mm 0.00 in0.0 mm 0.00 in0.0 mm
12:23 AM 40.7°F4.8°C 36.2°F2.3°C 84% 14.0 mph WNW22.5 kmh WNW 17.0 mph27.4 kmh 29.23 in989.8 mb 0.00 in0.0 mm 0.00 in0.0 mm 0.00 in0.0 mm
12:24 AM 40.7°F4.8°C 36.2°F2.3°C 84% 14.6 mph WNW23.5 kmh WNW 19.0 mph30.6 kmh 29.23 in989.8 mb 0.00 in0.0 mm 0.00 in0.0 mm 0.00 in0.0 mm
12:25 AM 40.7°F4.8°C 36.2°F2.3°C 84% 14.2 mph WNW22.9 kmh WNW 19.0 mph30.6 kmh 29.24 in990.2 mb 0.00 in0.0 mm 0.00 in0.0 mm 0.00 in0.0 mm
12:26 AM 40.7°F4.8°C 36.2°F2.3°C 84% 15.0 mph WNW24.1 kmh WNW 19.0 mph30.6 kmh 29.24 in990.2 mb 0.00 in0.0 mm 0.00 in0.0 mm 0.00 in0.0 mm
12:27 AM 40.7°F4.8°C 36.2°F2.3°C 84% 13.5 mph WNW21.7 kmh WNW 19.0 mph30.6 kmh 29.24 in990.2 mb 0.00 in0.0 mm 0.00 in0.0 mm 0.00 in0.0 mm
12:28 AM 40.6°F4.8°C 36.2°F2.3°C 84% 13.8 mph WNW22.2 kmh WNW 15.0 mph24.1 kmh 29.24 in990.2 mb 0.00 in0.0 mm 0.00 in0.0 mm 0.00 in0.0 mm
12:29 AM 40.6°F4.8°C 36.2°F2.3°C 84% 13.0 mph WNW20.9 kmh WNW 15.0 mph24.1 kmh 29.24 in990.2 mb 0.00 in0.0 mm 0.00 in0.0 mm 0.00 in0.0 mm
12:30 AM 40.5°F4.7°C 35.8°F2.1°C 83% 14.0 mph WNW22.5 kmh WNW 15.0 mph24.1 kmh 29.24 in990.2 mb 0.00 in0.0 mm 0.00 in0.0 mm 0.00 in0.0 mm
12:31 AM 40.5°F4.7°C 36.1°F2.3°C 84% 14.0 mph WNW22.5 kmh WNW 16.0 mph25.7 kmh 29.24 in990.2 mb 0.00 in0.0 mm 0.00 in0.0 mm 0.00 in0.0 mm
12:32 AM 40.5°F4.7°C 36.1°F2.3°C 84% 14.8 mph WNW23.8 kmh WNW 16.0 mph25.7 kmh 29.24 in990.2 mb 0.00 in0.0 mm 0.00 in0.0 mm 0.00 in0.0 mm
12:33 AM 40.5°F4.7°C 36.1°F2.3°C 84% 15.3 mph WNW24.6 kmh WNW 18.0 mph29.0 kmh 29.24 in990.2 mb 0.00 in0.0 mm 0.00 in0.0 mm 0.00 in0.0 mm
12:34 AM 40.6°F4.8°C 36.2°F2.3°C 84% 14.8 mph WNW23.8 kmh WNW 18.0 mph29.0 kmh 29.24 in990.2 mb 0.00 in0.0 mm 0.00 in0.0 mm 0.00 in0.0 mm
12:35 AM 40.6°F4.8°C 36.2°F2.3°C 84% 14.9 mph WNW24.0 kmh WNW 17.0 mph27.4 kmh 29.24 in990.2 mb 0.00 in0.0 mm 0.00 in0.0 mm 0.00 in0.0 mm
12:36 AM 40.5°F4.7°C 36.1°F2.3°C 84% 15.8 mph WNW25.4 kmh WNW 18.0 mph29.0 kmh 29.24 in990.2 mb 0.00 in0.0 mm 0.00 in0.0 mm 0.00 in0.0 mm
12:37 AM 40.5°F4.7°C 36.1°F2.3°C 84% 14.6 mph WNW23.5 kmh WNW 18.0 mph29.0 kmh 29.24 in990.2 mb 0.00 in0.0 mm 0.00 in0.0 mm 0.00 in0.0 mm
12:38 AM 40.5°F4.7°C 36.1°F2.3°C 84% 14.2 mph WNW22.9 kmh WNW 17.0 mph27.4 kmh 29.24 in990.2 mb 0.00 in0.0 mm 0.00 in0.0 mm 0.00 in0.0 mm
12:39 AM 40.5°F4.7°C 36.1°F2.3°C 84% 13.9 mph WNW22.4 kmh WNW 15.0 mph24.1 kmh 29.24 in990.2 mb 0.00 in0.0 mm 0.00 in0.0 mm 0.00 in0.0 mm
12:40 AM 40.4°F4.7°C 36.0°F2.2°C 84% 12.4 mph WNW20.0 kmh WNW 15.0 mph24.1 kmh 29.25 in990.5 mb 0.00 in0.0 mm 0.00 in0.0 mm 0.00 in0.0 mm
12:41 AM 40.4°F4.7°C 36.0°F2.2°C 84% 12.8 mph WNW20.6 kmh WNW 14.0 mph22.5 kmh 29.25 in990.5 mb 0.00 in0.0 mm 0.00 in0.0 mm 0.00 in0.0 mm
12:42 AM 40.4°F4.7°C 36.0°F2.2°C 84% 14.7 mph WNW23.7 kmh WNW 17.0 mph27.4 kmh 29.25 in990.5 mb 0.00 in0.0 mm 0.00 in0.0 mm 0.00 in0.0 mm
12:43 AM 40.4°F4.7°C 36.0°F2.2°C 84% 15.8 mph WNW25.4 kmh WNW 18.0 mph29.0 kmh 29.25 in990.5 mb 0.00 in0.0 mm 0.00 in0.0 mm 0.00 in0.0 mm
12:44 AM 40.5°F4.7°C 36.1°F2.3°C 84% 13.3 mph WNW21.4 kmh WNW 18.0 mph29.0 kmh 29.25 in990.5 mb 0.00 in0.0 mm 0.00 in0.0 mm 0.00 in0.0 mm
12:45 AM 40.4°F4.7°C 36.0°F2.2°C 84% 12.7 mph WNW20.4 kmh WNW 15.0 mph24.1 kmh 29.25 in990.5 mb 0.00 in0.0 mm 0.00 in0.0 mm 0.00 in0.0 mm
12:46 AM 40.3°F4.6°C 35.9°F2.2°C 84% 13.8 mph WNW22.2 kmh WNW 15.0 mph24.1 kmh 29.25 in990.5 mb 0.00 in0.0 mm 0.00 in0.0 mm 0.00 in0.0 mm
12:47 AM 40.2°F4.6°C 35.8°F2.1°C 84% 13.8 mph WNW22.2 kmh WNW 16.0 mph25.7 kmh 29.25 in990.5 mb 0.00 in0.0 mm 0.00 in0.0 mm 0.00 in0.0 mm
12:48 AM 40.2°F4.6°C 35.8°F2.1°C 84% 14.0 mph WNW22.5 kmh WNW 15.0 mph24.1 kmh 29.25 in990.5 mb 0.00 in0.0 mm 0.00 in0.0 mm 0.00 in0.0 mm
12:49 AM 40.2°F4.6°C 35.8°F2.1°C 84% 13.4 mph WNW21.6 kmh WNW 16.0 mph25.7 kmh 29.25 in990.5 mb 0.00 in0.0 mm 0.00 in0.0 mm 0.00 in0.0 mm
12:50 AM 40.2°F4.6°C 36.1°F2.3°C 85% 14.0 mph WNW22.5 kmh WNW 18.0 mph29.0 kmh 29.25 in990.5 mb 0.00 in0.0 mm 0.00 in0.0 mm 0.00 in0.0 mm
12:51 AM 40.2°F4.6°C 35.8°F2.1°C 84% 13.1 mph WNW21.1 kmh WNW 18.0 mph29.0 kmh 29.25 in990.5 mb 0.00 in0.0 mm 0.00 in0.0 mm 0.00 in0.0 mm
12:52 AM 40.1°F4.5°C 35.7°F2.1°C 84% 14.0 mph WNW22.5 kmh WNW 17.0 mph27.4 kmh 29.25 in990.5 mb 0.00 in0.0 mm 0.00 in0.0 mm 0.00 in0.0 mm
12:53 AM 40.1°F4.5°C 36.0°F2.2°C 85% 14.0 mph WNW22.5 kmh WNW 17.0 mph27.4 kmh 29.25 in990.5 mb 0.00 in0.0 mm 0.00 in0.0 mm 0.00 in0.0 mm
12:54 AM 40.1°F4.5°C 36.0°F2.2°C 85% 12.9 mph W20.8 kmh W 15.0 mph24.1 kmh 29.25 in990.5 mb 0.00 in0.0 mm 0.00 in0.0 mm 0.00 in0.0 mm
12:55 AM 40.0°F4.4°C 35.9°F2.2°C 85% 14.0 mph WNW22.5 kmh WNW 16.0 mph25.7 kmh 29.25 in990.5 mb 0.00 in0.0 mm 0.00 in0.0 mm 0.00 in0.0 mm
12:56 AM 40.0°F4.4°C 35.9°F2.2°C 85% 13.0 mph WNW20.9 kmh WNW 16.0 mph25.7 kmh 29.25 in990.5 mb 0.00 in0.0 mm 0.00 in0.0 mm 0.00 in0.0 mm
12:57 AM 39.9°F4.4°C 35.8°F2.1°C 85% 12.8 mph W20.6 kmh W 14.0 mph22.5 kmh 29.25 in990.5 mb 0.00 in0.0 mm 0.00 in0.0 mm 0.00 in0.0 mm
12:58 AM 39.9°F4.4°C 35.8°F2.1°C 85% 12.8 mph WNW20.6 kmh WNW 14.0 mph22.5 kmh 29.25 in990.5 mb 0.00 in0.0 mm 0.00 in0.0 mm 0.00 in0.0 mm
12:59 AM 39.8°F4.3°C 35.7°F2.1°C 85% 12.5 mph W20.1 kmh W 15.0 mph24.1 kmh 29.25 in990.5 mb 0.00 in0.0 mm 0.00 in0.0 mm 0.00 in0.0 mm
01:00 AM 39.8°F4.3°C 35.7°F2.1°C 85% 13.7 mph W22.0 kmh W 15.0 mph24.1 kmh 29.25 in990.5 mb 0.00 in0.0 mm 0.00 in0.0 mm 0.00 in0.0 mm
01:01 AM 39.8°F4.3°C 35.7°F2.1°C 85% 13.2 mph W21.2 kmh W 15.0 mph24.1 kmh 29.25 in990.5 mb 0.00 in0.0 mm 0.00 in0.0 mm 0.00 in0.0 mm
01:02 AM 39.8°F4.3°C 35.7°F2.1°C 85% 14.0 mph W22.5 kmh W 16.0 mph25.7 kmh 29.25 in990.5 mb 0.00 in0.0 mm 0.00 in0.0 mm 0.00 in0.0 mm
01:03 AM 39.8°F4.3°C 35.7°F2.1°C 85% 13.3 mph W21.4 kmh W 16.0 mph25.7 kmh 29.25 in990.5 mb 0.00 in0.0 mm 0.00 in0.0 mm 0.00 in0.0 mm
01:04 AM 39.7°F4.3°C 35.6°F2.0°C 85% 12.1 mph WNW19.5 kmh WNW 15.0 mph24.1 kmh 29.25 in990.5 mb 0.00 in0.0 mm 0.00 in0.0 mm 0.00 in0.0 mm
01:05 AM 39.7°F4.3°C 35.6°F2.0°C 85% 13.6 mph W21.9 kmh W 16.0 mph25.7 kmh 29.25 in990.5 mb 0.00 in0.0 mm 0.00 in0.0 mm 0.00 in0.0 mm
01:06 AM 39.6°F4.2°C 35.5°F1.9°C 85% 13.4 mph W21.6 kmh W 16.0 mph25.7 kmh 29.25 in990.5 mb 0.00 in0.0 mm 0.00 in0.0 mm 0.00 in0.0 mm
01:07 AM 39.6°F4.2°C 35.8°F2.1°C 86% 12.9 mph W20.8 kmh W 15.0 mph24.1 kmh 29.25 in990.5 mb 0.00 in0.0 mm 0.00 in0.0 mm 0.00 in0.0 mm
01:08 AM 39.6°F4.2°C 35.8°F2.1°C 86% 13.7 mph W22.0 kmh W 17.0 mph27.4 kmh 29.25 in990.5 mb 0.00 in0.0 mm 0.00 in0.0 mm 0.00 in0.0 mm
01:09 AM 39.6°F4.2°C 35.8°F2.1°C 86% 15.3 mph W24.6 kmh W 18.0 mph29.0 kmh 29.25 in990.5 mb 0.00 in0.0 mm 0.00 in0.0 mm 0.00 in0.0 mm
01:10 AM 39.6°F4.2°C 35.8°F2.1°C 86% 14.0 mph W22.5 kmh W 16.0 mph25.7 kmh 29.25 in990.5 mb 0.00 in0.0 mm 0.00 in0.0 mm 0.00 in0.0 mm
01:11 AM 39.6°F4.2°C 35.8°F2.1°C 86% 14.0 mph W22.5 kmh W 16.0 mph25.7 kmh 29.26 in990.9 mb 0.00 in0.0 mm 0.00 in0.0 mm 0.00 in0.0 mm
01:12 AM 39.6°F4.2°C 35.8°F2.1°C 86% 12.9 mph W20.8 kmh W 14.0 mph22.5 kmh 29.26 in990.9 mb 0.00 in0.0 mm 0.00 in0.0 mm 0.00 in0.0 mm
01:13 AM 39.5°F4.2°C 35.7°F2.1°C 86% 13.7 mph W22.0 kmh W 15.0 mph24.1 kmh 29.26 in990.9 mb 0.00 in0.0 mm 0.00 in0.0 mm 0.00 in0.0 mm
01:14 AM 39.5°F4.2°C 35.7°F2.1°C 86% 13.0 mph W20.9 kmh W 15.0 mph24.1 kmh 29.26 in990.9 mb 0.00 in0.0 mm 0.00 in0.0 mm 0.00 in0.0 mm
01:15 AM 39.5°F4.2°C 35.7°F2.1°C 86% 13.2 mph W21.2 kmh W 15.0 mph24.1 kmh 29.26 in990.9 mb 0.00 in0.0 mm 0.00 in0.0 mm 0.00 in0.0 mm
01:16 AM 39.5°F4.2°C 35.7°F2.1°C 86% 13.9 mph W22.4 kmh W 15.0 mph24.1 kmh 29.26 in990.9 mb 0.00 in0.0 mm 0.00 in0.0 mm 0.00 in0.0 mm
01:17 AM 39.5°F4.2°C 35.7°F2.1°C 86% 13.9 mph W22.4 kmh W 15.0 mph24.1 kmh 29.26 in990.9 mb 0.00 in0.0 mm 0.00 in0.0 mm 0.00 in0.0 mm
01:18 AM 39.5°F4.2°C 35.7°F2.1°C 86% 13.7 mph WNW22.0 kmh WNW 16.0 mph25.7 kmh 29.26 in990.9 mb 0.00 in0.0 mm 0.00 in0.0 mm 0.00 in0.0 mm
01:19 AM 39.5°F4.2°C 35.7°F2.1°C 86% 13.2 mph W21.2 kmh W 16.0 mph25.7 kmh 29.26 in990.9 mb 0.00 in0.0 mm 0.00 in0.0 mm 0.00 in0.0 mm
01:20 AM 39.4°F4.1°C 35.9°F2.2°C 87% 14.0 mph WNW22.5 kmh WNW 15.0 mph24.1 kmh 29.26 in990.9 mb 0.00 in0.0 mm 0.00 in0.0 mm 0.00 in0.0 mm
01:21 AM 39.4°F4.1°C 35.9°F2.2°C 87% 14.0 mph WNW22.5 kmh WNW 16.0 mph25.7 kmh 29.26 in990.9 mb 0.00 in0.0 mm 0.00 in0.0 mm 0.00 in0.0 mm
01:22 AM 39.4°F4.1°C 35.9°F2.2°C 87% 14.3 mph WNW23.0 kmh WNW 16.0 mph25.7 kmh 29.26 in990.9 mb 0.00 in0.0 mm 0.00 in0.0 mm 0.00 in0.0 mm
01:23 AM 39.4°F4.1°C 35.9°F2.2°C 87% 13.3 mph WNW21.4 kmh WNW 16.0 mph25.7 kmh 29.26 in990.9 mb 0.00 in0.0 mm 0.00 in0.0 mm 0.00 in0.0 mm
01:24 AM 39.3°F4.1°C 35.5°F1.9°C 86% 14.0 mph WNW22.5 kmh WNW 16.0 mph25.7 kmh 29.26 in990.9 mb 0.00 in0.0 mm 0.00 in0.0 mm 0.00 in0.0 mm
01:25 AM 39.3°F4.1°C 35.8°F2.1°C 87% 13.0 mph WNW20.9 kmh WNW 16.0 mph25.7 kmh 29.26 in990.9 mb 0.00 in0.0 mm 0.00 in0.0 mm 0.00 in0.0 mm
01:26 AM 39.3°F4.1°C 35.8°F2.1°C 87% 14.2 mph WNW22.9 kmh WNW 15.0 mph24.1 kmh 29.26 in990.9 mb 0.00 in0.0 mm 0.00 in0.0 mm 0.00 in0.0 mm
01:27 AM 39.3°F4.1°C 35.8°F2.1°C 87% 13.8 mph WNW22.2 kmh WNW 15.0 mph24.1 kmh 29.26 in990.9 mb 0.00 in0.0 mm 0.00 in0.0 mm 0.00 in0.0 mm
01:28 AM 39.2°F4.0°C 35.7°F2.1°C 87% 13.8 mph WNW22.2 kmh WNW 16.0 mph25.7 kmh 29.26 in990.9 mb 0.00 in0.0 mm 0.00 in0.0 mm 0.00 in0.0 mm
01:29 AM 39.2°F4.0°C 35.7°F2.1°C 87% 13.8 mph WNW22.2 kmh WNW 15.0 mph24.1 kmh 29.27 in991.2 mb 0.00 in0.0 mm 0.00 in0.0 mm 0.00 in0.0 mm
01:30 AM 39.2°F4.0°C 35.7°F2.1°C 87% 14.0 mph WNW22.5 kmh WNW 15.0 mph24.1 kmh 29.27 in991.2 mb 0.00 in0.0 mm 0.00 in0.0 mm 0.00 in0.0 mm
01:31 AM 39.2°F4.0°C 35.7°F2.1°C 87% 14.0 mph WNW22.5 kmh WNW 16.0 mph25.7 kmh 29.27 in991.2 mb 0.00 in0.0 mm 0.00 in0.0 mm 0.00 in0.0 mm
01:32 AM 39.2°F4.0°C 35.7°F2.1°C 87% 13.4 mph WNW21.6 kmh WNW 16.0 mph25.7 kmh 29.27 in991.2 mb 0.00 in0.0 mm 0.00 in0.0 mm 0.00 in0.0 mm
01:33 AM 39.2°F4.0°C 35.7°F2.1°C 87% 12.4 mph WNW20.0 kmh WNW 15.0 mph24.1 kmh 29.27 in991.2 mb 0.00 in0.0 mm 0.00 in0.0 mm 0.00 in0.0 mm
01:34 AM 39.1°F3.9°C 35.6°F2.0°C 87% 12.7 mph WNW20.4 kmh WNW 14.0 mph22.5 kmh 29.27 in991.2 mb 0.00 in0.0 mm 0.00 in0.0 mm 0.00 in0.0 mm
01:35 AM 39.1°F3.9°C 35.9°F2.2°C 88% 13.0 mph WNW20.9 kmh WNW 14.0 mph22.5 kmh 29.27 in991.2 mb 0.00 in0.0 mm 0.00 in0.0 mm 0.00 in0.0 mm
01:36 AM 39.1°F3.9°C 35.6°F2.0°C 87% 12.7 mph WNW20.4 kmh WNW 14.0 mph22.5 kmh 29.27 in991.2 mb 0.00 in0.0 mm 0.00 in0.0 mm 0.00 in0.0 mm
01:37 AM 39.1°F3.9°C 35.9°F2.2°C 88% 12.8 mph WNW20.6 kmh WNW 15.0 mph24.1 kmh 29.27 in991.2 mb 0.00 in0.0 mm 0.00 in0.0 mm 0.00 in0.0 mm
01:38 AM 39.1°F3.9°C 35.9°F2.2°C 88% 13.2 mph WNW21.2 kmh WNW 15.0 mph24.1 kmh 29.27 in991.2 mb 0.00 in0.0 mm 0.00 in0.0 mm 0.00 in0.0 mm
01:39 AM 39.1°F3.9°C 35.9°F2.2°C 88% 13.4 mph WNW21.6 kmh WNW 15.0 mph24.1 kmh 29.27 in991.2 mb 0.00 in0.0 mm 0.00 in0.0 mm 0.00 in0.0 mm
01:40 AM 39.2°F4.0°C 35.9°F2.2°C 88% 13.0 mph WNW20.9 kmh WNW 15.0 mph24.1 kmh 29.27 in991.2 mb 0.00 in0.0 mm 0.00 in0.0 mm 0.00 in0.0 mm
01:41 AM 39.2°F4.0°C 35.9°F2.2°C 88% 14.4 mph WNW23.2 kmh WNW 17.0 mph27.4 kmh 29.27 in991.2 mb 0.00 in0.0 mm 0.00 in0.0 mm 0.00 in0.0 mm
01:42 AM 39.2°F4.0°C 35.9°F2.2°C 88% 14.2 mph NW22.9 kmh NW 17.0 mph27.4 kmh 29.27 in991.2 mb 0.00 in0.0 mm 0.00 in0.0 mm 0.00 in0.0 mm
01:43 AM 39.3°F4.1°C 36.0°F2.2°C 88% 14.4 mph WNW23.2 kmh WNW 16.0 mph25.7 kmh 29.27 in991.2 mb 0.00 in0.0 mm 0.00 in0.0 mm 0.00 in0.0 mm
01:44 AM 39.4°F4.1°C 36.1°F2.3°C 88% 14.7 mph WNW23.7 kmh WNW 17.0 mph27.4 kmh 29.27 in991.2 mb 0.00 in0.0 mm 0.00 in0.0 mm 0.00 in0.0 mm
01:45 AM 39.4°F4.1°C 36.1°F2.3°C 88% 15.0 mph WNW24.1 kmh WNW 18.0 mph29.0 kmh 29.27 in991.2 mb 0.00 in0.0 mm 0.00 in0.0 mm 0.00 in0.0 mm
01:46 AM 39.4°F4.1°C 36.1°F2.3°C 88% 13.6 mph WNW21.9 kmh WNW 18.0 mph29.0 kmh 29.27 in991.2 mb 0.00 in0.0 mm 0.00 in0.0 mm 0.00 in0.0 mm
01:47 AM 39.4°F4.1°C 36.1°F2.3°C 88% 15.0 mph WNW24.1 kmh WNW 16.0 mph25.7 kmh 29.27 in991.2 mb 0.00 in0.0 mm 0.00 in0.0 mm 0.00 in0.0 mm
01:48 AM 39.3°F4.1°C 36.0°F2.2°C 88% 14.0 mph WNW22.5 kmh WNW 15.0 mph24.1 kmh 29.27 in991.2 mb 0.00 in0.0 mm 0.00 in0.0 mm 0.00 in0.0 mm
01:49 AM 39.4°F4.1°C 36.1°F2.3°C 88% 16.0 mph WNW25.7 kmh WNW 18.0 mph29.0 kmh 29.27 in991.2 mb 0.00 in0.0 mm 0.00 in0.0 mm 0.00 in0.0 mm
01:50 AM 39.5°F4.2°C 36.2°F2.3°C 88% 15.0 mph NW24.1 kmh NW 17.0 mph27.4 kmh 29.27 in991.2 mb 0.00 in0.0 mm 0.00 in0.0 mm 0.00 in0.0 mm
01:51 AM 39.5°F4.2°C 36.2°F2.3°C 88% 14.5 mph WNW23.3 kmh WNW 17.0 mph27.4 kmh 29.27 in991.2 mb 0.00 in0.0 mm 0.00 in0.0 mm 0.00 in0.0 mm
01:52 AM 39.4°F4.1°C 36.1°F2.3°C 88% 13.6 mph NW21.9 kmh NW 16.0 mph25.7 kmh 29.27 in991.2 mb 0.00 in0.0 mm 0.00 in0.0 mm 0.00 in0.0 mm
01:53 AM 39.4°F4.1°C 36.1°F2.3°C 88% 13.7 mph NW22.0 kmh NW 15.0 mph24.1 kmh 29.28 in991.5 mb 0.00 in0.0 mm 0.00 in0.0 mm 0.00 in0.0 mm
01:54 AM 39.4°F4.1°C 36.1°F2.3°C 88% 13.6 mph NW21.9 kmh NW 16.0 mph25.7 kmh 29.28 in991.5 mb 0.00 in0.0 mm 0.00 in0.0 mm 0.00 in0.0 mm
01:55 AM 39.4°F4.1°C 36.1°F2.3°C 88% 13.1 mph NW21.1 kmh NW 16.0 mph25.7 kmh 29.28 in991.5 mb 0.00 in0.0 mm 0.00 in0.0 mm 0.00 in0.0 mm
01:56 AM 39.4°F4.1°C 36.1°F2.3°C 88% 13.0 mph NW20.9 kmh NW 15.0 mph24.1 kmh 29.28 in991.5 mb 0.00 in0.0 mm 0.00 in0.0 mm 0.00 in0.0 mm
01:57 AM 39.3°F4.1°C 36.0°F2.2°C 88% 13.7 mph NW22.0 kmh NW 15.0 mph24.1 kmh 29.28 in991.5 mb 0.00 in0.0 mm 0.00 in0.0 mm 0.00 in0.0 mm
01:58 AM 39.3°F4.1°C 36.0°F2.2°C 88% 14.2 mph NW22.9 kmh NW 16.0 mph25.7 kmh 29.28 in991.5 mb 0.00 in0.0 mm 0.00 in0.0 mm 0.00 in0.0 mm
01:59 AM 39.3°F4.1°C 36.0°F2.2°C 88% 14.5 mph NW23.3 kmh NW 17.0 mph27.4 kmh 29.28 in991.5 mb 0.00 in0.0 mm 0.00 in0.0 mm 0.00 in0.0 mm
02:00 AM 39.3°F4.1°C 36.0°F2.2°C 88% 14.6 mph NW23.5 kmh NW 17.0 mph27.4 kmh 29.28 in991.5 mb 0.00 in0.0 mm 0.00 in0.0 mm 0.00 in0.0 mm
02:01 AM 39.4°F4.1°C 36.1°F2.3°C 88% 15.5 mph NW24.9 kmh NW 17.0 mph27.4 kmh 29.28 in991.5 mb 0.00 in0.0 mm 0.00 in0.0 mm 0.00 in0.0 mm
02:02 AM 39.4°F4.1°C 36.1°F2.3°C 88% 14.6 mph NW23.5 kmh NW 17.0 mph27.4 kmh 29.29 in991.9 mb 0.00 in0.0 mm 0.00 in0.0 mm 0.00 in0.0 mm
02:03 AM 39.4°F4.1°C 36.1°F2.3°C 88% 13.5 mph NW21.7 kmh NW 17.0 mph27.4 kmh 29.29 in991.9 mb 0.00 in0.0 mm 0.00 in0.0 mm 0.00 in0.0 mm
02:04 AM 39.3°F4.1°C 36.0°F2.2°C 88% 14.2 mph NW22.9 kmh NW 15.0 mph24.1 kmh 29.29 in991.9 mb 0.00 in0.0 mm 0.00 in0.0 mm 0.00 in0.0 mm
02:05 AM 39.3°F4.1°C 36.0°F2.2°C 88% 13.6 mph NW21.9 kmh NW 16.0 mph25.7 kmh 29.29 in991.9 mb 0.00 in0.0 mm 0.00 in0.0 mm 0.00 in0.0 mm
02:06 AM 39.3°F4.1°C 36.0°F2.2°C 88% 14.0 mph NW22.5 kmh NW 16.0 mph25.7 kmh 29.29 in991.9 mb 0.00 in0.0 mm 0.00 in0.0 mm 0.00 in0.0 mm
02:07 AM 39.2°F4.0°C 35.9°F2.2°C 88% 15.0 mph NW24.1 kmh NW 16.0 mph25.7 kmh 29.29 in991.9 mb 0.00 in0.0 mm 0.00 in0.0 mm 0.00 in0.0 mm
02:08 AM 39.2°F4.0°C 35.9°F2.2°C 88% 14.8 mph NW23.8 kmh NW 17.0 mph27.4 kmh 29.29 in991.9 mb 0.00 in0.0 mm 0.00 in0.0 mm 0.00 in0.0 mm
02:09 AM 39.2°F4.0°C 35.9°F2.2°C 88% 14.5 mph NW23.3 kmh NW 17.0 mph27.4 kmh 29.29 in991.9 mb 0.00 in0.0 mm 0.00 in0.0 mm 0.00 in0.0 mm
02:10 AM 39.2°F4.0°C 35.9°F2.2°C 88% 14.1 mph NW22.7 kmh NW 16.0 mph25.7 kmh 29.29 in991.9 mb 0.00 in0.0 mm 0.00 in0.0 mm 0.00 in0.0 mm
02:11 AM 39.1°F3.9°C 35.9°F2.2°C 88% 15.1 mph NW24.3 kmh NW 17.0 mph27.4 kmh 29.29 in991.9 mb 0.00 in0.0 mm 0.00 in0.0 mm 0.00 in0.0 mm
02:12 AM 39.1°F3.9°C 35.9°F2.2°C 88% 14.0 mph NW22.5 kmh NW 17.0 mph27.4 kmh 29.29 in991.9 mb 0.00 in0.0 mm 0.00 in0.0 mm 0.00 in0.0 mm
02:13 AM 39.0°F3.9°C 35.8°F2.1°C 88% 13.7 mph NW22.0 kmh NW 15.0 mph24.1 kmh 29.29 in991.9 mb 0.00 in0.0 mm 0.00 in0.0 mm 0.00 in0.0 mm
02:14 AM 38.9°F3.8°C 35.7°F2.1°C 88% 13.1 mph NW21.1 kmh NW 15.0 mph24.1 kmh 29.29 in991.9 mb 0.00 in0.0 mm 0.00 in0.0 mm 0.00 in0.0 mm
02:15 AM 38.8°F3.8°C 35.6°F2.0°C 88% 12.4 mph NW20.0 kmh NW 15.0 mph24.1 kmh 29.30 in992.2 mb 0.00 in0.0 mm 0.00 in0.0 mm 0.00 in0.0 mm
02:16 AM 38.8°F3.8°C 35.6°F2.0°C 88% 12.5 mph NW20.1 kmh NW 14.0 mph22.5 kmh 29.30 in992.2 mb 0.00 in0.0 mm 0.00 in0.0 mm 0.00 in0.0 mm
02:17 AM 38.7°F3.7°C 35.5°F1.9°C 88% 12.9 mph NW20.8 kmh NW 15.0 mph24.1 kmh 29.30 in992.2 mb 0.00 in0.0 mm 0.00 in0.0 mm 0.00 in0.0 mm
02:18 AM 38.6°F3.7°C 35.4°F1.9°C 88% 12.1 mph NW19.5 kmh NW 15.0 mph24.1 kmh 29.30 in992.2 mb 0.00 in0.0 mm 0.00 in0.0 mm 0.00 in0.0 mm
02:19 AM 38.6°F3.7°C 35.4°F1.9°C 88% 13.0 mph NW20.9 kmh NW 15.0 mph24.1 kmh 29.30 in992.2 mb 0.00 in0.0 mm 0.00 in0.0 mm 0.00 in0.0 mm
02:20 AM 38.6°F3.7°C 35.4°F1.9°C 88% 12.2 mph NW19.6 kmh NW 15.0 mph24.1 kmh 29.30 in992.2 mb 0.00 in0.0 mm 0.00 in0.0 mm 0.00 in0.0 mm
02:21 AM 38.5°F3.6°C 35.3°F1.8°C 88% 12.0 mph NNW19.3 kmh NNW 13.0 mph20.9 kmh 29.30 in992.2 mb 0.00 in0.0 mm 0.00 in0.0 mm 0.00 in0.0 mm
02:22 AM 38.4°F3.6°C 35.2°F1.8°C 88% 12.0 mph NW19.3 kmh NW 14.0 mph22.5 kmh 29.30 in992.2 mb 0.00 in0.0 mm 0.00 in0.0 mm 0.00 in0.0 mm
02:23 AM 38.4°F3.6°C 35.4°F1.9°C 89% 12.7 mph NW20.4 kmh NW 14.0 mph22.5 kmh 29.30 in992.2 mb 0.00 in0.0 mm 0.00 in0.0 mm 0.00 in0.0 mm
02:24 AM 38.3°F3.5°C 35.3°F1.8°C 89% 12.2 mph NW19.6 kmh NW 14.0 mph22.5 kmh 29.30 in992.2 mb 0.00 in0.0 mm 0.00 in0.0 mm 0.00 in0.0 mm
02:25 AM 38.3°F3.5°C 35.1°F1.7°C 88% 12.6 mph NW20.3 kmh NW 15.0 mph24.1 kmh 29.30 in992.2 mb 0.00 in0.0 mm 0.00 in0.0 mm 0.00 in0.0 mm
02:26 AM 38.2°F3.4°C 35.0°F1.7°C 88% 12.5 mph NW20.1 kmh NW 15.0 mph24.1 kmh 29.30 in992.2 mb 0.00 in0.0 mm 0.00 in0.0 mm 0.00 in0.0 mm
02:27 AM 38.2°F3.4°C 35.0°F1.7°C 88% 12.4 mph NW20.0 kmh NW 14.0 mph22.5 kmh 29.30 in992.2 mb 0.00 in0.0 mm 0.00 in0.0 mm 0.00 in0.0 mm
02:28 AM 38.2°F3.4°C 35.2°F1.8°C 89% 13.5 mph NW21.7 kmh NW 15.0 mph24.1 kmh 29.30 in992.2 mb 0.00 in0.0 mm 0.00 in0.0 mm 0.00 in0.0 mm
02:29 AM 38.1°F3.4°C 35.2°F1.8°C 89% 12.7 mph NW20.4 kmh NW 15.0 mph24.1 kmh 29.30 in992.2 mb 0.00 in0.0 mm 0.00 in0.0 mm 0.00 in0.0 mm
02:30 AM 38.1°F3.4°C 35.2°F1.8°C 89% 12.9 mph NW20.8 kmh NW 14.0 mph22.5 kmh 29.30 in992.2 mb 0.00 in0.0 mm 0.00 in0.0 mm 0.00 in0.0 mm
02:31 AM 38.1°F3.4°C 35.2°F1.8°C 89% 13.6 mph NW21.9 kmh NW 14.0 mph22.5 kmh 29.30 in992.2 mb 0.00 in0.0 mm 0.00 in0.0 mm 0.00 in0.0 mm
02:32 AM 38.1°F3.4°C 35.2°F1.8°C 89% 13.1 mph NW21.1 kmh NW 14.0 mph22.5 kmh 29.31 in992.6 mb 0.00 in0.0 mm 0.00 in0.0 mm 0.00 in0.0 mm
02:33 AM 38.1°F3.4°C 35.2°F1.8°C 89% 13.1 mph NW21.1 kmh NW 14.0 mph22.5 kmh 29.31 in992.6 mb 0.00 in0.0 mm 0.00 in0.0 mm 0.00 in0.0 mm
02:34 AM 38.0°F3.3°C 35.1°F1.7°C 89% 13.0 mph NW20.9 kmh NW 14.0 mph22.5 kmh 29.31 in992.6 mb 0.00 in0.0 mm 0.00 in0.0 mm 0.00 in0.0 mm
02:35 AM 38.0°F3.3°C 35.1°F1.7°C 89% 13.0 mph NW20.9 kmh NW 14.0 mph22.5 kmh 29.31 in992.6 mb 0.00 in0.0 mm 0.00 in0.0 mm 0.00 in0.0 mm
02:36 AM 37.9°F3.3°C 35.0°F1.7°C 89% 13.0 mph NW20.9 kmh NW 14.0 mph22.5 kmh 29.31 in992.6 mb 0.00 in0.0 mm 0.00 in0.0 mm 0.00 in0.0 mm
02:37 AM 37.9°F3.3°C 35.0°F1.7°C 89% 12.7 mph NW20.4 kmh NW 14.0 mph22.5 kmh 29.31 in992.6 mb 0.00 in0.0 mm 0.00 in0.0 mm 0.00 in0.0 mm
02:38 AM 37.9°F3.3°C 35.0°F1.7°C 89% 12.6 mph NW20.3 kmh NW 14.0 mph22.5 kmh 29.31 in992.6 mb 0.00 in0.0 mm 0.00 in0.0 mm 0.00 in0.0 mm
02:39 AM 37.9°F3.3°C 35.0°F1.7°C 89% 13.1 mph NW21.1 kmh NW 14.0 mph22.5 kmh 29.31 in992.6 mb 0.00 in0.0 mm 0.00 in0.0 mm 0.00 in0.0 mm
02:40 AM 37.8°F3.2°C 34.9°F1.6°C 89% 12.9 mph NW20.8 kmh NW 14.0 mph22.5 kmh 29.31 in992.6 mb 0.00 in0.0 mm 0.00 in0.0 mm 0.00 in0.0 mm
02:41 AM 37.8°F3.2°C 34.9°F1.6°C 89% 13.4 mph NW21.6 kmh NW 15.0 mph24.1 kmh 29.31 in992.6 mb 0.00 in0.0 mm 0.00 in0.0 mm 0.00 in0.0 mm
02:42 AM 37.8°F3.2°C 34.9°F1.6°C 89% 13.1 mph NW21.1 kmh NW 15.0 mph24.1 kmh 29.31 in992.6 mb 0.00 in0.0 mm 0.00 in0.0 mm 0.00 in0.0 mm
02:43 AM 37.8°F3.2°C 34.9°F1.6°C 89% 13.1 mph NW21.1 kmh NW 14.0 mph22.5 kmh 29.32 in992.9 mb 0.00 in0.0 mm 0.00 in0.0 mm 0.00 in0.0 mm
02:44 AM 37.7°F3.2°C 34.8°F1.6°C 89% 13.5 mph NW21.7 kmh NW 16.0 mph25.7 kmh 29.32 in992.9 mb 0.00 in0.0 mm 0.00 in0.0 mm 0.00 in0.0 mm
02:45 AM 37.8°F3.2°C 34.9°F1.6°C 89% 14.7 mph NW23.7 kmh NW 17.0 mph27.4 kmh 29.32 in992.9 mb 0.00 in0.0 mm 0.00 in0.0 mm 0.00 in0.0 mm
02:46 AM 37.8°F3.2°C 34.9°F1.6°C 89% 16.0 mph NNW25.7 kmh NNW 18.0 mph29.0 kmh 29.32 in992.9 mb 0.00 in0.0 mm 0.00 in0.0 mm 0.00 in0.0 mm
02:47 AM 37.8°F3.2°C 34.9°F1.6°C 89% 17.0 mph NNW27.4 kmh NNW 19.0 mph30.6 kmh 29.32 in992.9 mb 0.00 in0.0 mm 0.00 in0.0 mm 0.00 in0.0 mm
02:48 AM 37.9°F3.3°C 35.0°F1.7°C 89% 15.0 mph NNW24.1 kmh NNW 16.0 mph25.7 kmh 29.32 in992.9 mb 0.00 in0.0 mm 0.00 in0.0 mm 0.00 in0.0 mm
02:49 AM 37.9°F3.3°C 35.0°F1.7°C 89% 13.5 mph NNW21.7 kmh NNW 15.0 mph24.1 kmh 29.32 in992.9 mb 0.00 in0.0 mm 0.00 in0.0 mm 0.00 in0.0 mm
02:50 AM 37.9°F3.3°C 35.0°F1.7°C 89% 12.5 mph NNW20.1 kmh NNW 15.0 mph24.1 kmh 29.32 in992.9 mb 0.00 in0.0 mm 0.00 in0.0 mm 0.00 in0.0 mm
02:51 AM 37.9°F3.3°C 35.0°F1.7°C 89% 13.3 mph NNW21.4 kmh NNW 14.0 mph22.5 kmh 29.32 in992.9 mb 0.00 in0.0 mm 0.00 in0.0 mm 0.00 in0.0 mm
02:52 AM 37.8°F3.2°C 34.9°F1.6°C 89% 12.7 mph NNW20.4 kmh NNW 15.0 mph24.1 kmh 29.32 in992.9 mb 0.00 in0.0 mm 0.00 in0.0 mm 0.00 in0.0 mm
02:53 AM 37.9°F3.3°C 35.0°F1.7°C 89% 13.6 mph NW21.9 kmh NW 15.0 mph24.1 kmh 29.32 in992.9 mb 0.00 in0.0 mm 0.00 in0.0 mm 0.00 in0.0 mm
02:54 AM 37.8°F3.2°C 34.9°F1.6°C 89% 12.9 mph NW20.8 kmh NW 15.0 mph24.1 kmh 29.32 in992.9 mb 0.00 in0.0 mm 0.00 in0.0 mm 0.00 in0.0 mm
02:55 AM 37.8°F3.2°C 34.9°F1.6°C 89% 13.2 mph NNW21.2 kmh NNW 15.0 mph24.1 kmh 29.32 in992.9 mb 0.00 in0.0 mm 0.00 in0.0 mm 0.00 in0.0 mm
02:56 AM 37.8°F3.2°C 34.9°F1.6°C 89% 13.6 mph NW21.9 kmh NW 16.0 mph25.7 kmh 29.32 in992.9 mb 0.00 in0.0 mm 0.00 in0.0 mm 0.00 in0.0 mm
02:57 AM 37.8°F3.2°C 34.9°F1.6°C 89% 13.2 mph NW21.2 kmh NW 16.0 mph25.7 kmh 29.32 in992.9 mb 0.00 in0.0 mm 0.00 in0.0 mm 0.00 in0.0 mm
02:58 AM 37.8°F3.2°C 34.9°F1.6°C 89% 13.3 mph NW21.4 kmh NW 15.0 mph24.1 kmh 29.32 in992.9 mb 0.00 in0.0 mm 0.00 in0.0 mm 0.00 in0.0 mm
02:59 AM 37.8°F3.2°C 34.9°F1.6°C 89% 12.6 mph NW20.3 kmh NW 15.0 mph24.1 kmh 29.32 in992.9 mb 0.00 in0.0 mm 0.00 in0.0 mm 0.00 in0.0 mm
03:00 AM 37.7°F3.2°C 34.8°F1.6°C 89% 12.8 mph NW20.6 kmh NW 14.0 mph22.5 kmh 29.33 in993.2 mb 0.00 in0.0 mm 0.00 in0.0 mm 0.00 in0.0 mm
03:01 AM 37.7°F3.2°C 34.8°F1.6°C 89% 13.1 mph NW21.1 kmh NW 14.0 mph22.5 kmh 29.33 in993.2 mb 0.00 in0.0 mm 0.00 in0.0 mm 0.00 in0.0 mm
03:02 AM 37.7°F3.2°C 34.8°F1.6°C 89% 13.3 mph NW21.4 kmh NW 14.0 mph22.5 kmh 29.33 in993.2 mb 0.00 in0.0 mm 0.00 in0.0 mm 0.00 in0.0 mm
03:03 AM 37.7°F3.2°C 34.8°F1.6°C 89% 13.0 mph NW20.9 kmh NW 14.0 mph22.5 kmh 29.33 in993.2 mb 0.00 in0.0 mm 0.00 in0.0 mm 0.00 in0.0 mm
03:04 AM 37.7°F3.2°C 34.8°F1.6°C 89% 13.0 mph NW20.9 kmh NW 14.0 mph22.5 kmh 29.33 in993.2 mb 0.00 in0.0 mm 0.00 in0.0 mm 0.00 in0.0 mm
03:05 AM 37.7°F3.2°C 34.5°F1.4°C 88% 13.3 mph NW21.4 kmh NW 14.0 mph22.5 kmh 29.33 in993.2 mb 0.00 in0.0 mm 0.00 in0.0 mm 0.00 in0.0 mm
03:06 AM 37.7°F3.2°C 34.8°F1.6°C 89% 13.9 mph NW22.4 kmh NW 15.0 mph24.1 kmh 29.33 in993.2 mb 0.00 in0.0 mm 0.00 in0.0 mm 0.00 in0.0 mm
03:07 AM 37.7°F3.2°C 34.8°F1.6°C 89% 14.1 mph NW22.7 kmh NW 15.0 mph24.1 kmh 29.33 in993.2 mb 0.00 in0.0 mm 0.00 in0.0 mm 0.00 in0.0 mm
03:08 AM 37.7°F3.2°C 34.8°F1.6°C 89% 13.5 mph NW21.7 kmh NW 15.0 mph24.1 kmh 29.33 in993.2 mb 0.00 in0.0 mm 0.00 in0.0 mm 0.00 in0.0 mm
03:09 AM 37.7°F3.2°C 34.8°F1.6°C 89% 13.7 mph NW22.0 kmh NW 15.0 mph24.1 kmh 29.33 in993.2 mb 0.00 in0.0 mm 0.00 in0.0 mm 0.00 in0.0 mm
03:10 AM 37.8°F3.2°C 34.9°F1.6°C 89% 13.6 mph NW21.9 kmh NW 15.0 mph24.1 kmh 29.33 in993.2 mb 0.00 in0.0 mm 0.00 in0.0 mm 0.00 in0.0 mm
03:11 AM 37.8°F3.2°C 34.9°F1.6°C 89% 14.5 mph NW23.3 kmh NW 16.0 mph25.7 kmh 29.33 in993.2 mb 0.00 in0.0 mm 0.00 in0.0 mm 0.00 in0.0 mm
03:12 AM 37.9°F3.3°C 35.0°F1.7°C 89% 14.2 mph NW22.9 kmh NW 16.0 mph25.7 kmh 29.33 in993.2 mb 0.00 in0.0 mm 0.00 in0.0 mm 0.00 in0.0 mm
03:13 AM 37.9°F3.3°C 34.7°F1.5°C 88% 14.0 mph NW22.5 kmh NW 15.0 mph24.1 kmh 29.33 in993.2 mb 0.00 in0.0 mm 0.00 in0.0 mm 0.00 in0.0 mm
03:14 AM 37.9°F3.3°C 34.7°F1.5°C 88% 13.0 mph NW20.9 kmh NW 15.0 mph24.1 kmh 29.33 in993.2 mb 0.00 in0.0 mm 0.00 in0.0 mm 0.00 in0.0 mm
03:15 AM 37.9°F3.3°C 34.7°F1.5°C 88% 13.5 mph NW21.7 kmh NW 14.0 mph22.5 kmh 29.33 in993.2 mb 0.00 in0.0 mm 0.00 in0.0 mm 0.00 in0.0 mm
03:16 AM 37.9°F3.3°C 34.7°F1.5°C 88% 13.2 mph NW21.2 kmh NW 14.0 mph22.5 kmh 29.33 in993.2 mb 0.00 in0.0 mm 0.00 in0.0 mm 0.00 in0.0 mm
03:17 AM 37.8°F3.2°C 34.6°F1.4°C 88% 13.5 mph NW21.7 kmh NW 15.0 mph24.1 kmh 29.33 in993.2 mb 0.00 in0.0 mm 0.00 in0.0 mm 0.00 in0.0 mm
03:18 AM 37.9°F3.3°C 34.7°F1.5°C 88% 13.4 mph NW21.6 kmh NW 15.0 mph24.1 kmh 29.34 in993.6 mb 0.00 in0.0 mm 0.00 in0.0 mm 0.00 in0.0 mm
03:19 AM 37.8°F3.2°C 34.6°F1.4°C 88% 13.5 mph NW21.7 kmh NW 15.0 mph24.1 kmh 29.34 in993.6 mb 0.00 in0.0 mm 0.00 in0.0 mm 0.00 in0.0 mm
03:20 AM 37.8°F3.2°C 34.6°F1.4°C 88% 13.8 mph NW22.2 kmh NW 16.0 mph25.7 kmh 29.34 in993.6 mb 0.00 in0.0 mm 0.00 in0.0 mm 0.00 in0.0 mm
03:21 AM 37.8°F3.2°C 34.6°F1.4°C 88% 13.3 mph NW21.4 kmh NW 16.0 mph25.7 kmh 29.34 in993.6 mb 0.00 in0.0 mm 0.00 in0.0 mm 0.00 in0.0 mm
03:22 AM 37.8°F3.2°C 34.6°F1.4°C 88% 13.5 mph NW21.7 kmh NW 15.0 mph24.1 kmh 29.34 in993.6 mb 0.00 in0.0 mm 0.00 in0.0 mm 0.00 in0.0 mm
03:23 AM 37.8°F3.2°C 34.6°F1.4°C 88% 13.5 mph NW21.7 kmh NW 15.0 mph24.1 kmh 29.34 in993.6 mb 0.00 in0.0 mm 0.00 in0.0 mm 0.00 in0.0 mm
03:24 AM 37.8°F3.2°C 34.6°F1.4°C 88% 14.3 mph NW23.0 kmh NW 16.0 mph25.7 kmh 29.34 in993.6 mb 0.00 in0.0 mm 0.00 in0.0 mm 0.00 in0.0 mm
03:25 AM 37.8°F3.2°C 34.6°F1.4°C 88% 14.7 mph NW23.7 kmh NW 16.0 mph25.7 kmh 29.34 in993.6 mb 0.00 in0.0 mm 0.00 in0.0 mm 0.00 in0.0 mm
03:26 AM 37.8°F3.2°C 34.6°F1.4°C 88% 13.5 mph NW21.7 kmh NW 16.0 mph25.7 kmh 29.34 in993.6 mb 0.00 in0.0 mm 0.00 in0.0 mm 0.00 in0.0 mm
03:27 AM 37.8°F3.2°C 34.6°F1.4°C 88% 14.6 mph NW23.5 kmh NW 16.0 mph25.7 kmh 29.34 in993.6 mb 0.00 in0.0 mm 0.00 in0.0 mm 0.00 in0.0 mm
03:28 AM 37.8°F3.2°C 34.6°F1.4°C 88% 14.0 mph NW22.5 kmh NW 16.0 mph25.7 kmh 29.34 in993.6 mb 0.00 in0.0 mm 0.00 in0.0 mm 0.00 in0.0 mm
03:29 AM 37.8°F3.2°C 34.6°F1.4°C 88% 14.0 mph NW22.5 kmh NW 16.0 mph25.7 kmh 29.34 in993.6 mb 0.00 in0.0 mm 0.00 in0.0 mm 0.00 in0.0 mm
03:30 AM 37.8°F3.2°C 34.6°F1.4°C 88% 14.5 mph NW23.3 kmh NW 16.0 mph25.7 kmh 29.34 in993.6 mb 0.00 in0.0 mm 0.00 in0.0 mm 0.00 in0.0 mm
03:31 AM 37.8°F3.2°C 34.6°F1.4°C 88% 14.5 mph NW23.3 kmh NW 16.0 mph25.7 kmh 29.34 in993.6 mb 0.00 in0.0 mm 0.00 in0.0 mm 0.00 in0.0 mm
03:32 AM 37.8°F3.2°C 34.6°F1.4°C 88% 14.0 mph NW22.5 kmh NW 15.0 mph24.1 kmh 29.34 in993.6 mb 0.00 in0.0 mm 0.00 in0.0 mm 0.00 in0.0 mm
03:33 AM 37.8°F3.2°C 34.6°F1.4°C 88% 14.0 mph NW22.5 kmh NW 16.0 mph25.7 kmh 29.34 in993.6 mb 0.00 in0.0 mm 0.00 in0.0 mm 0.00 in0.0 mm
03:34 AM 37.8°F3.2°C 34.6°F1.4°C 88% 13.5 mph NW21.7 kmh NW 15.0 mph24.1 kmh 29.34 in993.6 mb 0.00 in0.0 mm 0.00 in0.0 mm 0.00 in0.0 mm
03:35 AM 37.8°F3.2°C 34.6°F1.4°C 88% 14.0 mph NW22.5 kmh NW 16.0 mph25.7 kmh 29.34 in993.6 mb 0.00 in0.0 mm 0.00 in0.0 mm 0.00 in0.0 mm
03:36 AM 37.8°F3.2°C 34.6°F1.4°C 88% 13.4 mph NW21.6 kmh NW 16.0 mph25.7 kmh 29.35 in993.9 mb 0.00 in0.0 mm 0.00 in0.0 mm 0.00 in0.0 mm
03:37 AM 37.8°F3.2°C 34.6°F1.4°C 88% 13.2 mph NW21.2 kmh NW 15.0 mph24.1 kmh 29.35 in993.9 mb 0.00 in0.0 mm 0.00 in0.0 mm 0.00 in0.0 mm
03:38 AM 37.8°F3.2°C 34.6°F1.4°C 88% 14.2 mph NW22.9 kmh NW 15.0 mph24.1 kmh 29.35 in993.9 mb 0.00 in0.0 mm 0.00 in0.0 mm 0.00 in0.0 mm
03:39 AM 37.8°F3.2°C 34.6°F1.4°C 88% 13.8 mph NW22.2 kmh NW 16.0 mph25.7 kmh 29.35 in993.9 mb 0.00 in0.0 mm 0.00 in0.0 mm 0.00 in0.0 mm
03:40 AM 37.8°F3.2°C 34.6°F1.4°C 88% 13.3 mph NW21.4 kmh NW 16.0 mph25.7 kmh 29.35 in993.9 mb 0.00 in0.0 mm 0.00 in0.0 mm 0.00 in0.0 mm
03:41 AM 37.8°F3.2°C 34.6°F1.4°C 88% 13.2 mph NW21.2 kmh NW 15.0 mph24.1 kmh 29.35 in993.9 mb 0.00 in0.0 mm 0.00 in0.0 mm 0.00 in0.0 mm
03:42 AM 37.8°F3.2°C 34.6°F1.4°C 88% 13.3 mph NW21.4 kmh NW 15.0 mph24.1 kmh 29.35 in993.9 mb 0.00 in0.0 mm 0.00 in0.0 mm 0.00 in0.0 mm
03:43 AM 37.8°F3.2°C 34.6°F1.4°C 88% 13.3 mph NW21.4 kmh NW 15.0 mph24.1 kmh 29.35 in993.9 mb 0.00 in0.0 mm 0.00 in0.0 mm 0.00 in0.0 mm
03:44 AM 37.8°F3.2°C 34.6°F1.4°C 88% 13.4 mph NW21.6 kmh NW 15.0 mph24.1 kmh 29.35 in993.9 mb 0.00 in0.0 mm 0.00 in0.0 mm 0.00 in0.0 mm
03:45 AM 37.8°F3.2°C 34.6°F1.4°C 88% 12.4 mph NW20.0 kmh NW 15.0 mph24.1 kmh 29.35 in993.9 mb 0.00 in0.0 mm 0.00 in0.0 mm 0.00 in0.0 mm
03:46 AM 37.8°F3.2°C 34.6°F1.4°C 88% 13.8 mph NW22.2 kmh NW 16.0 mph25.7 kmh 29.35 in993.9 mb 0.00 in0.0 mm 0.00 in0.0 mm 0.00 in0.0 mm
03:47 AM 37.8°F3.2°C 34.6°F1.4°C 88% 13.7 mph NW22.0 kmh NW 16.0 mph25.7 kmh 29.35 in993.9 mb 0.00 in0.0 mm 0.00 in0.0 mm 0.00 in0.0 mm
03:48 AM 37.9°F3.3°C 34.7°F1.5°C 88% 13.5 mph NW21.7 kmh NW 16.0 mph25.7 kmh 29.36 in994.2 mb 0.00 in0.0 mm 0.00 in0.0 mm 0.00 in0.0 mm
03:49 AM 37.9°F3.3°C 34.7°F1.5°C 88% 14.2 mph NW22.9 kmh NW 16.0 mph25.7 kmh 29.36 in994.2 mb 0.00 in0.0 mm 0.00 in0.0 mm 0.00 in0.0 mm
03:50 AM 37.9°F3.3°C 34.7°F1.5°C 88% 14.6 mph NW23.5 kmh NW 16.0 mph25.7 kmh 29.36 in994.2 mb 0.00 in0.0 mm 0.00 in0.0 mm 0.00 in0.0 mm
03:51 AM 37.9°F3.3°C 34.7°F1.5°C 88% 14.8 mph NW23.8 kmh NW 17.0 mph27.4 kmh 29.36 in994.2 mb 0.00 in0.0 mm 0.00 in0.0 mm 0.00 in0.0 mm
03:52 AM 38.0°F3.3°C 34.8°F1.6°C 88% 14.5 mph NW23.3 kmh NW 17.0 mph27.4 kmh 29.36 in994.2 mb 0.00 in0.0 mm 0.00 in0.0 mm 0.00 in0.0 mm
03:53 AM 37.9°F3.3°C 34.7°F1.5°C 88% 13.8 mph NW22.2 kmh NW 16.0 mph25.7 kmh 29.36 in994.2 mb 0.00 in0.0 mm 0.00 in0.0 mm 0.00 in0.0 mm
03:54 AM 37.9°F3.3°C 34.7°F1.5°C 88% 15.0 mph NW24.1 kmh NW 17.0 mph27.4 kmh 29.36 in994.2 mb 0.00 in0.0 mm 0.00 in0.0 mm 0.00 in0.0 mm
03:55 AM 37.9°F3.3°C 34.7°F1.5°C 88% 14.5 mph NW23.3 kmh NW 17.0 mph27.4 kmh 29.36 in994.2 mb 0.00 in0.0 mm 0.00 in0.0 mm 0.00 in0.0 mm
03:56 AM 38.0°F3.3°C 34.8°F1.6°C 88% 14.9 mph NW24.0 kmh NW 16.0 mph25.7 kmh 29.36 in994.2 mb 0.00 in0.0 mm 0.00 in0.0 mm 0.00 in0.0 mm
03:57 AM 38.0°F3.3°C 34.8°F1.6°C 88% 15.0 mph NW24.1 kmh NW 17.0 mph27.4 kmh 29.36 in994.2 mb 0.00 in0.0 mm 0.00 in0.0 mm 0.00 in0.0 mm
03:58 AM 38.0°F3.3°C 34.8°F1.6°C 88% 15.0 mph NW24.1 kmh NW 17.0 mph27.4 kmh 29.36 in994.2 mb 0.00 in0.0 mm 0.00 in0.0 mm 0.00 in0.0 mm
03:59 AM 38.0°F3.3°C 34.5°F1.4°C 87% 15.7 mph NW25.3 kmh NW 17.0 mph27.4 kmh 29.36 in994.2 mb 0.00 in0.0 mm 0.00 in0.0 mm 0.00 in0.0 mm
04:00 AM 38.0°F3.3°C 34.5°F1.4°C 87% 15.5 mph NW24.9 kmh NW 17.0 mph27.4 kmh 29.36 in994.2 mb 0.00 in0.0 mm 0.00 in0.0 mm 0.00 in0.0 mm
04:01 AM 38.0°F3.3°C 34.5°F1.4°C 87% 16.1 mph NW25.9 kmh NW 17.0 mph27.4 kmh 29.36 in994.2 mb 0.00 in0.0 mm 0.00 in0.0 mm 0.00 in0.0 mm
04:02 AM 38.0°F3.3°C 34.5°F1.4°C 87% 14.9 mph NW24.0 kmh NW 17.0 mph27.4 kmh 29.37 in994.6 mb 0.00 in0.0 mm 0.00 in0.0 mm 0.00 in0.0 mm
04:03 AM 38.0°F3.3°C 34.5°F1.4°C 87% 15.1 mph NW24.3 kmh NW 17.0 mph27.4 kmh 29.37 in994.6 mb 0.00 in0.0 mm 0.00 in0.0 mm 0.00 in0.0 mm
04:04 AM 38.0°F3.3°C 34.5°F1.4°C 87% 15.4 mph NW24.8 kmh NW 17.0 mph27.4 kmh 29.37 in994.6 mb 0.00 in0.0 mm 0.00 in0.0 mm 0.00 in0.0 mm
04:05 AM 38.0°F3.3°C 34.5°F1.4°C 87% 17.4 mph NW28.0 kmh NW 19.0 mph30.6 kmh 29.37 in994.6 mb 0.00 in0.0 mm 0.00 in0.0 mm 0.00 in0.0 mm
04:06 AM 38.0°F3.3°C 34.5°F1.4°C 87% 17.6 mph NW28.3 kmh NW 19.0 mph30.6 kmh 29.37 in994.6 mb 0.00 in0.0 mm 0.00 in0.0 mm 0.00 in0.0 mm
04:07 AM 38.0°F3.3°C 34.5°F1.4°C 87% 16.3 mph NW26.2 kmh NW 19.0 mph30.6 kmh 29.37 in994.6 mb 0.00 in0.0 mm 0.00 in0.0 mm 0.00 in0.0 mm
04:08 AM 38.1°F3.4°C 34.6°F1.4°C 87% 16.0 mph NW25.7 kmh NW 19.0 mph30.6 kmh 29.37 in994.6 mb 0.00 in0.0 mm 0.00 in0.0 mm 0.00 in0.0 mm
04:09 AM 38.1°F3.4°C 34.6°F1.4°C 87% 17.0 mph NW27.4 kmh NW 19.0 mph30.6 kmh 29.37 in994.6 mb 0.00 in0.0 mm 0.00 in0.0 mm 0.00 in0.0 mm
04:10 AM 38.1°F3.4°C 34.6°F1.4°C 87% 16.5 mph NW26.6 kmh NW 17.0 mph27.4 kmh 29.37 in994.6 mb 0.00 in0.0 mm 0.00 in0.0 mm 0.00 in0.0 mm
04:11 AM 38.1°F3.4°C 34.6°F1.4°C 87% 17.9 mph NW28.8 kmh NW 20.0 mph32.2 kmh 29.37 in994.6 mb 0.00 in0.0 mm 0.00 in0.0 mm 0.00 in0.0 mm
04:12 AM 38.1°F3.4°C 34.6°F1.4°C 87% 17.1 mph NW27.5 kmh NW 20.0 mph32.2 kmh 29.37 in994.6 mb 0.00 in0.0 mm 0.00 in0.0 mm 0.00 in0.0 mm
04:13 AM 38.1°F3.4°C 34.6°F1.4°C 87% 18.6 mph NNW29.9 kmh NNW 23.0 mph37.0 kmh 29.37 in994.6 mb 0.00 in0.0 mm 0.00 in0.0 mm 0.00 in0.0 mm
04:14 AM 38.1°F3.4°C 34.6°F1.4°C 87% 18.3 mph NNW29.5 kmh NNW 23.0 mph37.0 kmh 29.37 in994.6 mb 0.00 in0.0 mm 0.00 in0.0 mm 0.00 in0.0 mm
04:15 AM 38.1°F3.4°C 34.6°F1.4°C 87% 18.5 mph NNW29.8 kmh NNW 21.0 mph33.8 kmh 29.37 in994.6 mb 0.00 in0.0 mm 0.00 in0.0 mm 0.00 in0.0 mm
04:16 AM 38.1°F3.4°C 34.3°F1.3°C 86% 19.5 mph NNW31.4 kmh NNW 22.0 mph35.4 kmh 29.38 in994.9 mb 0.00 in0.0 mm 0.00 in0.0 mm 0.00 in0.0 mm
04:17 AM 38.1°F3.4°C 34.3°F1.3°C 86% 19.2 mph NNW30.9 kmh NNW 22.0 mph35.4 kmh 29.38 in994.9 mb 0.00 in0.0 mm 0.00 in0.0 mm 0.00 in0.0 mm
04:18 AM 38.1°F3.4°C 34.3°F1.3°C 86% 18.2 mph NNW29.3 kmh NNW 22.0 mph35.4 kmh 29.38 in994.9 mb 0.00 in0.0 mm 0.00 in0.0 mm 0.00 in0.0 mm
04:19 AM 38.1°F3.4°C 34.3°F1.3°C 86% 19.3 mph NNW31.1 kmh NNW 21.0 mph33.8 kmh 29.38 in994.9 mb 0.00 in0.0 mm 0.00 in0.0 mm 0.00 in0.0 mm
04:20 AM 38.1°F3.4°C 34.3°F1.3°C 86% 17.4 mph NNW28.0 kmh NNW 21.0 mph33.8 kmh 29.38 in994.9 mb 0.00 in0.0 mm 0.00 in0.0 mm 0.00 in0.0 mm
04:21 AM 38.1°F3.4°C 34.3°F1.3°C 86% 18.1 mph NNW29.1 kmh NNW 20.0 mph32.2 kmh 29.38 in994.9 mb 0.00 in0.0 mm 0.00 in0.0 mm 0.00 in0.0 mm
04:22 AM 38.0°F3.3°C 34.2°F1.2°C 86% 16.8 mph NNW27.0 kmh NNW 20.0 mph32.2 kmh 29.38 in994.9 mb 0.00 in0.0 mm 0.00 in0.0 mm 0.00 in0.0 mm
04:23 AM 38.1°F3.4°C 34.3°F1.3°C 86% 17.2 mph NNW27.7 kmh NNW 19.0 mph30.6 kmh 29.38 in994.9 mb 0.00 in0.0 mm 0.00 in0.0 mm 0.00 in0.0 mm
04:24 AM 38.0°F3.3°C 34.2°F1.2°C 86% 17.6 mph NNW28.3 kmh NNW 22.0 mph35.4 kmh 29.38 in994.9 mb 0.00 in0.0 mm 0.00 in0.0 mm 0.00 in0.0 mm
04:25 AM 38.0°F3.3°C 34.2°F1.2°C 86% 16.8 mph NNW27.0 kmh NNW 22.0 mph35.4 kmh 29.38 in994.9 mb 0.00 in0.0 mm 0.00 in0.0 mm 0.00 in0.0 mm
04:26 AM 38.0°F3.3°C 34.2°F1.2°C 86% 17.1 mph NNW27.5 kmh NNW 21.0 mph33.8 kmh 29.38 in994.9 mb 0.00 in0.0 mm 0.00 in0.0 mm 0.00 in0.0 mm
04:27 AM 38.0°F3.3°C 34.2°F1.2°C 86% 17.0 mph NNW27.4 kmh NNW 21.0 mph33.8 kmh 29.38 in994.9 mb 0.00 in0.0 mm 0.00 in0.0 mm 0.00 in0.0 mm
04:28 AM 37.9°F3.3°C 34.1°F1.2°C 86% 17.0 mph NNW27.4 kmh NNW 19.0 mph30.6 kmh 29.38 in994.9 mb 0.00 in0.0 mm 0.00 in0.0 mm 0.00 in0.0 mm
04:29 AM 37.9°F3.3°C 34.1°F1.2°C 86% 15.8 mph NNW25.4 kmh NNW 17.0 mph27.4 kmh 29.38 in994.9 mb 0.00 in0.0 mm 0.00 in0.0 mm 0.00 in0.0 mm
04:30 AM 37.9°F3.3°C 34.1°F1.2°C 86% 16.0 mph NNW25.7 kmh NNW 18.0 mph29.0 kmh 29.39 in995.3 mb 0.00 in0.0 mm 0.00 in0.0 mm 0.00 in0.0 mm
04:31 AM 37.9°F3.3°C 34.1°F1.2°C 86% 15.8 mph NNW25.4 kmh NNW 18.0 mph29.0 kmh 29.39 in995.3 mb 0.00 in0.0 mm 0.00 in0.0 mm 0.00 in0.0 mm
04:32 AM 37.9°F3.3°C 34.1°F1.2°C 86% 15.3 mph NNW24.6 kmh NNW 18.0 mph29.0 kmh 29.39 in995.3 mb 0.00 in0.0 mm 0.00 in0.0 mm 0.00 in0.0 mm
04:33 AM 37.9°F3.3°C 33.8°F1.0°C 85% 15.7 mph NNW25.3 kmh NNW 19.0 mph30.6 kmh 29.39 in995.3 mb 0.00 in0.0 mm 0.00 in0.0 mm 0.00 in0.0 mm
04:34 AM 37.9°F3.3°C 33.8°F1.0°C 85% 16.0 mph NNW25.7 kmh NNW 18.0 mph29.0 kmh 29.39 in995.3 mb 0.00 in0.0 mm 0.00 in0.0 mm 0.00 in0.0 mm
04:35 AM 37.9°F3.3°C 33.8°F1.0°C 85% 16.0 mph NNW25.7 kmh NNW 18.0 mph29.0 kmh 29.39 in995.3 mb 0.00 in0.0 mm 0.00 in0.0 mm 0.00 in0.0 mm
04:36 AM 37.9°F3.3°C 33.8°F1.0°C 85% 15.3 mph NNW24.6 kmh NNW 16.0 mph25.7 kmh 29.39 in995.3 mb 0.00 in0.0 mm 0.00 in0.0 mm 0.00 in0.0 mm
04:37 AM 37.9°F3.3°C 33.8°F1.0°C 85% 15.4 mph NNW24.8 kmh NNW 17.0 mph27.4 kmh 29.39 in995.3 mb 0.00 in0.0 mm 0.00 in0.0 mm 0.00 in0.0 mm
04:38 AM 37.9°F3.3°C 33.8°F1.0°C 85% 15.6 mph NNW25.1 kmh NNW 17.0 mph27.4 kmh 29.39 in995.3 mb 0.00 in0.0 mm 0.00 in0.0 mm 0.00 in0.0 mm
04:39 AM 37.9°F3.3°C 33.8°F1.0°C 85% 15.2 mph NNW24.5 kmh NNW 17.0 mph27.4 kmh 29.39 in995.3 mb 0.00 in0.0 mm 0.00 in0.0 mm 0.00 in0.0 mm
04:40 AM 37.9°F3.3°C 33.8°F1.0°C 85% 15.6 mph NNW25.1 kmh NNW 17.0 mph27.4 kmh 29.39 in995.3 mb 0.00 in0.0 mm 0.00 in0.0 mm 0.00 in0.0 mm
04:41 AM 37.9°F3.3°C 33.8°F1.0°C 85% 15.4 mph NW24.8 kmh NW 17.0 mph27.4 kmh 29.39 in995.3 mb 0.00 in0.0 mm 0.00 in0.0 mm 0.00 in0.0 mm
04:42 AM 37.9°F3.3°C 33.8°F1.0°C 85% 15.0 mph NNW24.1 kmh NNW 16.0 mph25.7 kmh 29.39 in995.3 mb 0.00 in0.0 mm 0.00 in0.0 mm 0.00 in0.0 mm
04:43 AM 37.8°F3.2°C 33.7°F0.9°C 85% 16.0 mph NNW25.7 kmh NNW 18.0 mph29.0 kmh 29.39 in995.3 mb 0.00 in0.0 mm 0.00 in0.0 mm 0.00 in0.0 mm
04:44 AM 37.9°F3.3°C 33.8°F1.0°C 85% 14.8 mph NNW23.8 kmh NNW 17.0 mph27.4 kmh 29.40 in995.6 mb 0.00 in0.0 mm 0.00 in0.0 mm 0.00 in0.0 mm
04:45 AM 37.8°F3.2°C 33.7°F0.9°C 85% 15.4 mph NNW24.8 kmh NNW 17.0 mph27.4 kmh 29.40 in995.6 mb 0.00 in0.0 mm 0.00 in0.0 mm 0.00 in0.0 mm
04:46 AM 37.8°F3.2°C 33.7°F0.9°C 85% 15.3 mph NNW24.6 kmh NNW 17.0 mph27.4 kmh 29.40 in995.6 mb 0.00 in0.0 mm 0.00 in0.0 mm 0.00 in0.0 mm
04:47 AM 37.8°F3.2°C 33.7°F0.9°C 85% 15.3 mph NNW24.6 kmh NNW 18.0 mph29.0 kmh 29.40 in995.6 mb 0.00 in0.0 mm 0.00 in0.0 mm 0.00 in0.0 mm
04:48 AM 37.8°F3.2°C 33.7°F0.9°C 85% 15.4 mph NW24.8 kmh NW 18.0 mph29.0 kmh 29.40 in995.6 mb 0.00 in0.0 mm 0.00 in0.0 mm 0.00 in0.0 mm
04:49 AM 37.8°F3.2°C 33.7°F0.9°C 85% 15.9 mph NW25.6 kmh NW 17.0 mph27.4 kmh 29.40 in995.6 mb 0.00 in0.0 mm 0.00 in0.0 mm 0.00 in0.0 mm
04:50 AM 37.9°F3.3°C 33.8°F1.0°C 85% 16.0 mph NW25.7 kmh NW 17.0 mph27.4 kmh 29.40 in995.6 mb 0.00 in0.0 mm 0.00 in0.0 mm 0.00 in0.0 mm
04:51 AM 37.8°F3.2°C 33.7°F0.9°C 85% 15.1 mph NW24.3 kmh NW 17.0 mph27.4 kmh 29.40 in995.6 mb 0.00 in0.0 mm 0.00 in0.0 mm 0.00 in0.0 mm
04:52 AM 37.8°F3.2°C 33.7°F0.9°C 85% 15.7 mph NW25.3 kmh NW 17.0 mph27.4 kmh 29.40 in995.6 mb 0.00 in0.0 mm 0.00 in0.0 mm 0.00 in0.0 mm
04:53 AM 37.8°F3.2°C 33.7°F0.9°C 85% 16.8 mph NNW27.0 kmh NNW 18.0 mph29.0 kmh 29.40 in995.6 mb 0.00 in0.0 mm 0.00 in0.0 mm 0.00 in0.0 mm
04:54 AM 37.8°F3.2°C 33.7°F0.9°C 85% 16.8 mph NNW27.0 kmh NNW 18.0 mph29.0 kmh 29.40 in995.6 mb 0.00 in0.0 mm 0.00 in0.0 mm 0.00 in0.0 mm
04:55 AM 37.8°F3.2°C 33.7°F0.9°C 85% 17.3 mph NNW27.8 kmh NNW 19.0 mph30.6 kmh 29.40 in995.6 mb 0.00 in0.0 mm 0.00 in0.0 mm 0.00 in0.0 mm
04:56 AM 37.8°F3.2°C 33.4°F0.8°C 84% 17.2 mph NNW27.7 kmh NNW 21.0 mph33.8 kmh 29.41 in995.9 mb 0.00 in0.0 mm 0.00 in0.0 mm 0.00 in0.0 mm
04:57 AM 37.9°F3.3°C 33.5°F0.8°C 84% 18.3 mph NNW29.5 kmh NNW 21.0 mph33.8 kmh 29.41 in995.9 mb 0.00 in0.0 mm 0.00 in0.0 mm 0.00 in0.0 mm
04:58 AM 38.0°F3.3°C 33.6°F0.9°C 84% 18.0 mph NNW29.0 kmh NNW 20.0 mph32.2 kmh 29.41 in995.9 mb 0.00 in0.0 mm 0.00 in0.0 mm 0.00 in0.0 mm
04:59 AM 37.9°F3.3°C 33.5°F0.8°C 84% 18.1 mph NNW29.1 kmh NNW 20.0 mph32.2 kmh 29.41 in995.9 mb 0.00 in0.0 mm 0.00 in0.0 mm 0.00 in0.0 mm
05:00 AM 38.0°F3.3°C 33.6°F0.9°C 84% 17.0 mph NNW27.4 kmh NNW 20.0 mph32.2 kmh 29.41 in995.9 mb 0.00 in0.0 mm 0.00 in0.0 mm 0.00 in0.0 mm
05:01 AM 38.0°F3.3°C 33.3°F0.7°C 83% 15.7 mph NW25.3 kmh NW 20.0 mph32.2 kmh 29.41 in995.9 mb 0.00 in0.0 mm 0.00 in0.0 mm 0.00 in0.0 mm
05:02 AM 37.9°F3.3°C 33.5°F0.8°C 84% 15.9 mph NW25.6 kmh NW 18.0 mph29.0 kmh 29.41 in995.9 mb 0.00 in0.0 mm 0.00 in0.0 mm 0.00 in0.0 mm
05:03 AM 37.9°F3.3°C 33.5°F0.8°C 84% 15.8 mph NNW25.4 kmh NNW 18.0 mph29.0 kmh 29.41 in995.9 mb 0.00 in0.0 mm 0.00 in0.0 mm 0.00 in0.0 mm
05:04 AM 37.9°F3.3°C 33.5°F0.8°C 84% 15.4 mph NNW24.8 kmh NNW 18.0 mph29.0 kmh 29.41 in995.9 mb 0.00 in0.0 mm 0.00 in0.0 mm 0.00 in0.0 mm
05:05 AM 37.9°F3.3°C 33.5°F0.8°C 84% 16.0 mph NNW25.7 kmh NNW 17.0 mph27.4 kmh 29.41 in995.9 mb 0.00 in0.0 mm 0.00 in0.0 mm 0.00 in0.0 mm
05:06 AM 37.8°F3.2°C 33.4°F0.8°C 84% 16.0 mph NNW25.7 kmh NNW 18.0 mph29.0 kmh 29.41 in995.9 mb 0.00 in0.0 mm 0.00 in0.0 mm 0.00 in0.0 mm
05:07 AM 37.8°F3.2°C 33.4°F0.8°C 84% 15.0 mph NNW24.1 kmh NNW 18.0 mph29.0 kmh 29.41 in995.9 mb 0.00 in0.0 mm 0.00 in0.0 mm 0.00 in0.0 mm
05:08 AM 37.8°F3.2°C 33.4°F0.8°C 84% 15.8 mph NW25.4 kmh NW 17.0 mph27.4 kmh 29.41 in995.9 mb 0.00 in0.0 mm 0.00 in0.0 mm 0.00 in0.0 mm
05:09 AM 37.8°F3.2°C 33.4°F0.8°C 84% 15.4 mph NNW24.8 kmh NNW 17.0 mph27.4 kmh 29.41 in995.9 mb 0.00 in0.0 mm 0.00 in0.0 mm 0.00 in0.0 mm
05:10 AM 37.8°F3.2°C 33.4°F0.8°C 84% 15.5 mph NW24.9 kmh NW 17.0 mph27.4 kmh 29.41 in995.9 mb 0.00 in0.0 mm 0.00 in0.0 mm 0.00 in0.0 mm
05:11 AM 37.8°F3.2°C 33.4°F0.8°C 84% 16.2 mph NW26.1 kmh NW 18.0 mph29.0 kmh 29.41 in995.9 mb 0.00 in0.0 mm 0.00 in0.0 mm 0.00 in0.0 mm
05:12 AM 37.7°F3.2°C 33.3°F0.7°C 84% 15.1 mph NW24.3 kmh NW 18.0 mph29.0 kmh 29.41 in995.9 mb 0.00 in0.0 mm 0.00 in0.0 mm 0.00 in0.0 mm
05:13 AM 37.7°F3.2°C 33.3°F0.7°C 84% 15.5 mph NNW24.9 kmh NNW 17.0 mph27.4 kmh 29.41 in995.9 mb 0.00 in0.0 mm 0.00 in0.0 mm 0.00 in0.0 mm
05:14 AM 37.7°F3.2°C 33.3°F0.7°C 84% 15.4 mph NNW24.8 kmh NNW 17.0 mph27.4 kmh 29.41 in995.9 mb 0.00 in0.0 mm 0.00 in0.0 mm 0.00 in0.0 mm
05:15 AM 37.8°F3.2°C 33.4°F0.8°C 84% 15.9 mph NW25.6 kmh NW 17.0 mph27.4 kmh 29.41 in995.9 mb 0.00 in0.0 mm 0.00 in0.0 mm 0.00 in0.0 mm
05:16 AM 37.8°F3.2°C 33.4°F0.8°C 84% 15.7 mph NW25.3 kmh NW 17.0 mph27.4 kmh 29.41 in995.9 mb 0.00 in0.0 mm 0.00 in0.0 mm 0.00 in0.0 mm
05:17 AM 37.7°F3.2°C 33.3°F0.7°C 84% 15.3 mph NW24.6 kmh NW 17.0 mph27.4 kmh 29.41 in995.9 mb 0.00 in0.0 mm 0.00 in0.0 mm 0.00 in0.0 mm
05:18 AM 37.6°F3.1°C 33.2°F0.7°C 84% 15.2 mph NW24.5 kmh NW 17.0 mph27.4 kmh 29.41 in995.9 mb 0.00 in0.0 mm 0.00 in0.0 mm 0.00 in0.0 mm
05:19 AM 37.7°F3.2°C 33.3°F0.7°C 84% 15.2 mph NW24.5 kmh NW 17.0 mph27.4 kmh 29.41 in995.9 mb 0.00 in0.0 mm 0.00 in0.0 mm 0.00 in0.0 mm
05:20 AM 37.6°F3.1°C 33.2°F0.7°C 84% 15.0 mph NW24.1 kmh NW 17.0 mph27.4 kmh 29.42 in996.3 mb 0.00 in0.0 mm 0.00 in0.0 mm 0.00 in0.0 mm
05:21 AM 37.6°F3.1°C 33.2°F0.7°C 84% 14.6 mph NW23.5 kmh NW 17.0 mph27.4 kmh 29.42 in996.3 mb 0.00 in0.0 mm 0.00 in0.0 mm 0.00 in0.0 mm
05:22 AM 37.7°F3.2°C 33.3°F0.7°C 84% 14.0 mph NNW22.5 kmh NNW 16.0 mph25.7 kmh 29.42 in996.3 mb 0.00 in0.0 mm 0.00 in0.0 mm 0.00 in0.0 mm
05:23 AM 37.7°F3.2°C 33.3°F0.7°C 84% 15.0 mph NNW24.1 kmh NNW 17.0 mph27.4 kmh 29.42 in996.3 mb 0.00 in0.0 mm 0.00 in0.0 mm 0.00 in0.0 mm
05:24 AM 37.7°F3.2°C 33.3°F0.7°C 84% 16.1 mph NW25.9 kmh NW 17.0 mph27.4 kmh 29.42 in996.3 mb 0.00 in0.0 mm 0.00 in0.0 mm 0.00 in0.0 mm
05:25 AM 37.7°F3.2°C 33.3°F0.7°C 84% 16.2 mph NW26.1 kmh NW 18.0 mph29.0 kmh 29.42 in996.3 mb 0.00 in0.0 mm 0.00 in0.0 mm 0.00 in0.0 mm
05:26 AM 37.7°F3.2°C 33.3°F0.7°C 84% 16.0 mph NW25.7 kmh NW 18.0 mph29.0 kmh 29.42 in996.3 mb 0.00 in0.0 mm 0.00 in0.0 mm 0.00 in0.0 mm
05:27 AM 37.8°F3.2°C 33.4°F0.8°C 84% 16.8 mph NW27.0 kmh NW 19.0 mph30.6 kmh 29.42 in996.3 mb 0.00 in0.0 mm 0.00 in0.0 mm 0.00 in0.0 mm
05:28 AM 37.8°F3.2°C 33.4°F0.8°C 84% 16.3 mph NW26.2 kmh NW 19.0 mph30.6 kmh 29.43 in996.6 mb 0.00 in0.0 mm 0.00 in0.0 mm 0.00 in0.0 mm
05:29 AM 37.8°F3.2°C 33.4°F0.8°C 84% 16.0 mph NNW25.7 kmh NNW 18.0 mph29.0 kmh 29.43 in996.6 mb 0.00 in0.0 mm 0.00 in0.0 mm 0.00 in0.0 mm
05:30 AM 37.8°F3.2°C 33.4°F0.8°C 84% 17.0 mph NW27.4 kmh NW 18.0 mph29.0 kmh 29.43 in996.6 mb 0.00 in0.0 mm 0.00 in0.0 mm 0.00 in0.0 mm
05:31 AM 37.8°F3.2°C 33.1°F0.6°C 83% 16.0 mph NNW25.7 kmh NNW 18.0 mph29.0 kmh 29.43 in996.6 mb 0.00 in0.0 mm 0.00 in0.0 mm 0.00 in0.0 mm
05:32 AM 37.9°F3.3°C 33.2°F0.7°C 83% 16.2 mph NW26.1 kmh NW 17.0 mph27.4 kmh 29.43 in996.6 mb 0.00 in0.0 mm 0.00 in0.0 mm 0.00 in0.0 mm
05:33 AM 37.8°F3.2°C 33.1°F0.6°C 83% 17.2 mph NW27.7 kmh NW 19.0 mph30.6 kmh 29.43 in996.6 mb 0.00 in0.0 mm 0.00 in0.0 mm 0.00 in0.0 mm
05:34 AM 37.9°F3.3°C 33.2°F0.7°C 83% 17.2 mph NW27.7 kmh NW 19.0 mph30.6 kmh 29.43 in996.6 mb 0.00 in0.0 mm 0.00 in0.0 mm 0.00 in0.0 mm
05:35 AM 37.8°F3.2°C 33.1°F0.6°C 83% 16.8 mph NW27.0 kmh NW 19.0 mph30.6 kmh 29.43 in996.6 mb 0.00 in0.0 mm 0.00 in0.0 mm 0.00 in0.0 mm
05:36 AM 37.8°F3.2°C 33.1°F0.6°C 83% 16.3 mph NW26.2 kmh NW 18.0 mph29.0 kmh 29.43 in996.6 mb 0.00 in0.0 mm 0.00 in0.0 mm 0.00 in0.0 mm
05:37 AM 37.9°F3.3°C 33.2°F0.7°C 83% 16.7 mph NW26.9 kmh NW 19.0 mph30.6 kmh 29.43 in996.6 mb 0.00 in0.0 mm 0.00 in0.0 mm 0.00 in0.0 mm
05:38 AM 37.9°F3.3°C 33.2°F0.7°C 83% 17.0 mph NW27.4 kmh NW 19.0 mph30.6 kmh 29.43 in996.6 mb 0.00 in0.0 mm 0.00 in0.0 mm 0.00 in0.0 mm
05:39 AM 37.9°F3.3°C 33.2°F0.7°C 83% 16.0 mph NNW25.7 kmh NNW 18.0 mph29.0 kmh 29.43 in996.6 mb 0.00 in0.0 mm 0.00 in0.0 mm 0.00 in0.0 mm
05:40 AM 37.9°F3.3°C 33.2°F0.7°C 83% 18.0 mph NNW29.0 kmh NNW 19.0 mph30.6 kmh 29.44 in997.0 mb 0.00 in0.0 mm 0.00 in0.0 mm 0.00 in0.0 mm
05:41 AM 37.8°F3.2°C 33.1°F0.6°C 83% 17.6 mph NW28.3 kmh NW 20.0 mph32.2 kmh 29.44 in997.0 mb 0.00 in0.0 mm 0.00 in0.0 mm 0.00 in0.0 mm
05:42 AM 37.9°F3.3°C 33.2°F0.7°C 83% 17.0 mph NW27.4 kmh NW 20.0 mph32.2 kmh 29.44 in997.0 mb 0.00 in0.0 mm 0.00 in0.0 mm 0.00 in0.0 mm
05:43 AM 37.9°F3.3°C 32.9°F0.5°C 82% 17.3 mph NW27.8 kmh NW 19.0 mph30.6 kmh 29.44 in997.0 mb 0.00 in0.0 mm 0.00 in0.0 mm 0.00 in0.0 mm
05:44 AM 37.9°F3.3°C 33.2°F0.7°C 83% 17.1 mph NW27.5 kmh NW 19.0 mph30.6 kmh 29.44 in997.0 mb 0.00 in0.0 mm 0.00 in0.0 mm 0.00 in0.0 mm
05:45 AM 37.9°F3.3°C 33.2°F0.7°C 83% 18.4 mph NW29.6 kmh NW 21.0 mph33.8 kmh 29.44 in997.0 mb 0.00 in0.0 mm 0.00 in0.0 mm 0.00 in0.0 mm
05:46 AM 37.9°F3.3°C 32.9°F0.5°C 82% 17.7 mph NW28.5 kmh NW 21.0 mph33.8 kmh 29.44 in997.0 mb 0.00 in0.0 mm 0.00 in0.0 mm 0.00 in0.0 mm
05:47 AM 37.9°F3.3°C 32.9°F0.5°C 82% 17.0 mph NW27.4 kmh NW 18.0 mph29.0 kmh 29.44 in997.0 mb 0.00 in0.0 mm 0.00 in0.0 mm 0.00 in0.0 mm
05:48 AM 37.9°F3.3°C 32.9°F0.5°C 82% 18.0 mph NW29.0 kmh NW 20.0 mph32.2 kmh 29.44 in997.0 mb 0.00 in0.0 mm 0.00 in0.0 mm 0.00 in0.0 mm
05:49 AM 37.9°F3.3°C 32.9°F0.5°C 82% 17.5 mph NW28.2 kmh NW 18.0 mph29.0 kmh 29.45 in997.3 mb 0.00 in0.0 mm 0.00 in0.0 mm 0.00 in0.0 mm
05:50 AM 37.9°F3.3°C 32.9°F0.5°C 82% 18.0 mph NW29.0 kmh NW 21.0 mph33.8 kmh 29.45 in997.3 mb 0.00 in0.0 mm 0.00 in0.0 mm 0.00 in0.0 mm
05:51 AM 37.9°F3.3°C 32.9°F0.5°C 82% 18.0 mph NW29.0 kmh NW 20.0 mph32.2 kmh 29.45 in997.3 mb 0.00 in0.0 mm 0.00 in0.0 mm 0.00 in0.0 mm
05:52 AM 37.9°F3.3°C 32.9°F0.5°C 82% 17.0 mph NW27.4 kmh NW 19.0 mph30.6 kmh 29.45 in997.3 mb 0.00 in0.0 mm 0.00 in0.0 mm 0.00 in0.0 mm
05:53 AM 37.9°F3.3°C 32.9°F0.5°C 82% 17.1 mph NW27.5 kmh NW 19.0 mph30.6 kmh 29.45 in997.3 mb 0.00 in0.0 mm 0.00 in0.0 mm 0.00 in0.0 mm
05:54 AM 37.9°F3.3°C 32.9°F0.5°C 82% 16.7 mph NW26.9 kmh NW 19.0 mph30.6 kmh 29.45 in997.3 mb 0.00 in0.0 mm 0.00 in0.0 mm 0.00 in0.0 mm
05:55 AM 37.9°F3.3°C 32.9°F0.5°C 82% 17.2 mph NW27.7 kmh NW 19.0 mph30.6 kmh 29.45 in997.3 mb 0.00 in0.0 mm 0.00 in0.0 mm 0.00 in0.0 mm
05:56 AM 37.8°F3.2°C 32.8°F0.4°C 82% 17.7 mph NW28.5 kmh NW 20.0 mph32.2 kmh 29.45 in997.3 mb 0.00 in0.0 mm 0.00 in0.0 mm 0.00 in0.0 mm
05:57 AM 37.8°F3.2°C 32.8°F0.4°C 82% 18.8 mph NW30.3 kmh NW 21.0 mph33.8 kmh 29.45 in997.3 mb 0.00 in0.0 mm 0.00 in0.0 mm 0.00 in0.0 mm
05:58 AM 37.9°F3.3°C 32.6°F0.3°C 81% 17.8 mph NW28.6 kmh NW 21.0 mph33.8 kmh 29.45 in997.3 mb 0.00 in0.0 mm 0.00 in0.0 mm 0.00 in0.0 mm
05:59 AM 37.9°F3.3°C 32.9°F0.5°C 82% 17.8 mph NW28.6 kmh NW 20.0 mph32.2 kmh 29.45 in997.3 mb 0.00 in0.0 mm 0.00 in0.0 mm 0.00 in0.0 mm
06:00 AM 37.9°F3.3°C 32.6°F0.3°C 81% 18.1 mph NW29.1 kmh NW 20.0 mph32.2 kmh 29.46 in997.6 mb 0.00 in0.0 mm 0.00 in0.0 mm 0.00 in0.0 mm
06:01 AM 37.9°F3.3°C 32.6°F0.3°C 81% 18.4 mph NW29.6 kmh NW 20.0 mph32.2 kmh 29.46 in997.6 mb 0.00 in0.0 mm 0.00 in0.0 mm 0.00 in0.0 mm
06:02 AM 37.9°F3.3°C 32.6°F0.3°C 81% 16.8 mph NW27.0 kmh NW 20.0 mph32.2 kmh 29.46 in997.6 mb 0.00 in0.0 mm 0.00 in0.0 mm 0.00 in0.0 mm
06:03 AM 37.9°F3.3°C 32.6°F0.3°C 81% 17.0 mph NW27.4 kmh NW 19.0 mph30.6 kmh 29.46 in997.6 mb 0.00 in0.0 mm 0.00 in0.0 mm 0.00 in0.0 mm
06:04 AM 37.9°F3.3°C 32.6°F0.3°C 81% 18.6 mph NW29.9 kmh NW 21.0 mph33.8 kmh 29.46 in997.6 mb 0.00 in0.0 mm 0.00 in0.0 mm 0.00 in0.0 mm
06:05 AM 37.9°F3.3°C 32.6°F0.3°C 81% 18.4 mph NW29.6 kmh NW 21.0 mph33.8 kmh 29.46 in997.6 mb 0.00 in0.0 mm 0.00 in0.0 mm 0.00 in0.0 mm
06:06 AM 37.9°F3.3°C 32.6°F0.3°C 81% 19.0 mph NW30.6 kmh NW 21.0 mph33.8 kmh 29.46 in997.6 mb 0.00 in0.0 mm 0.00 in0.0 mm 0.00 in0.0 mm
06:07 AM 38.0°F3.3°C 32.7°F0.4°C 81% 19.1 mph NW30.7 kmh NW 21.0 mph33.8 kmh 29.46 in997.6 mb 0.00 in0.0 mm 0.00 in0.0 mm 0.00 in0.0 mm
06:08 AM 38.0°F3.3°C 32.7°F0.4°C 81% 18.9 mph NW30.4 kmh NW 21.0 mph33.8 kmh 29.46 in997.6 mb 0.00 in0.0 mm 0.00 in0.0 mm 0.00 in0.0 mm
06:09 AM 38.0°F3.3°C 32.7°F0.4°C 81% 18.4 mph NW29.6 kmh NW 21.0 mph33.8 kmh 29.46 in997.6 mb 0.00 in0.0 mm 0.00 in0.0 mm 0.00 in0.0 mm
06:10 AM 37.9°F3.3°C 32.6°F0.3°C 81% 17.6 mph NW28.3 kmh NW 20.0 mph32.2 kmh 29.46 in997.6 mb 0.00 in0.0 mm 0.00 in0.0 mm 0.00 in0.0 mm
06:11 AM 37.9°F3.3°C 32.6°F0.3°C 81% 18.0 mph NNW29.0 kmh NNW 20.0 mph32.2 kmh 29.46 in997.6 mb 0.00 in0.0 mm 0.00 in0.0 mm 0.00 in0.0 mm
06:12 AM 37.9°F3.3°C 32.6°F0.3°C 81% 18.0 mph NNW29.0 kmh NNW 20.0 mph32.2 kmh 29.46 in997.6 mb 0.00 in0.0 mm 0.00 in0.0 mm 0.00 in0.0 mm
06:13 AM 37.8°F3.2°C 32.5°F0.3°C 81% 17.3 mph NNW27.8 kmh NNW 18.0 mph29.0 kmh 29.46 in997.6 mb 0.00 in0.0 mm 0.00 in0.0 mm 0.00 in0.0 mm
06:14 AM 37.8°F3.2°C 32.5°F0.3°C 81% 18.5 mph NNW29.8 kmh NNW 21.0 mph33.8 kmh 29.46 in997.6 mb 0.00 in0.0 mm 0.00 in0.0 mm 0.00 in0.0 mm
06:15 AM 37.8°F3.2°C 32.8°F0.4°C 82% 18.6 mph NNW29.9 kmh NNW 21.0 mph33.8 kmh 29.46 in997.6 mb 0.00 in0.0 mm 0.00 in0.0 mm 0.00 in0.0 mm
06:16 AM 37.8°F3.2°C 32.5°F0.3°C 81% 17.6 mph NNW28.3 kmh NNW 20.0 mph32.2 kmh 29.47 in998.0 mb 0.00 in0.0 mm 0.00 in0.0 mm 0.00 in0.0 mm
06:17 AM 37.8°F3.2°C 32.5°F0.3°C 81% 17.7 mph NNW28.5 kmh NNW 20.0 mph32.2 kmh 29.47 in998.0 mb 0.00 in0.0 mm 0.00 in0.0 mm 0.00 in0.0 mm
06:18 AM 37.8°F3.2°C 32.8°F0.4°C 82% 16.5 mph NNW26.6 kmh NNW 20.0 mph32.2 kmh 29.47 in998.0 mb 0.00 in0.0 mm 0.00 in0.0 mm 0.00 in0.0 mm
06:19 AM 37.8°F3.2°C 32.8°F0.4°C 82% 17.5 mph NNW28.2 kmh NNW 19.0 mph30.6 kmh 29.47 in998.0 mb 0.00 in0.0 mm 0.00 in0.0 mm 0.00 in0.0 mm
06:20 AM 37.7°F3.2°C 32.7°F0.4°C 82% 16.8 mph NNW27.0 kmh NNW 19.0 mph30.6 kmh 29.47 in998.0 mb 0.00 in0.0 mm 0.00 in0.0 mm 0.00 in0.0 mm
06:21 AM 37.7°F3.2°C 32.7°F0.4°C 82% 17.2 mph NNW27.7 kmh NNW 19.0 mph30.6 kmh 29.47 in998.0 mb 0.00 in0.0 mm 0.00 in0.0 mm 0.00 in0.0 mm
06:22 AM 37.7°F3.2°C 32.7°F0.4°C 82% 16.9 mph NNW27.2 kmh NNW 19.0 mph30.6 kmh 29.47 in998.0 mb 0.00 in0.0 mm 0.00 in0.0 mm 0.00 in0.0 mm
06:23 AM 37.7°F3.2°C 32.7°F0.4°C 82% 16.7 mph NNW26.9 kmh NNW 19.0 mph30.6 kmh 29.47 in998.0 mb 0.00 in0.0 mm 0.00 in0.0 mm 0.00 in0.0 mm
06:24 AM 37.7°F3.2°C 32.7°F0.4°C 82% 16.0 mph NNW25.7 kmh NNW 19.0 mph30.6 kmh 29.47 in998.0 mb 0.00 in0.0 mm 0.00 in0.0 mm 0.00 in0.0 mm
06:25 AM 37.7°F3.2°C 32.7°F0.4°C 82% 16.7 mph NNW26.9 kmh NNW 19.0 mph30.6 kmh 29.47 in998.0 mb 0.00 in0.0 mm 0.00 in0.0 mm 0.00 in0.0 mm
06:26 AM 37.7°F3.2°C 32.7°F0.4°C 82% 17.0 mph NNW27.4 kmh NNW 19.0 mph30.6 kmh 29.47 in998.0 mb 0.00 in0.0 mm 0.00 in0.0 mm 0.00 in0.0 mm
06:27 AM 37.7°F3.2°C 32.7°F0.4°C 82% 17.0 mph NNW27.4 kmh NNW 19.0 mph30.6 kmh 29.47 in998.0 mb 0.00 in0.0 mm 0.00 in0.0 mm 0.00 in0.0 mm
06:28 AM 37.7°F3.2°C 32.7°F0.4°C 82% 17.0 mph NNW27.4 kmh NNW 18.0 mph29.0 kmh 29.47 in998.0 mb 0.00 in0.0 mm 0.00 in0.0 mm 0.00 in0.0 mm
06:29 AM 37.7°F3.2°C 32.7°F0.4°C 82% 17.0 mph NNW27.4 kmh NNW 17.0 mph27.4 kmh 29.48 in998.3 mb 0.00 in0.0 mm 0.00 in0.0 mm 0.00 in0.0 mm
06:30 AM 37.7°F3.2°C 32.7°F0.4°C 82% 16.5 mph NNW26.6 kmh NNW 19.0 mph30.6 kmh 29.48 in998.3 mb 0.00 in0.0 mm 0.00 in0.0 mm 0.00 in0.0 mm
06:31 AM 37.7°F3.2°C 32.7°F0.4°C 82% 16.8 mph NNW27.0 kmh NNW 19.0 mph30.6 kmh 29.48 in998.3 mb 0.00 in0.0 mm 0.00 in0.0 mm 0.00 in0.0 mm
06:32 AM 37.7°F3.2°C 32.7°F0.4°C 82% 17.4 mph NNW28.0 kmh NNW 20.0 mph32.2 kmh 29.48 in998.3 mb 0.00 in0.0 mm 0.00 in0.0 mm 0.00 in0.0 mm
06:33 AM 37.7°F3.2°C 32.7°F0.4°C 82% 16.4 mph NNW26.4 kmh NNW 20.0 mph32.2 kmh 29.48 in998.3 mb 0.00 in0.0 mm 0.00 in0.0 mm 0.00 in0.0 mm
06:34 AM 37.7°F3.2°C 32.7°F0.4°C 82% 17.0 mph NNW27.4 kmh NNW 19.0 mph30.6 kmh 29.48 in998.3 mb 0.00 in0.0 mm 0.00 in0.0 mm 0.00 in0.0 mm
06:35 AM 37.7°F3.2°C 32.7°F0.4°C 82% 17.3 mph NNW27.8 kmh NNW 20.0 mph32.2 kmh 29.48 in998.3 mb 0.00 in0.0 mm 0.00 in0.0 mm 0.00 in0.0 mm
06:36 AM 37.7°F3.2°C 32.7°F0.4°C 82% 17.0 mph NNW27.4 kmh NNW 20.0 mph32.2 kmh 29.48 in998.3 mb 0.00 in0.0 mm 0.00 in0.0 mm 0.00 in0.0 mm
06:37 AM 37.7°F3.2°C 32.7°F0.4°C 82% 17.3 mph NNW27.8 kmh NNW 20.0 mph32.2 kmh 29.48 in998.3 mb 0.00 in0.0 mm 0.00 in0.0 mm 0.00 in0.0 mm
06:38 AM 37.7°F3.2°C 32.7°F0.4°C 82% 17.5 mph NNW28.2 kmh NNW 19.0 mph30.6 kmh 29.48 in998.3 mb 0.00 in0.0 mm 0.00 in0.0 mm 0.00 in0.0 mm
06:39 AM 37.7°F3.2°C 32.7°F0.4°C 82% 16.3 mph NNW26.2 kmh NNW 19.0 mph30.6 kmh 29.48 in998.3 mb 0.00 in0.0 mm 0.00 in0.0 mm 0.00 in0.0 mm
06:40 AM 37.7°F3.2°C 32.7°F0.4°C 82% 17.0 mph NNW27.4 kmh NNW 20.0 mph32.2 kmh 29.48 in998.3 mb 0.00 in0.0 mm 0.00 in0.0 mm 0.00 in0.0 mm
06:41 AM 37.7°F3.2°C 32.7°F0.4°C 82% 17.4 mph NNW28.0 kmh NNW 20.0 mph32.2 kmh 29.48 in998.3 mb 0.00 in0.0 mm 0.00 in0.0 mm 0.00 in0.0 mm
06:42 AM 37.7°F3.2°C 32.7°F0.4°C 82% 17.7 mph NNW28.5 kmh NNW 20.0 mph32.2 kmh 29.49 in998.6 mb 0.00 in0.0 mm 0.00 in0.0 mm 0.00 in0.0 mm
06:43 AM 37.7°F3.2°C 32.7°F0.4°C 82% 17.7 mph NNW28.5 kmh NNW 20.0 mph32.2 kmh 29.49 in998.6 mb 0.00 in0.0 mm 0.00 in0.0 mm 0.00 in0.0 mm
06:44 AM 37.7°F3.2°C 32.7°F0.4°C 82% 17.0 mph NNW27.4 kmh NNW 19.0 mph30.6 kmh 29.49 in998.6 mb 0.00 in0.0 mm 0.00 in0.0 mm 0.00 in0.0 mm
06:45 AM 37.7°F3.2°C 32.7°F0.4°C 82% 17.0 mph NNW27.4 kmh NNW 18.0 mph29.0 kmh 29.49 in998.6 mb 0.00 in0.0 mm 0.00 in0.0 mm 0.00 in0.0 mm
06:46 AM 37.7°F3.2°C 32.7°F0.4°C 82% 16.4 mph NNW26.4 kmh NNW 18.0 mph29.0 kmh 29.49 in998.6 mb 0.00 in0.0 mm 0.00 in0.0 mm 0.00 in0.0 mm
06:47 AM 37.7°F3.2°C 32.7°F0.4°C 82% 17.0 mph NNW27.4 kmh NNW 18.0 mph29.0 kmh 29.49 in998.6 mb 0.00 in0.0 mm 0.00 in0.0 mm 0.00 in0.0 mm
06:48 AM 37.8°F3.2°C 32.8°F0.4°C 82% 17.9 mph NNW28.8 kmh NNW 19.0 mph30.6 kmh 29.49 in998.6 mb 0.00 in0.0 mm 0.00 in0.0 mm 0.00 in0.0 mm
06:49 AM 37.8°F3.2°C 32.8°F0.4°C 82% 17.2 mph NNW27.7 kmh NNW 19.0 mph30.6 kmh 29.49 in998.6 mb 0.00 in0.0 mm 0.00 in0.0 mm 0.00 in0.0 mm
06:50 AM 37.8°F3.2°C 32.8°F0.4°C 82% 17.3 mph NNW27.8 kmh NNW 19.0 mph30.6 kmh 29.49 in998.6 mb 0.00 in0.0 mm 0.00 in0.0 mm 0.00 in0.0 mm
06:51 AM 37.7°F3.2°C 32.4°F0.2°C 81% 16.9 mph NNW27.2 kmh NNW 19.0 mph30.6 kmh 29.49 in998.6 mb 0.00 in0.0 mm 0.00 in0.0 mm 0.00 in0.0 mm
06:52 AM 37.7°F3.2°C 32.4°F0.2°C 81% 16.9 mph NNW27.2 kmh NNW 19.0 mph30.6 kmh 29.49 in998.6 mb 0.00 in0.0 mm 0.00 in0.0 mm 0.00 in0.0 mm
06:53 AM 37.7°F3.2°C 32.7°F0.4°C 82% 17.5 mph NNW28.2 kmh NNW 20.0 mph32.2 kmh 29.49 in998.6 mb 0.00 in0.0 mm 0.00 in0.0 mm 0.00 in0.0 mm
06:54 AM 37.8°F3.2°C 32.5°F0.3°C 81% 17.2 mph NNW27.7 kmh NNW 20.0 mph32.2 kmh 29.50 in999.0 mb 0.00 in0.0 mm 0.00 in0.0 mm 0.00 in0.0 mm
06:55 AM 37.8°F3.2°C 32.5°F0.3°C 81% 17.1 mph NNW27.5 kmh NNW 19.0 mph30.6 kmh 29.50 in999.0 mb 0.00 in0.0 mm 0.00 in0.0 mm 0.00 in0.0 mm
06:56 AM 37.8°F3.2°C 32.5°F0.3°C 81% 17.1 mph NNW27.5 kmh NNW 19.0 mph30.6 kmh 29.50 in999.0 mb 0.00 in0.0 mm 0.00 in0.0 mm 0.00 in0.0 mm
06:57 AM 37.8°F3.2°C 32.5°F0.3°C 81% 16.9 mph NNW27.2 kmh NNW 19.0 mph30.6 kmh 29.50 in999.0 mb 0.00 in0.0 mm 0.00 in0.0 mm 0.00 in0.0 mm
06:58 AM 37.8°F3.2°C 32.5°F0.3°C 81% 17.1 mph NNW27.5 kmh NNW 19.0 mph30.6 kmh 29.50 in999.0 mb 0.00 in0.0 mm 0.00 in0.0 mm 0.00 in0.0 mm
06:59 AM 37.8°F3.2°C 32.5°F0.3°C 81% 15.5 mph NNW24.9 kmh NNW 19.0 mph30.6 kmh 29.50 in999.0 mb 0.00 in0.0 mm 0.00 in0.0 mm 0.00 in0.0 mm
07:00 AM 37.8°F3.2°C 32.5°F0.3°C 81% 16.5 mph NNW26.6 kmh NNW 19.0 mph30.6 kmh 29.50 in999.0 mb 0.00 in0.0 mm 0.00 in0.0 mm 0.00 in0.0 mm
07:01 AM 37.8°F3.2°C 32.8°F0.4°C 82% 16.4 mph NNW26.4 kmh NNW 19.0 mph30.6 kmh 29.50 in999.0 mb 0.00 in0.0 mm 0.00 in0.0 mm 0.00 in0.0 mm
07:02 AM 37.8°F3.2°C 32.8°F0.4°C 82% 16.2 mph NNW26.1 kmh NNW 18.0 mph29.0 kmh 29.50 in999.0 mb 0.00 in0.0 mm 0.00 in0.0 mm 0.00 in0.0 mm
07:03 AM 37.8°F3.2°C 32.8°F0.4°C 82% 16.9 mph NNW27.2 kmh NNW 18.0 mph29.0 kmh 29.50 in999.0 mb 0.00 in0.0 mm 0.00 in0.0 mm 0.00 in0.0 mm
07:04 AM 37.8°F3.2°C 32.8°F0.4°C 82% 15.5 mph NNW24.9 kmh NNW 18.0 mph29.0 kmh 29.50 in999.0 mb 0.00 in0.0 mm 0.00 in0.0 mm 0.00 in0.0 mm
07:05 AM 37.8°F3.2°C 32.8°F0.4°C 82% 15.8 mph NNW25.4 kmh NNW 18.0 mph29.0 kmh 29.50 in999.0 mb 0.00 in0.0 mm 0.00 in0.0 mm 0.00 in0.0 mm
07:06 AM 37.7°F3.2°C 32.7°F0.4°C 82% 16.2 mph NNW26.1 kmh NNW 18.0 mph29.0 kmh 29.50 in999.0 mb 0.00 in0.0 mm 0.00 in0.0 mm 0.00 in0.0 mm
07:07 AM 37.7°F3.2°C 32.7°F0.4°C 82% 16.4 mph NNW26.4 kmh NNW 18.0 mph29.0 kmh 29.51 in999.3 mb 0.00 in0.0 mm 0.00 in0.0 mm 0.00 in0.0 mm
07:08 AM 37.7°F3.2°C 32.7°F0.4°C 82% 15.9 mph NNW25.6 kmh NNW 19.0 mph30.6 kmh 29.51 in999.3 mb 0.00 in0.0 mm 0.00 in0.0 mm 0.00 in0.0 mm
07:09 AM 37.7°F3.2°C 32.7°F0.4°C 82% 17.0 mph NNW27.4 kmh NNW 19.0 mph30.6 kmh 29.51 in999.3 mb 0.00 in0.0 mm 0.00 in0.0 mm 0.00 in0.0 mm
07:10 AM 37.7°F3.2°C 32.7°F0.4°C 82% 17.2 mph NNW27.7 kmh NNW 19.0 mph30.6 kmh 29.51 in999.3 mb 0.00 in0.0 mm 0.00 in0.0 mm 0.00 in0.0 mm
07:11 AM 37.8°F3.2°C 32.8°F0.4°C 82% 16.0 mph NNW25.7 kmh NNW 18.0 mph29.0 kmh 29.51 in999.3 mb 0.00 in0.0 mm 0.00 in0.0 mm 0.00 in0.0 mm
07:12 AM 37.8°F3.2°C 32.8°F0.4°C 82% 16.0 mph NNW25.7 kmh NNW 18.0 mph29.0 kmh 29.51 in999.3 mb 0.00 in0.0 mm 0.00 in0.0 mm 0.00 in0.0 mm
07:13 AM 37.8°F3.2°C 32.8°F0.4°C 82% 16.0 mph NNW25.7 kmh NNW 19.0 mph30.6 kmh 29.51 in999.3 mb 0.00 in0.0 mm 0.00 in0.0 mm 0.00 in0.0 mm
07:14 AM 37.7°F3.2°C 32.7°F0.4°C 82% 16.4 mph NW26.4 kmh NW 19.0 mph30.6 kmh 29.52 in999.7 mb 0.00 in0.0 mm 0.00 in0.0 mm 0.00 in0.0 mm
07:15 AM 37.7°F3.2°C 32.7°F0.4°C 82% 16.7 mph NW26.9 kmh NW 19.0 mph30.6 kmh 29.52 in999.7 mb 0.00 in0.0 mm 0.00 in0.0 mm 0.00 in0.0 mm
07:16 AM 37.7°F3.2°C 32.7°F0.4°C 82% 16.8 mph NW27.0 kmh NW 18.0 mph29.0 kmh 29.52 in999.7 mb 0.00 in0.0 mm 0.00 in0.0 mm 0.00 in0.0 mm
07:17 AM 37.7°F3.2°C 32.7°F0.4°C 82% 16.7 mph NW26.9 kmh NW 19.0 mph30.6 kmh 29.52 in999.7 mb 0.00 in0.0 mm 0.00 in0.0 mm 0.00 in0.0 mm
07:18 AM 37.7°F3.2°C 32.7°F0.4°C 82% 17.9 mph NW28.8 kmh NW 21.0 mph33.8 kmh 29.52 in999.7 mb 0.00 in0.0 mm 0.00 in0.0 mm 0.00 in0.0 mm
07:19 AM 37.7°F3.2°C 32.7°F0.4°C 82% 17.0 mph NW27.4 kmh NW 21.0 mph33.8 kmh 29.52 in999.7 mb 0.00 in0.0 mm 0.00 in0.0 mm 0.00 in0.0 mm
07:20 AM 37.8°F3.2°C 32.8°F0.4°C 82% 17.4 mph NW28.0 kmh NW 20.0 mph32.2 kmh 29.52 in999.7 mb 0.00 in0.0 mm 0.00 in0.0 mm 0.00 in0.0 mm
07:21 AM 37.8°F3.2°C 32.8°F0.4°C 82% 17.3 mph NW27.8 kmh NW 19.0 mph30.6 kmh 29.52 in999.7 mb 0.00 in0.0 mm 0.00 in0.0 mm 0.00 in0.0 mm
07:22 AM 37.8°F3.2°C 32.5°F0.3°C 81% 18.3 mph NW29.5 kmh NW 20.0 mph32.2 kmh 29.52 in999.7 mb 0.00 in0.0 mm 0.00 in0.0 mm 0.00 in0.0 mm
07:23 AM 37.8°F3.2°C 32.5°F0.3°C 81% 18.3 mph NNW29.5 kmh NNW 20.0 mph32.2 kmh 29.52 in999.7 mb 0.00 in0.0 mm 0.00 in0.0 mm 0.00 in0.0 mm
07:24 AM 37.8°F3.2°C 32.5°F0.3°C 81% 18.3 mph NW29.5 kmh NW 21.0 mph33.8 kmh 29.52 in999.7 mb 0.00 in0.0 mm 0.00 in0.0 mm 0.00 in0.0 mm
07:25 AM 37.8°F3.2°C 32.5°F0.3°C 81% 18.9 mph NNW30.4 kmh NNW 22.0 mph35.4 kmh 29.53 in1000.0 mb 0.00 in0.0 mm 0.00 in0.0 mm 0.00 in0.0 mm
07:26 AM 37.9°F3.3°C 32.6°F0.3°C 81% 18.5 mph NNW29.8 kmh NNW 22.0 mph35.4 kmh 29.53 in1000.0 mb 0.00 in0.0 mm 0.00 in0.0 mm 0.00 in0.0 mm
07:27 AM 37.9°F3.3°C 32.6°F0.3°C 81% 19.0 mph NNW30.6 kmh NNW 20.0 mph32.2 kmh 29.53 in1000.0 mb 0.00 in0.0 mm 0.00 in0.0 mm 0.00 in0.0 mm
07:28 AM 37.9°F3.3°C 32.3°F0.2°C 80% 19.0 mph NNW30.6 kmh NNW 22.0 mph35.4 kmh 29.53 in1000.0 mb 0.00 in0.0 mm 0.00 in0.0 mm 0.00 in0.0 mm
07:29 AM 37.9°F3.3°C 32.3°F0.2°C 80% 18.4 mph NNW29.6 kmh NNW 20.0 mph32.2 kmh 29.53 in1000.0 mb 0.00 in0.0 mm 0.00 in0.0 mm 0.00 in0.0 mm
07:30 AM 37.9°F3.3°C 32.3°F0.2°C 80% 19.4 mph NNW31.2 kmh NNW 22.0 mph35.4 kmh 29.53 in1000.0 mb 0.00 in0.0 mm 0.00 in0.0 mm 0.00 in0.0 mm
07:31 AM 38.0°F3.3°C 32.4°F0.2°C 80% 18.0 mph NNW29.0 kmh NNW 20.0 mph32.2 kmh 29.53 in1000.0 mb 0.00 in0.0 mm 0.00 in0.0 mm 0.00 in0.0 mm
07:32 AM 38.0°F3.3°C 32.4°F0.2°C 80% 19.0 mph NNW30.6 kmh NNW 21.0 mph33.8 kmh 29.53 in1000.0 mb 0.00 in0.0 mm 0.00 in0.0 mm 0.00 in0.0 mm
07:33 AM 38.0°F3.3°C 32.4°F0.2°C 80% 20.0 mph NNW32.2 kmh NNW 23.0 mph37.0 kmh 29.54 in1000.3 mb 0.00 in0.0 mm 0.00 in0.0 mm 0.00 in0.0 mm
07:34 AM 38.0°F3.3°C 32.4°F0.2°C 80% 19.1 mph NNW30.7 kmh NNW 22.0 mph35.4 kmh 29.54 in1000.3 mb 0.00 in0.0 mm 0.00 in0.0 mm 0.00 in0.0 mm
07:35 AM 38.0°F3.3°C 32.4°F0.2°C 80% 19.5 mph NNW31.4 kmh NNW 23.0 mph37.0 kmh 29.54 in1000.3 mb 0.00 in0.0 mm 0.00 in0.0 mm 0.00 in0.0 mm
07:36 AM 38.0°F3.3°C 32.1°F0.1°C 79% 19.6 mph NNW31.5 kmh NNW 23.0 mph37.0 kmh 29.54 in1000.3 mb 0.00 in0.0 mm 0.00 in0.0 mm 0.00 in0.0 mm
07:37 AM 38.1°F3.4°C 32.2°F0.1°C 79% 18.3 mph NNW29.5 kmh NNW 22.0 mph35.4 kmh 29.54 in1000.3 mb 0.00 in0.0 mm 0.00 in0.0 mm 0.00 in0.0 mm
07:38 AM 38.0°F3.3°C 32.1°F0.1°C 79% 17.7 mph NNW28.5 kmh NNW 20.0 mph32.2 kmh 29.54 in1000.3 mb 0.00 in0.0 mm 0.00 in0.0 mm 0.00 in0.0 mm
07:39 AM 38.1°F3.4°C 32.2°F0.1°C 79% 17.5 mph NNW28.2 kmh NNW 20.0 mph32.2 kmh 29.54 in1000.3 mb 0.00 in0.0 mm 0.00 in0.0 mm 0.00 in0.0 mm
07:40 AM 38.0°F3.3°C 32.1°F0.1°C 79% 17.1 mph NNW27.5 kmh NNW 20.0 mph32.2 kmh 29.54 in1000.3 mb 0.00 in0.0 mm 0.00 in0.0 mm 0.00 in0.0 mm
07:41 AM 38.0°F3.3°C 32.1°F0.1°C 79% 17.3 mph NNW27.8 kmh NNW 19.0 mph30.6 kmh 29.54 in1000.3 mb 0.00 in0.0 mm 0.00 in0.0 mm 0.00 in0.0 mm
07:42 AM 38.0°F3.3°C 32.1°F0.1°C 79% 17.2 mph NNW27.7 kmh NNW 19.0 mph30.6 kmh 29.54 in1000.3 mb 0.00 in0.0 mm 0.00 in0.0 mm 0.00 in0.0 mm
07:43 AM 38.0°F3.3°C 32.1°F0.1°C 79% 16.3 mph NNW26.2 kmh NNW 19.0 mph30.6 kmh 29.54 in1000.3 mb 0.00 in0.0 mm 0.00 in0.0 mm 0.00 in0.0 mm
07:44 AM 37.9°F3.3°C 32.0°F0.0°C 79% 17.5 mph NNW28.2 kmh NNW 19.0 mph30.6 kmh 29.54 in1000.3 mb 0.00 in0.0 mm 0.00 in0.0 mm 0.00 in0.0 mm
07:45 AM 37.9°F3.3°C 32.0°F0.0°C 79% 17.0 mph NNW27.4 kmh NNW 19.0 mph30.6 kmh 29.55 in1000.7 mb 0.00 in0.0 mm 0.00 in0.0 mm 0.00 in0.0 mm
07:46 AM 37.9°F3.3°C 32.0°F0.0°C 79% 17.0 mph NNW27.4 kmh NNW 20.0 mph32.2 kmh 29.55 in1000.7 mb 0.00 in0.0 mm 0.00 in0.0 mm 0.00 in0.0 mm
07:47 AM 38.0°F3.3°C 32.1°F0.1°C 79% 18.0 mph NNW29.0 kmh NNW 18.0 mph29.0 kmh 29.55 in1000.7 mb 0.00 in0.0 mm 0.00 in0.0 mm 0.00 in0.0 mm
07:48 AM 37.9°F3.3°C 32.0°F0.0°C 79% 16.9 mph NNW27.2 kmh NNW 19.0 mph30.6 kmh 29.55 in1000.7 mb 0.00 in0.0 mm 0.00 in0.0 mm 0.00 in0.0 mm
07:49 AM 38.0°F3.3°C 32.1°F0.1°C 79% 15.6 mph NNW25.1 kmh NNW 19.0 mph30.6 kmh 29.55 in1000.7 mb 0.00 in0.0 mm 0.00 in0.0 mm 0.00 in0.0 mm
07:50 AM 37.9°F3.3°C 32.0°F0.0°C 79% 17.5 mph NNW28.2 kmh NNW 19.0 mph30.6 kmh 29.55 in1000.7 mb 0.00 in0.0 mm 0.00 in0.0 mm 0.00 in0.0 mm
07:51 AM 37.9°F3.3°C 32.0°F0.0°C 79% 18.0 mph NNW29.0 kmh NNW 20.0 mph32.2 kmh 29.55 in1000.7 mb 0.00 in0.0 mm 0.00 in0.0 mm 0.00 in0.0 mm
07:52 AM 38.0°F3.3°C 32.1°F0.1°C 79% 17.0 mph NNW27.4 kmh NNW 20.0 mph32.2 kmh 29.55 in1000.7 mb 0.00 in0.0 mm 0.00 in0.0 mm 0.00 in0.0 mm
07:53 AM 38.0°F3.3°C 32.1°F0.1°C 79% 17.4 mph NNW28.0 kmh NNW 19.0 mph30.6 kmh 29.55 in1000.7 mb 0.00 in0.0 mm 0.00 in0.0 mm 0.00 in0.0 mm
07:54 AM 37.9°F3.3°C 32.0°F0.0°C 79% 17.0 mph NNW27.4 kmh NNW 19.0 mph30.6 kmh 29.55 in1000.7 mb 0.00 in0.0 mm 0.00 in0.0 mm 0.00 in0.0 mm
07:55 AM 37.9°F3.3°C 32.0°F0.0°C 79% 16.7 mph NNW26.9 kmh NNW 19.0 mph30.6 kmh 29.55 in1000.7 mb 0.00 in0.0 mm 0.00 in0.0 mm 0.00 in0.0 mm
07:56 AM 37.9°F3.3°C 32.0°F0.0°C 79% 17.1 mph NNW27.5 kmh NNW 19.0 mph30.6 kmh 29.56 in1001.0 mb 0.00 in0.0 mm 0.00 in0.0 mm 0.00 in0.0 mm
07:57 AM 37.9°F3.3°C 32.3°F0.2°C 80% 16.9 mph NNW27.2 kmh NNW 19.0 mph30.6 kmh 29.56 in1001.0 mb 0.00 in0.0 mm 0.00 in0.0 mm 0.00 in0.0 mm
07:58 AM 37.9°F3.3°C 32.3°F0.2°C 80% 16.3 mph NNW26.2 kmh NNW 19.0 mph30.6 kmh 29.56 in1001.0 mb 0.00 in0.0 mm 0.00 in0.0 mm 0.00 in0.0 mm
07:59 AM 37.8°F3.2°C 32.2°F0.1°C 80% 17.0 mph NNW27.4 kmh NNW 19.0 mph30.6 kmh 29.56 in1001.0 mb 0.00 in0.0 mm 0.00 in0.0 mm 0.00 in0.0 mm
08:00 AM 37.8°F3.2°C 32.2°F0.1°C 80% 17.3 mph NNW27.8 kmh NNW 19.0 mph30.6 kmh 29.56 in1001.0 mb 0.00 in0.0 mm 0.00 in0.0 mm 0.00 in0.0 mm
08:01 AM 37.8°F3.2°C 32.2°F0.1°C 80% 16.9 mph NNW27.2 kmh NNW 19.0 mph30.6 kmh 29.56 in1001.0 mb 0.00 in0.0 mm 0.00 in0.0 mm 0.00 in0.0 mm
08:02 AM 37.8°F3.2°C 31.9°F-0.1°C 79% 18.4 mph NNW29.6 kmh NNW 20.0 mph32.2 kmh 29.56 in1001.0 mb 0.00 in0.0 mm 0.00 in0.0 mm 0.00 in0.0 mm
08:03 AM 37.8°F3.2°C 31.9°F-0.1°C 79% 17.9 mph NNW28.8 kmh NNW 20.0 mph32.2 kmh 29.56 in1001.0 mb 0.00 in0.0 mm 0.00 in0.0 mm 0.00 in0.0 mm
08:04 AM 37.8°F3.2°C 31.9°F-0.1°C 79% 16.6 mph NNW26.7 kmh NNW 20.0 mph32.2 kmh 29.56 in1001.0 mb 0.00 in0.0 mm 0.00 in0.0 mm 0.00 in0.0 mm
08:05 AM 37.8°F3.2°C 31.9°F-0.1°C 79% 17.1 mph NW27.5 kmh NW 19.0 mph30.6 kmh 29.56 in1001.0 mb 0.00 in0.0 mm 0.00 in0.0 mm 0.00 in0.0 mm
08:06 AM 37.8°F3.2°C 32.2°F0.1°C 80% 17.4 mph NW28.0 kmh NW 20.0 mph32.2 kmh 29.56 in1001.0 mb 0.00 in0.0 mm 0.00 in0.0 mm 0.00 in0.0 mm
08:07 AM 37.7°F3.2°C 32.1°F0.1°C 80% 16.4 mph NW26.4 kmh NW 20.0 mph32.2 kmh 29.56 in1001.0 mb 0.00 in0.0 mm 0.00 in0.0 mm 0.00 in0.0 mm
08:08 AM 37.7°F3.2°C 32.1°F0.1°C 80% 17.5 mph NW28.2 kmh NW 19.0 mph30.6 kmh 29.57 in1001.4 mb 0.00 in0.0 mm 0.00 in0.0 mm 0.00 in0.0 mm
08:09 AM 37.6°F3.1°C 32.0°F0.0°C 80% 18.7 mph NW30.1 kmh NW 22.0 mph35.4 kmh 29.57 in1001.4 mb 0.00 in0.0 mm 0.00 in0.0 mm 0.00 in0.0 mm
08:10 AM 37.7°F3.2°C 32.1°F0.1°C 80% 18.3 mph NW29.5 kmh NW 22.0 mph35.4 kmh 29.57 in1001.4 mb 0.00 in0.0 mm 0.00 in0.0 mm 0.00 in0.0 mm
08:11 AM 37.7°F3.2°C 32.1°F0.1°C 80% 18.4 mph NW29.6 kmh NW 21.0 mph33.8 kmh 29.57 in1001.4 mb 0.00 in0.0 mm 0.00 in0.0 mm 0.00 in0.0 mm
08:12 AM 37.8°F3.2°C 31.9°F-0.1°C 79% 19.2 mph NNW30.9 kmh NNW 22.0 mph35.4 kmh 29.57 in1001.4 mb 0.00 in0.0 mm 0.00 in0.0 mm 0.00 in0.0 mm
08:13 AM 37.8°F3.2°C 31.9°F-0.1°C 79% 19.8 mph NNW31.9 kmh NNW 23.0 mph37.0 kmh 29.57 in1001.4 mb 0.00 in0.0 mm 0.00 in0.0 mm 0.00 in0.0 mm
08:14 AM 37.9°F3.3°C 32.0°F0.0°C 79% 21.3 mph NNW34.3 kmh NNW 25.0 mph40.2 kmh 29.57 in1001.4 mb 0.00 in0.0 mm 0.00 in0.0 mm 0.00 in0.0 mm
08:15 AM 38.0°F3.3°C 31.8°F-0.1°C 78% 20.0 mph NNW32.2 kmh NNW 25.0 mph40.2 kmh 29.57 in1001.4 mb 0.00 in0.0 mm 0.00 in0.0 mm 0.00 in0.0 mm
08:16 AM 38.0°F3.3°C 31.8°F-0.1°C 78% 19.0 mph NNW30.6 kmh NNW 22.0 mph35.4 kmh 29.57 in1001.4 mb 0.00 in0.0 mm 0.00 in0.0 mm 0.00 in0.0 mm
08:17 AM 38.0°F3.3°C 31.8°F-0.1°C 78% 19.2 mph NNW30.9 kmh NNW 20.0 mph32.2 kmh 29.57 in1001.4 mb 0.00 in0.0 mm 0.00 in0.0 mm 0.00 in0.0 mm
08:18 AM 38.0°F3.3°C 31.8°F-0.1°C 78% 18.6 mph NNW29.9 kmh NNW 21.0 mph33.8 kmh 29.57 in1001.4 mb 0.00 in0.0 mm 0.00 in0.0 mm 0.00 in0.0 mm
08:19 AM 38.1°F3.4°C 31.9°F-0.1°C 78% 18.8 mph NNW30.3 kmh NNW 21.0 mph33.8 kmh 29.57 in1001.4 mb 0.00 in0.0 mm 0.00 in0.0 mm 0.00 in0.0 mm
08:20 AM 38.1°F3.4°C 31.9°F-0.1°C 78% 17.7 mph NNW28.5 kmh NNW 21.0 mph33.8 kmh 29.57 in1001.4 mb 0.00 in0.0 mm 0.00 in0.0 mm 0.00 in0.0 mm
08:21 AM 38.0°F3.3°C 31.8°F-0.1°C 78% 18.0 mph NNW29.0 kmh NNW 20.0 mph32.2 kmh 29.58 in1001.7 mb 0.00 in0.0 mm 0.00 in0.0 mm 0.00 in0.0 mm
08:22 AM 38.0°F3.3°C 31.8°F-0.1°C 78% 16.2 mph NNW26.1 kmh NNW 20.0 mph32.2 kmh 29.58 in1001.7 mb 0.00 in0.0 mm 0.00 in0.0 mm 0.00 in0.0 mm
08:23 AM 37.9°F3.3°C 32.0°F0.0°C 79% 17.0 mph NNW27.4 kmh NNW 19.0 mph30.6 kmh 29.58 in1001.7 mb 0.00 in0.0 mm 0.00 in0.0 mm 0.00 in0.0 mm
08:24 AM 37.9°F3.3°C 31.7°F-0.2°C 78% 17.1 mph NW27.5 kmh NW 19.0 mph30.6 kmh 29.58 in1001.7 mb 0.00 in0.0 mm 0.00 in0.0 mm 0.00 in0.0 mm
08:25 AM 37.8°F3.2°C 31.9°F-0.1°C 79% 17.8 mph NW28.6 kmh NW 20.0 mph32.2 kmh 29.58 in1001.7 mb 0.00 in0.0 mm 0.00 in0.0 mm 0.00 in0.0 mm
08:26 AM 37.8°F3.2°C 31.9°F-0.1°C 79% 17.8 mph NNW28.6 kmh NNW 20.0 mph32.2 kmh 29.58 in1001.7 mb 0.00 in0.0 mm 0.00 in0.0 mm 0.00 in0.0 mm
08:27 AM 37.8°F3.2°C 31.9°F-0.1°C 79% 17.9 mph NNW28.8 kmh NNW 20.0 mph32.2 kmh 29.58 in1001.7 mb 0.00 in0.0 mm 0.00 in0.0 mm 0.00 in0.0 mm
08:28 AM 37.8°F3.2°C 31.9°F-0.1°C 79% 17.3 mph NNW27.8 kmh NNW 20.0 mph32.2 kmh 29.58 in1001.7 mb 0.00 in0.0 mm 0.00 in0.0 mm 0.00 in0.0 mm
08:29 AM 37.8°F3.2°C 31.9°F-0.1°C 79% 17.8 mph NNW28.6 kmh NNW 20.0 mph32.2 kmh 29.58 in1001.7 mb 0.00 in0.0 mm 0.00 in0.0 mm 0.00 in0.0 mm
08:30 AM 37.8°F3.2°C 31.9°F-0.1°C 79% 18.5 mph NNW29.8 kmh NNW 20.0 mph32.2 kmh 29.58 in1001.7 mb 0.00 in0.0 mm 0.00 in0.0 mm 0.00 in0.0 mm
08:31 AM 37.8°F3.2°C 31.9°F-0.1°C 79% 18.7 mph NNW30.1 kmh NNW 22.0 mph35.4 kmh 29.58 in1001.7 mb 0.00 in0.0 mm 0.00 in0.0 mm 0.00 in0.0 mm
08:32 AM 37.8°F3.2°C 31.6°F-0.2°C 78% 18.5 mph NW29.8 kmh NW 22.0 mph35.4 kmh 29.58 in1001.7 mb 0.00 in0.0 mm 0.00 in0.0 mm 0.00 in0.0 mm
08:33 AM 37.8°F3.2°C 31.6°F-0.2°C 78% 19.5 mph NNW31.4 kmh NNW 22.0 mph35.4 kmh 29.58 in1001.7 mb 0.00 in0.0 mm 0.00 in0.0 mm 0.00 in0.0 mm
08:34 AM 37.9°F3.3°C 31.7°F-0.2°C 78% 19.3 mph NW31.1 kmh NW 22.0 mph35.4 kmh 29.59 in1002.0 mb 0.00 in0.0 mm 0.00 in0.0 mm 0.00 in0.0 mm
08:35 AM 37.9°F3.3°C 31.7°F-0.2°C 78% 19.6 mph NW31.5 kmh NW 22.0 mph35.4 kmh 29.59 in1002.0 mb 0.00 in0.0 mm 0.00 in0.0 mm 0.00 in0.0 mm
08:36 AM 38.0°F3.3°C 31.8°F-0.1°C 78% 19.0 mph NNW30.6 kmh NNW 21.0 mph33.8 kmh 29.59 in1002.0 mb 0.00 in0.0 mm 0.00 in0.0 mm 0.00 in0.0 mm
08:37 AM 38.0°F3.3°C 31.8°F-0.1°C 78% 20.0 mph NNW32.2 kmh NNW 22.0 mph35.4 kmh 29.59 in1002.0 mb 0.00 in0.0 mm 0.00 in0.0 mm 0.00 in0.0 mm
08:38 AM 37.9°F3.3°C 31.7°F-0.2°C 78% 20.6 mph NW33.2 kmh NW 21.0 mph33.8 kmh 29.59 in1002.0 mb 0.00 in0.0 mm 0.00 in0.0 mm 0.00 in0.0 mm
08:39 AM 38.0°F3.3°C 31.8°F-0.1°C 78% 19.5 mph NNW31.4 kmh NNW 24.0 mph38.6 kmh 29.59 in1002.0 mb 0.00 in0.0 mm 0.00 in0.0 mm 0.00 in0.0 mm
08:40 AM 38.0°F3.3°C 31.4°F-0.3°C 77% 19.0 mph NNW30.6 kmh NNW 22.0 mph35.4 kmh 29.59 in1002.0 mb 0.00 in0.0 mm 0.00 in0.0 mm 0.00 in0.0 mm
08:41 AM 38.0°F3.3°C 31.4°F-0.3°C 77% 19.0 mph NNW30.6 kmh NNW 22.0 mph35.4 kmh 29.59 in1002.0 mb 0.00 in0.0 mm 0.00 in0.0 mm 0.00 in0.0 mm
08:42 AM 38.0°F3.3°C 31.4°F-0.3°C 77% 18.5 mph NNW29.8 kmh NNW 21.0 mph33.8 kmh 29.59 in1002.0 mb 0.00 in0.0 mm 0.00 in0.0 mm 0.00 in0.0 mm
08:43 AM 38.0°F3.3°C 31.4°F-0.3°C 77% 18.9 mph NNW30.4 kmh NNW 22.0 mph35.4 kmh 29.60 in1002.4 mb 0.00 in0.0 mm 0.00 in0.0 mm 0.00 in0.0 mm
08:44 AM 38.0°F3.3°C 31.4°F-0.3°C 77% 19.4 mph NNW31.2 kmh NNW 22.0 mph35.4 kmh 29.59 in1002.0 mb 0.00 in0.0 mm 0.00 in0.0 mm 0.00 in0.0 mm
08:45 AM 38.1°F3.4°C 31.5°F-0.3°C 77% 19.1 mph NNW30.7 kmh NNW 22.0 mph35.4 kmh 29.60 in1002.4 mb 0.00 in0.0 mm 0.00 in0.0 mm 0.00 in0.0 mm
08:46 AM 38.1°F3.4°C 31.5°F-0.3°C 77% 19.0 mph NNW30.6 kmh NNW 22.0 mph35.4 kmh 29.60 in1002.4 mb 0.00 in0.0 mm 0.00 in0.0 mm 0.00 in0.0 mm
08:47 AM 38.1°F3.4°C 31.5°F-0.3°C 77% 17.7 mph NNW28.5 kmh NNW 21.0 mph33.8 kmh 29.60 in1002.4 mb 0.00 in0.0 mm 0.00 in0.0 mm 0.00 in0.0 mm
08:48 AM 38.1°F3.4°C 31.9°F-0.1°C 78% 18.4 mph NNW29.6 kmh NNW 20.0 mph32.2 kmh 29.60 in1002.4 mb 0.00 in0.0 mm 0.00 in0.0 mm 0.00 in0.0 mm
08:49 AM 38.0°F3.3°C 31.8°F-0.1°C 78% 17.5 mph NNW28.2 kmh NNW 20.0 mph32.2 kmh 29.60 in1002.4 mb 0.00 in0.0 mm 0.00 in0.0 mm 0.00 in0.0 mm
08:50 AM 38.0°F3.3°C 31.8°F-0.1°C 78% 17.7 mph NNW28.5 kmh NNW 19.0 mph30.6 kmh 29.60 in1002.4 mb 0.00 in0.0 mm 0.00 in0.0 mm 0.00 in0.0 mm
08:51 AM 38.0°F3.3°C 31.8°F-0.1°C 78% 15.7 mph NNW25.3 kmh NNW 19.0 mph30.6 kmh 29.60 in1002.4 mb 0.00 in0.0 mm 0.00 in0.0 mm 0.00 in0.0 mm
08:52 AM 38.0°F3.3°C 31.8°F-0.1°C 78% 15.4 mph NNW24.8 kmh NNW 18.0 mph29.0 kmh 29.60 in1002.4 mb 0.00 in0.0 mm 0.00 in0.0 mm 0.00 in0.0 mm
08:53 AM 37.9°F3.3°C 31.7°F-0.2°C 78% 15.7 mph NNW25.3 kmh NNW 18.0 mph29.0 kmh 29.60 in1002.4 mb 0.00 in0.0 mm 0.00 in0.0 mm 0.00 in0.0 mm
08:54 AM 37.9°F3.3°C 31.7°F-0.2°C 78% 15.8 mph NNW25.4 kmh NNW 18.0 mph29.0 kmh 29.60 in1002.4 mb 0.00 in0.0 mm 0.00 in0.0 mm 0.00 in0.0 mm
08:55 AM 37.8°F3.2°C 31.6°F-0.2°C 78% 16.3 mph NNW26.2 kmh NNW 18.0 mph29.0 kmh 29.60 in1002.4 mb 0.00 in0.0 mm 0.00 in0.0 mm 0.00 in0.0 mm
08:56 AM 37.9°F3.3°C 31.7°F-0.2°C 78% 16.8 mph NNW27.0 kmh NNW 19.0 mph30.6 kmh 29.61 in1002.7 mb 0.00 in0.0 mm 0.00 in0.0 mm 0.00 in0.0 mm
08:57 AM 37.8°F3.2°C 31.6°F-0.2°C 78% 16.5 mph NNW26.6 kmh NNW 19.0 mph30.6 kmh 29.61 in1002.7 mb 0.00 in0.0 mm 0.00 in0.0 mm 0.00 in0.0 mm
08:58 AM 37.9°F3.3°C 31.7°F-0.2°C 78% 17.7 mph NNW28.5 kmh NNW 19.0 mph30.6 kmh 29.61 in1002.7 mb 0.00 in0.0 mm 0.00 in0.0 mm 0.00 in0.0 mm
08:59 AM 37.9°F3.3°C 31.7°F-0.2°C 78% 17.4 mph NNW28.0 kmh NNW 20.0 mph32.2 kmh 29.61 in1002.7 mb 0.00 in0.0 mm 0.00 in0.0 mm 0.00 in0.0 mm
09:00 AM 37.9°F3.3°C 31.7°F-0.2°C 78% 17.0 mph NNW27.4 kmh NNW 19.0 mph30.6 kmh 29.61 in1002.7 mb 0.00 in0.0 mm 0.00 in0.0 mm 0.00 in0.0 mm
09:01 AM 37.9°F3.3°C 31.7°F-0.2°C 78% 18.0 mph NNW29.0 kmh NNW 20.0 mph32.2 kmh 29.61 in1002.7 mb 0.00 in0.0 mm 0.00 in0.0 mm 0.00 in0.0 mm
09:02 AM 37.9°F3.3°C 31.7°F-0.2°C 78% 18.0 mph NNW29.0 kmh NNW 20.0 mph32.2 kmh 29.61 in1002.7 mb 0.00 in0.0 mm 0.00 in0.0 mm 0.00 in0.0 mm
09:03 AM 38.0°F3.3°C 31.8°F-0.1°C 78% 18.1 mph NNW29.1 kmh NNW 20.0 mph32.2 kmh 29.61 in1002.7 mb 0.00 in0.0 mm 0.00 in0.0 mm 0.00 in0.0 mm
09:04 AM 38.0°F3.3°C 31.8°F-0.1°C 78% 17.7 mph NNW28.5 kmh NNW 20.0 mph32.2 kmh 29.61 in1002.7 mb 0.00 in0.0 mm 0.00 in0.0 mm 0.00 in0.0 mm
09:05 AM 38.0°F3.3°C 31.8°F-0.1°C 78% 16.7 mph NNW26.9 kmh NNW 19.0 mph30.6 kmh 29.61 in1002.7 mb 0.00 in0.0 mm 0.00 in0.0 mm 0.00 in0.0 mm
09:06 AM 38.0°F3.3°C 31.8°F-0.1°C 78% 17.2 mph NNW27.7 kmh NNW 19.0 mph30.6 kmh 29.61 in1002.7 mb 0.00 in0.0 mm 0.00 in0.0 mm 0.00 in0.0 mm
09:07 AM 38.0°F3.3°C 31.8°F-0.1°C 78% 17.1 mph NNW27.5 kmh NNW 19.0 mph30.6 kmh 29.61 in1002.7 mb 0.00 in0.0 mm 0.00 in0.0 mm 0.00 in0.0 mm
09:08 AM 38.1°F3.4°C 32.2°F0.1°C 79% 15.8 mph NNW25.4 kmh NNW 19.0 mph30.6 kmh 29.61 in1002.7 mb 0.00 in0.0 mm 0.00 in0.0 mm 0.00 in0.0 mm
09:09 AM 38.0°F3.3°C 32.1°F0.1°C 79% 15.9 mph NNW25.6 kmh NNW 19.0 mph30.6 kmh 29.61 in1002.7 mb 0.00 in0.0 mm 0.00 in0.0 mm 0.00 in0.0 mm
09:10 AM 38.0°F3.3°C 32.1°F0.1°C 79% 17.9 mph NNW28.8 kmh NNW 20.0 mph32.2 kmh 29.62 in1003.0 mb 0.00 in0.0 mm 0.00 in0.0 mm 0.00 in0.0 mm
09:11 AM 37.9°F3.3°C 31.7°F-0.2°C 78% 18.5 mph NNW29.8 kmh NNW 21.0 mph33.8 kmh 29.62 in1003.0 mb 0.00 in0.0 mm 0.00 in0.0 mm 0.00 in0.0 mm
09:12 AM 38.1°F3.4°C 31.9°F-0.1°C 78% 19.2 mph NNW30.9 kmh NNW 21.0 mph33.8 kmh 29.62 in1003.0 mb 0.00 in0.0 mm 0.00 in0.0 mm 0.00 in0.0 mm
09:13 AM 38.1°F3.4°C 31.9°F-0.1°C 78% 18.5 mph NNW29.8 kmh NNW 21.0 mph33.8 kmh 29.62 in1003.0 mb 0.00 in0.0 mm 0.00 in0.0 mm 0.00 in0.0 mm
09:14 AM 38.2°F3.4°C 32.0°F0.0°C 78% 17.6 mph NNW28.3 kmh NNW 21.0 mph33.8 kmh 29.62 in1003.0 mb 0.00 in0.0 mm 0.00 in0.0 mm 0.00 in0.0 mm
09:15 AM 38.2°F3.4°C 32.0°F0.0°C 78% 18.0 mph NNW29.0 kmh NNW 21.0 mph33.8 kmh 29.62 in1003.0 mb 0.00 in0.0 mm 0.00 in0.0 mm 0.00 in0.0 mm
09:16 AM 38.2°F3.4°C 31.6°F-0.2°C 77% 20.0 mph NNW32.2 kmh NNW 22.0 mph35.4 kmh 29.62 in1003.0 mb 0.00 in0.0 mm 0.00 in0.0 mm 0.00 in0.0 mm
09:17 AM 38.3°F3.5°C 31.7°F-0.2°C 77% 17.9 mph NNW28.8 kmh NNW 19.0 mph30.6 kmh 29.62 in1003.0 mb 0.00 in0.0 mm 0.00 in0.0 mm 0.00 in0.0 mm
09:18 AM 38.3°F3.5°C 31.7°F-0.2°C 77% 18.4 mph NNW29.6 kmh NNW 19.0 mph30.6 kmh 29.62 in1003.0 mb 0.00 in0.0 mm 0.00 in0.0 mm 0.00 in0.0 mm
09:19 AM 38.3°F3.5°C 31.7°F-0.2°C 77% 17.7 mph NW28.5 kmh NW 20.0 mph32.2 kmh 29.62 in1003.0 mb 0.00 in0.0 mm 0.00 in0.0 mm 0.00 in0.0 mm
09:20 AM 38.3°F3.5°C 31.7°F-0.2°C 77% 16.7 mph NW26.9 kmh NW 20.0 mph32.2 kmh 29.62 in1003.0 mb 0.00 in0.0 mm 0.00 in0.0 mm 0.00 in0.0 mm
09:21 AM 38.3°F3.5°C 32.1°F0.1°C 78% 17.7 mph NW28.5 kmh NW 19.0 mph30.6 kmh 29.63 in1003.4 mb 0.00 in0.0 mm 0.00 in0.0 mm 0.00 in0.0 mm
09:22 AM 38.3°F3.5°C 32.1°F0.1°C 78% 18.2 mph NW29.3 kmh NW 20.0 mph32.2 kmh 29.63 in1003.4 mb 0.00 in0.0 mm 0.00 in0.0 mm 0.00 in0.0 mm
09:23 AM 38.3°F3.5°C 32.1°F0.1°C 78% 20.6 mph NW33.2 kmh NW 23.0 mph37.0 kmh 29.63 in1003.4 mb 0.00 in0.0 mm 0.00 in0.0 mm 0.00 in0.0 mm
09:24 AM 38.4°F3.6°C 31.8°F-0.1°C 77% 17.3 mph NW27.8 kmh NW 23.0 mph37.0 kmh 29.63 in1003.4 mb 0.00 in0.0 mm 0.00 in0.0 mm 0.00 in0.0 mm
09:25 AM 38.5°F3.6°C 31.9°F-0.1°C 77% 17.6 mph NW28.3 kmh NW 21.0 mph33.8 kmh 29.63 in1003.4 mb 0.00 in0.0 mm 0.00 in0.0 mm 0.00 in0.0 mm
09:26 AM 38.5°F3.6°C 31.9°F-0.1°C 77% 19.8 mph NW31.9 kmh NW 22.0 mph35.4 kmh 29.63 in1003.4 mb 0.00 in0.0 mm 0.00 in0.0 mm 0.00 in0.0 mm
09:27 AM 38.6°F3.7°C 32.0°F0.0°C 77% 19.9 mph NW32.0 kmh NW 23.0 mph37.0 kmh 29.63 in1003.4 mb 0.00 in0.0 mm 0.00 in0.0 mm 0.00 in0.0 mm
09:28 AM 38.6°F3.7°C 31.7°F-0.2°C 76% 21.0 mph NW33.8 kmh NW 24.0 mph38.6 kmh 29.63 in1003.4 mb 0.00 in0.0 mm 0.00 in0.0 mm 0.00 in0.0 mm
09:29 AM 38.8°F3.8°C 31.9°F-0.1°C 76% 19.3 mph NW31.1 kmh NW 24.0 mph38.6 kmh 29.63 in1003.4 mb 0.00 in0.0 mm 0.00 in0.0 mm 0.00 in0.0 mm
09:30 AM 38.8°F3.8°C 31.9°F-0.1°C 76% 19.6 mph NW31.5 kmh NW 22.0 mph35.4 kmh 29.63 in1003.4 mb 0.00 in0.0 mm 0.00 in0.0 mm 0.00 in0.0 mm
09:31 AM 38.7°F3.7°C 32.1°F0.1°C 77% 18.1 mph NW29.1 kmh NW 22.0 mph35.4 kmh 29.63 in1003.4 mb 0.00 in0.0 mm 0.00 in0.0 mm 0.00 in0.0 mm
09:32 AM 38.7°F3.7°C 32.1°F0.1°C 77% 19.3 mph NW31.1 kmh NW 21.0 mph33.8 kmh 29.64 in1003.7 mb 0.00 in0.0 mm 0.00 in0.0 mm 0.00 in0.0 mm
09:33 AM 38.6°F3.7°C 32.0°F0.0°C 77% 19.9 mph NW32.0 kmh NW 23.0 mph37.0 kmh 29.64 in1003.7 mb 0.00 in0.0 mm 0.00 in0.0 mm 0.00 in0.0 mm
09:34 AM 38.6°F3.7°C 32.0°F0.0°C 77% 20.6 mph NW33.2 kmh NW 23.0 mph37.0 kmh 29.64 in1003.7 mb 0.00 in0.0 mm 0.00 in0.0 mm 0.00 in0.0 mm
09:35 AM 38.7°F3.7°C 32.1°F0.1°C 77% 20.1 mph NW32.3 kmh NW 23.0 mph37.0 kmh 29.64 in1003.7 mb 0.00 in0.0 mm 0.00 in0.0 mm 0.00 in0.0 mm
09:36 AM 38.7°F3.7°C 32.4°F0.2°C 78% 20.5 mph NW33.0 kmh NW 23.0 mph37.0 kmh 29.64 in1003.7 mb 0.00 in0.0 mm 0.00 in0.0 mm 0.00 in0.0 mm
09:37 AM 38.7°F3.7°C 32.1°F0.1°C 77% 20.8 mph NW33.5 kmh NW 24.0 mph38.6 kmh 29.64 in1003.7 mb 0.00 in0.0 mm 0.00 in0.0 mm 0.00 in0.0 mm
09:38 AM 38.7°F3.7°C 32.1°F0.1°C 77% 22.8 mph NW36.7 kmh NW 25.0 mph40.2 kmh 29.64 in1003.7 mb 0.01 in0.3 mm 0.60 in15.2 mm 0.01 in0.3 mm
09:39 AM 38.8°F3.8°C 32.2°F0.1°C 77% 21.6 mph NW34.8 kmh NW 25.0 mph40.2 kmh 29.64 in1003.7 mb 0.01 in0.3 mm 0.00 in0.0 mm 0.01 in0.3 mm
09:40 AM 38.8°F3.8°C 32.2°F0.1°C 77% 21.0 mph NW33.8 kmh NW 25.0 mph40.2 kmh 29.64 in1003.7 mb 0.01 in0.3 mm 0.00 in0.0 mm 0.01 in0.3 mm
09:41 AM 38.8°F3.8°C 32.2°F0.1°C 77% 20.3 mph NW32.7 kmh NW 24.0 mph38.6 kmh 29.65 in1004.1 mb 0.01 in0.3 mm 0.00 in0.0 mm 0.01 in0.3 mm
09:42 AM 38.7°F3.7°C 32.1°F0.1°C 77% 20.2 mph NW32.5 kmh NW 24.0 mph38.6 kmh 29.64 in1003.7 mb 0.01 in0.3 mm 0.00 in0.0 mm 0.01 in0.3 mm
09:43 AM 38.7°F3.7°C 32.1°F0.1°C 77% 20.0 mph NW32.2 kmh NW 23.0 mph37.0 kmh 29.65 in1004.1 mb 0.01 in0.3 mm 0.00 in0.0 mm 0.01 in0.3 mm
09:44 AM 38.7°F3.7°C 32.1°F0.1°C 77% 20.0 mph NW32.2 kmh NW 24.0 mph38.6 kmh 29.65 in1004.1 mb 0.01 in0.3 mm 0.00 in0.0 mm 0.01 in0.3 mm
09:45 AM 38.7°F3.7°C 32.1°F0.1°C 77% 19.0 mph NW30.6 kmh NW 21.0 mph33.8 kmh 29.65 in1004.1 mb 0.01 in0.3 mm 0.00 in0.0 mm 0.01 in0.3 mm
09:46 AM 38.7°F3.7°C 32.4°F0.2°C 78% 19.4 mph NW31.2 kmh NW 21.0 mph33.8 kmh 29.65 in1004.1 mb 0.01 in0.3 mm 0.00 in0.0 mm 0.01 in0.3 mm
09:47 AM 38.6°F3.7°C 32.3°F0.2°C 78% 19.7 mph NW31.7 kmh NW 24.0 mph38.6 kmh 29.65 in1004.1 mb 0.01 in0.3 mm 0.00 in0.0 mm 0.01 in0.3 mm
09:48 AM 38.7°F3.7°C 32.1°F0.1°C 77% 19.4 mph NW31.2 kmh NW 24.0 mph38.6 kmh 29.65 in1004.1 mb 0.01 in0.3 mm 0.00 in0.0 mm 0.01 in0.3 mm
09:49 AM 38.7°F3.7°C 32.1°F0.1°C 77% 20.1 mph NW32.3 kmh NW 22.0 mph35.4 kmh 29.65 in1004.1 mb 0.01 in0.3 mm 0.00 in0.0 mm 0.01 in0.3 mm
09:50 AM 38.7°F3.7°C 32.1°F0.1°C 77% 20.9 mph NW33.6 kmh NW 23.0 mph37.0 kmh 29.65 in1004.1 mb 0.01 in0.3 mm 0.00 in0.0 mm 0.01 in0.3 mm
09:51 AM 38.7°F3.7°C 32.1°F0.1°C 77% 19.2 mph NW30.9 kmh NW 23.0 mph37.0 kmh 29.65 in1004.1 mb 0.01 in0.3 mm 0.00 in0.0 mm 0.01 in0.3 mm
09:52 AM 38.7°F3.7°C 32.1°F0.1°C 77% 18.3 mph NW29.5 kmh NW 21.0 mph33.8 kmh 29.66 in1004.4 mb 0.01 in0.3 mm 0.00 in0.0 mm 0.01 in0.3 mm
09:53 AM 38.7°F3.7°C 32.1°F0.1°C 77% 18.9 mph NW30.4 kmh NW 21.0 mph33.8 kmh 29.66 in1004.4 mb 0.01 in0.3 mm 0.00 in0.0 mm 0.01 in0.3 mm
09:54 AM 38.7°F3.7°C 32.1°F0.1°C 77% 20.0 mph NW32.2 kmh NW 24.0 mph38.6 kmh 29.66 in1004.4 mb 0.01 in0.3 mm 0.00 in0.0 mm 0.01 in0.3 mm
09:55 AM 38.7°F3.7°C 32.1°F0.1°C 77% 20.0 mph NNW32.2 kmh NNW 22.0 mph35.4 kmh 29.66 in1004.4 mb 0.01 in0.3 mm 0.00 in0.0 mm 0.01 in0.3 mm
09:56 AM 38.8°F3.8°C 32.2°F0.1°C 77% 20.0 mph NNW32.2 kmh NNW 21.0 mph33.8 kmh 29.66 in1004.4 mb 0.01 in0.3 mm 0.00 in0.0 mm 0.01 in0.3 mm
09:57 AM 38.7°F3.7°C 32.1°F0.1°C 77% 20.0 mph NNW32.2 kmh NNW 22.0 mph35.4 kmh 29.66 in1004.4 mb 0.01 in0.3 mm 0.00 in0.0 mm 0.01 in0.3 mm
09:58 AM 38.8°F3.8°C 32.2°F0.1°C 77% 18.8 mph NW30.3 kmh NW 22.0 mph35.4 kmh 29.66 in1004.4 mb 0.01 in0.3 mm 0.00 in0.0 mm 0.01 in0.3 mm
09:59 AM 38.8°F3.8°C 32.2°F0.1°C 77% 19.7 mph NW31.7 kmh NW 25.0 mph40.2 kmh 29.66 in1004.4 mb 0.01 in0.3 mm 0.00 in0.0 mm 0.01 in0.3 mm
10:00 AM 38.8°F3.8°C 31.6°F-0.2°C 75% 24.0 mph NW38.6 kmh NW 26.0 mph41.8 kmh 29.66 in1004.4 mb 0.01 in0.3 mm 0.00 in0.0 mm 0.01 in0.3 mm
10:01 AM 38.8°F3.8°C 31.9°F-0.1°C 76% 21.8 mph NW35.1 kmh NW 26.0 mph41.8 kmh 29.66 in1004.4 mb 0.01 in0.3 mm 0.00 in0.0 mm 0.01 in0.3 mm
10:02 AM 38.9°F3.8°C 32.0°F0.0°C 76% 20.1 mph NNW32.3 kmh NNW 25.0 mph40.2 kmh 29.66 in1004.4 mb 0.01 in0.3 mm 0.00 in0.0 mm 0.01 in0.3 mm
10:03 AM 38.9°F3.8°C 31.7°F-0.2°C 75% 21.8 mph NNW35.1 kmh NNW 25.0 mph40.2 kmh 29.66 in1004.4 mb 0.01 in0.3 mm 0.00 in0.0 mm 0.01 in0.3 mm
10:04 AM 38.9°F3.8°C 31.7°F-0.2°C 75% 19.8 mph NW31.9 kmh NW 25.0 mph40.2 kmh 29.66 in1004.4 mb 0.01 in0.3 mm 0.00 in0.0 mm 0.01 in0.3 mm
10:05 AM 38.9°F3.8°C 32.0°F0.0°C 76% 20.8 mph NNW33.5 kmh NNW 23.0 mph37.0 kmh 29.66 in1004.4 mb 0.01 in0.3 mm 0.00 in0.0 mm 0.01 in0.3 mm
10:06 AM 38.9°F3.8°C 32.0°F0.0°C 76% 20.9 mph NW33.6 kmh NW 23.0 mph37.0 kmh 29.67 in1004.7 mb 0.01 in0.3 mm 0.00 in0.0 mm 0.01 in0.3 mm
10:07 AM 38.9°F3.8°C 32.0°F0.0°C 76% 19.8 mph NNW31.9 kmh NNW 23.0 mph37.0 kmh 29.67 in1004.7 mb 0.01 in0.3 mm 0.00 in0.0 mm 0.01 in0.3 mm
10:08 AM 38.8°F3.8°C 31.9°F-0.1°C 76% 19.0 mph NW30.6 kmh NW 22.0 mph35.4 kmh 29.67 in1004.7 mb 0.01 in0.3 mm 0.00 in0.0 mm 0.01 in0.3 mm
10:09 AM 38.8°F3.8°C 31.9°F-0.1°C 76% 18.8 mph NW30.3 kmh NW 22.0 mph35.4 kmh 29.67 in1004.7 mb 0.01 in0.3 mm 0.00 in0.0 mm 0.01 in0.3 mm
10:10 AM 38.8°F3.8°C 31.9°F-0.1°C 76% 19.7 mph NNW31.7 kmh NNW 22.0 mph35.4 kmh 29.67 in1004.7 mb 0.01 in0.3 mm 0.00 in0.0 mm 0.01 in0.3 mm
10:11 AM 38.8°F3.8°C 31.9°F-0.1°C 76% 18.9 mph NW30.4 kmh NW 21.0 mph33.8 kmh 29.67 in1004.7 mb 0.01 in0.3 mm 0.00 in0.0 mm 0.01 in0.3 mm
10:12 AM 38.8°F3.8°C 31.9°F-0.1°C 76% 19.2 mph NW30.9 kmh NW 22.0 mph35.4 kmh 29.67 in1004.7 mb 0.01 in0.3 mm 0.00 in0.0 mm 0.01 in0.3 mm
10:13 AM 38.8°F3.8°C 31.9°F-0.1°C 76% 20.3 mph NW32.7 kmh NW 23.0 mph37.0 kmh 29.67 in1004.7 mb 0.01 in0.3 mm 0.00 in0.0 mm 0.01 in0.3 mm
10:14 AM 38.8°F3.8°C 31.9°F-0.1°C 76% 18.4 mph NNW29.6 kmh NNW 23.0 mph37.0 kmh 29.67 in1004.7 mb 0.01 in0.3 mm 0.00 in0.0 mm 0.01 in0.3 mm
10:15 AM 38.8°F3.8°C 31.9°F-0.1°C 76% 19.2 mph NNW30.9 kmh NNW 21.0 mph33.8 kmh 29.67 in1004.7 mb 0.01 in0.3 mm 0.00 in0.0 mm 0.01 in0.3 mm
10:16 AM 38.8°F3.8°C 31.9°F-0.1°C 76% 19.0 mph NNW30.6 kmh NNW 21.0 mph33.8 kmh 29.67 in1004.7 mb 0.01 in0.3 mm 0.00 in0.0 mm 0.01 in0.3 mm
10:17 AM 38.8°F3.8°C 31.9°F-0.1°C 76% 19.0 mph NNW30.6 kmh NNW 21.0 mph33.8 kmh 29.68 in1005.1 mb 0.01 in0.3 mm 0.00 in0.0 mm 0.01 in0.3 mm
10:18 AM 38.8°F3.8°C 31.9°F-0.1°C 76% 20.0 mph NNW32.2 kmh NNW 22.0 mph35.4 kmh 29.68 in1005.1 mb 0.01 in0.3 mm 0.00 in0.0 mm 0.01 in0.3 mm
10:19 AM 38.8°F3.8°C 31.9°F-0.1°C 76% 18.1 mph NNW29.1 kmh NNW 20.0 mph32.2 kmh 29.68 in1005.1 mb 0.01 in0.3 mm 0.00 in0.0 mm 0.01 in0.3 mm
10:20 AM 38.8°F3.8°C 31.9°F-0.1°C 76% 18.6 mph NNW29.9 kmh NNW 22.0 mph35.4 kmh 29.68 in1005.1 mb 0.01 in0.3 mm 0.00 in0.0 mm 0.01 in0.3 mm
10:21 AM 38.8°F3.8°C 31.9°F-0.1°C 76% 19.9 mph NW32.0 kmh NW 22.0 mph35.4 kmh 29.68 in1005.1 mb 0.01 in0.3 mm 0.00 in0.0 mm 0.01 in0.3 mm
10:22 AM 38.8°F3.8°C 31.9°F-0.1°C 76% 19.1 mph NNW30.7 kmh NNW 21.0 mph33.8 kmh 29.68 in1005.1 mb 0.01 in0.3 mm 0.00 in0.0 mm 0.01 in0.3 mm
10:23 AM 38.7°F3.7°C 31.8°F-0.1°C 76% 19.4 mph NNW31.2 kmh NNW 22.0 mph35.4 kmh 29.68 in1005.1 mb 0.01 in0.3 mm 0.00 in0.0 mm 0.01 in0.3 mm
10:24 AM 38.8°F3.8°C 31.9°F-0.1°C 76% 19.6 mph NW31.5 kmh NW 22.0 mph35.4 kmh 29.68 in1005.1 mb 0.01 in0.3 mm 0.00 in0.0 mm 0.01 in0.3 mm
10:25 AM 38.7°F3.7°C 31.8°F-0.1°C 76% 18.7 mph NNW30.1 kmh NNW 22.0 mph35.4 kmh 29.68 in1005.1 mb 0.01 in0.3 mm 0.00 in0.0 mm 0.01 in0.3 mm
10:26 AM 38.7°F3.7°C 31.8°F-0.1°C 76% 20.2 mph NNW32.5 kmh NNW 22.0 mph35.4 kmh 29.68 in1005.1 mb 0.01 in0.3 mm 0.00 in0.0 mm 0.01 in0.3 mm
10:27 AM 38.8°F3.8°C 31.9°F-0.1°C 76% 20.5 mph NW33.0 kmh NW 22.0 mph35.4 kmh 29.68 in1005.1 mb 0.01 in0.3 mm 0.00 in0.0 mm 0.01 in0.3 mm
10:28 AM 38.7°F3.7°C 31.8°F-0.1°C 76% 18.4 mph NW29.6 kmh NW 22.0 mph35.4 kmh 29.68 in1005.1 mb 0.01 in0.3 mm 0.00 in0.0 mm 0.01 in0.3 mm
10:29 AM 38.7°F3.7°C 31.8°F-0.1°C 76% 19.8 mph NW31.9 kmh NW 23.0 mph37.0 kmh 29.69 in1005.4 mb 0.01 in0.3 mm 0.00 in0.0 mm 0.01 in0.3 mm
10:30 AM 38.7°F3.7°C 31.8°F-0.1°C 76% 19.8 mph NW31.9 kmh NW 23.0 mph37.0 kmh 29.69 in1005.4 mb 0.01 in0.3 mm 0.00 in0.0 mm 0.01 in0.3 mm
10:31 AM 38.7°F3.7°C 31.8°F-0.1°C 76% 20.1 mph NW32.3 kmh NW 22.0 mph35.4 kmh 29.69 in1005.4 mb 0.01 in0.3 mm 0.00 in0.0 mm 0.01 in0.3 mm
10:32 AM 38.8°F3.8°C 31.9°F-0.1°C 76% 20.0 mph NW32.2 kmh NW 22.0 mph35.4 kmh 29.69 in1005.4 mb 0.01 in0.3 mm 0.00 in0.0 mm 0.01 in0.3 mm
10:33 AM 38.8°F3.8°C 31.9°F-0.1°C 76% 20.2 mph NW32.5 kmh NW 22.0 mph35.4 kmh 29.69 in1005.4 mb 0.01 in0.3 mm 0.00 in0.0 mm 0.01 in0.3 mm
10:34 AM 38.8°F3.8°C 31.9°F-0.1°C 76% 21.5 mph NW34.6 kmh NW 24.0 mph38.6 kmh 29.69 in1005.4 mb 0.01 in0.3 mm 0.00 in0.0 mm 0.01 in0.3 mm
10:35 AM 38.8°F3.8°C 31.2°F-0.4°C 74% 22.4 mph NW36.0 kmh NW 24.0 mph38.6 kmh 29.69 in1005.4 mb 0.01 in0.3 mm 0.00 in0.0 mm 0.01 in0.3 mm
10:36 AM 38.9°F3.8°C 31.7°F-0.2°C 75% 22.0 mph NNW35.4 kmh NNW 23.0 mph37.0 kmh 29.69 in1005.4 mb 0.01 in0.3 mm 0.00 in0.0 mm 0.01 in0.3 mm
10:37 AM 38.9°F3.8°C 31.7°F-0.2°C 75% 22.0 mph NNW35.4 kmh NNW 23.0 mph37.0 kmh 29.69 in1005.4 mb 0.01 in0.3 mm 0.00 in0.0 mm 0.01 in0.3 mm
10:38 AM 38.9°F3.8°C 31.7°F-0.2°C 75% 20.2 mph NW32.5 kmh NW 21.0 mph33.8 kmh 29.69 in1005.4 mb 0.00 in0.0 mm 0.00 in0.0 mm 0.01 in0.3 mm
10:39 AM 38.9°F3.8°C 31.7°F-0.2°C 75% 20.5 mph NW33.0 kmh NW 22.0 mph35.4 kmh 29.69 in1005.4 mb 0.00 in0.0 mm 0.00 in0.0 mm 0.01 in0.3 mm
10:40 AM 38.9°F3.8°C 31.7°F-0.2°C 75% 20.4 mph NNW32.8 kmh NNW 23.0 mph37.0 kmh 29.69 in1005.4 mb 0.00 in0.0 mm 0.00 in0.0 mm 0.01 in0.3 mm
10:41 AM 38.9°F3.8°C 31.7°F-0.2°C 75% 20.2 mph NW32.5 kmh NW 23.0 mph37.0 kmh 29.70 in1005.8 mb 0.00 in0.0 mm 0.00 in0.0 mm 0.01 in0.3 mm
10:42 AM 38.8°F3.8°C 31.6°F-0.2°C 75% 21.0 mph NNW33.8 kmh NNW 24.0 mph38.6 kmh 29.70 in1005.8 mb 0.00 in0.0 mm 0.00 in0.0 mm 0.01 in0.3 mm
10:43 AM 38.8°F3.8°C 31.6°F-0.2°C 75% 20.0 mph NNW32.2 kmh NNW 21.0 mph33.8 kmh 29.70 in1005.8 mb 0.00 in0.0 mm 0.00 in0.0 mm 0.01 in0.3 mm
10:44 AM 38.8°F3.8°C 31.6°F-0.2°C 75% 21.3 mph NW34.3 kmh NW 23.0 mph37.0 kmh 29.70 in1005.8 mb 0.00 in0.0 mm 0.00 in0.0 mm 0.01 in0.3 mm
10:45 AM 38.8°F3.8°C 31.6°F-0.2°C 75% 19.6 mph NW31.5 kmh NW 23.0 mph37.0 kmh 29.70 in1005.8 mb 0.00 in0.0 mm 0.00 in0.0 mm 0.01 in0.3 mm
10:46 AM 38.8°F3.8°C 31.6°F-0.2°C 75% 19.9 mph NW32.0 kmh NW 22.0 mph35.4 kmh 29.70 in1005.8 mb 0.00 in0.0 mm 0.00 in0.0 mm 0.01 in0.3 mm
10:47 AM 38.8°F3.8°C 31.6°F-0.2°C 75% 20.5 mph NW33.0 kmh NW 23.0 mph37.0 kmh 29.70 in1005.8 mb 0.00 in0.0 mm 0.00 in0.0 mm 0.01 in0.3 mm
10:48 AM 38.8°F3.8°C 31.6°F-0.2°C 75% 20.9 mph NW33.6 kmh NW 23.0 mph37.0 kmh 29.70 in1005.8 mb 0.00 in0.0 mm 0.00 in0.0 mm 0.01 in0.3 mm
10:49 AM 38.9°F3.8°C 31.7°F-0.2°C 75% 19.9 mph NW32.0 kmh NW 23.0 mph37.0 kmh 29.70 in1005.8 mb 0.00 in0.0 mm 0.00 in0.0 mm 0.01 in0.3 mm
10:50 AM 38.9°F3.8°C 31.7°F-0.2°C 75% 20.6 mph NW33.2 kmh NW 23.0 mph37.0 kmh 29.70 in1005.8 mb 0.00 in0.0 mm 0.00 in0.0 mm 0.01 in0.3 mm
10:51 AM 39.0°F3.9°C 31.8°F-0.1°C 75% 18.7 mph NW30.1 kmh NW 23.0 mph37.0 kmh 29.70 in1005.8 mb 0.00 in0.0 mm 0.00 in0.0 mm 0.01 in0.3 mm
10:52 AM 38.9°F3.8°C 31.7°F-0.2°C 75% 18.8 mph NW30.3 kmh NW 22.0 mph35.4 kmh 29.70 in1005.8 mb 0.00 in0.0 mm 0.00 in0.0 mm 0.01 in0.3 mm
10:53 AM 38.9°F3.8°C 31.7°F-0.2°C 75% 19.8 mph NW31.9 kmh NW 24.0 mph38.6 kmh 29.71 in1006.1 mb 0.00 in0.0 mm 0.00 in0.0 mm 0.01 in0.3 mm
10:54 AM 38.9°F3.8°C 31.7°F-0.2°C 75% 21.0 mph NW33.8 kmh NW 24.0 mph38.6 kmh 29.71 in1006.1 mb 0.00 in0.0 mm 0.00 in0.0 mm 0.01 in0.3 mm
10:55 AM 39.0°F3.9°C 31.8°F-0.1°C 75% 19.5 mph NW31.4 kmh NW 23.0 mph37.0 kmh 29.71 in1006.1 mb 0.00 in0.0 mm 0.00 in0.0 mm 0.01 in0.3 mm
10:56 AM 39.0°F3.9°C 31.8°F-0.1°C 75% 20.5 mph NW33.0 kmh NW 23.0 mph37.0 kmh 29.71 in1006.1 mb 0.00 in0.0 mm 0.00 in0.0 mm 0.01 in0.3 mm
10:57 AM 39.0°F3.9°C 31.4°F-0.3°C 74% 20.9 mph NW33.6 kmh NW 23.0 mph37.0 kmh 29.71 in1006.1 mb 0.00 in0.0 mm 0.00 in0.0 mm 0.01 in0.3 mm
10:58 AM 39.1°F3.9°C 31.5°F-0.3°C 74% 20.5 mph NW33.0 kmh NW 23.0 mph37.0 kmh 29.71 in1006.1 mb 0.00 in0.0 mm 0.00 in0.0 mm 0.01 in0.3 mm
10:59 AM 39.0°F3.9°C 31.4°F-0.3°C 74% 20.9 mph NW33.6 kmh NW 23.0 mph37.0 kmh 29.71 in1006.1 mb 0.00 in0.0 mm 0.00 in0.0 mm 0.01 in0.3 mm
11:00 AM 39.0°F3.9°C 31.4°F-0.3°C 74% 20.5 mph NW33.0 kmh NW 24.0 mph38.6 kmh 29.71 in1006.1 mb 0.00 in0.0 mm 0.00 in0.0 mm 0.01 in0.3 mm
11:01 AM 39.1°F3.9°C 31.5°F-0.3°C 74% 21.7 mph NW34.9 kmh NW 24.0 mph38.6 kmh 29.71 in1006.1 mb 0.00 in0.0 mm 0.00 in0.0 mm 0.01 in0.3 mm
11:02 AM 39.1°F3.9°C 31.5°F-0.3°C 74% 19.6 mph NW31.5 kmh NW 24.0 mph38.6 kmh 29.71 in1006.1 mb 0.00 in0.0 mm 0.00 in0.0 mm 0.01 in0.3 mm
11:03 AM 39.2°F4.0°C 31.6°F-0.2°C 74% 21.2 mph NW34.1 kmh NW 23.0 mph37.0 kmh 29.72 in1006.4 mb 0.00 in0.0 mm 0.00 in0.0 mm 0.01 in0.3 mm
11:04 AM 39.1°F3.9°C 31.5°F-0.3°C 74% 19.0 mph NW30.6 kmh NW 23.0 mph37.0 kmh 29.72 in1006.4 mb 0.00 in0.0 mm 0.00 in0.0 mm 0.01 in0.3 mm
11:05 AM 39.1°F3.9°C 31.5°F-0.3°C 74% 21.0 mph NW33.8 kmh NW 23.0 mph37.0 kmh 29.72 in1006.4 mb 0.00 in0.0 mm 0.00 in0.0 mm 0.01 in0.3 mm
11:06 AM 39.2°F4.0°C 31.6°F-0.2°C 74% 21.0 mph NW33.8 kmh NW 24.0 mph38.6 kmh 29.72 in1006.4 mb 0.00 in0.0 mm 0.00 in0.0 mm 0.01 in0.3 mm
11:07 AM 39.1°F3.9°C 31.5°F-0.3°C 74% 19.7 mph NW31.7 kmh NW 23.0 mph37.0 kmh 29.72 in1006.4 mb 0.00 in0.0 mm 0.00 in0.0 mm 0.01 in0.3 mm
11:08 AM 39.1°F3.9°C 31.5°F-0.3°C 74% 20.4 mph NW32.8 kmh NW 23.0 mph37.0 kmh 29.72 in1006.4 mb 0.00 in0.0 mm 0.00 in0.0 mm 0.01 in0.3 mm
11:09 AM 39.1°F3.9°C 31.5°F-0.3°C 74% 18.2 mph NW29.3 kmh NW 23.0 mph37.0 kmh 29.72 in1006.4 mb 0.00 in0.0 mm 0.00 in0.0 mm 0.01 in0.3 mm
11:10 AM 39.1°F3.9°C 31.5°F-0.3°C 74% 18.9 mph NW30.4 kmh NW 21.0 mph33.8 kmh 29.72 in1006.4 mb 0.00 in0.0 mm 0.00 in0.0 mm 0.01 in0.3 mm
11:11 AM 39.1°F3.9°C 31.5°F-0.3°C 74% 20.8 mph NW33.5 kmh NW 23.0 mph37.0 kmh 29.72 in1006.4 mb 0.00 in0.0 mm 0.00 in0.0 mm 0.01 in0.3 mm
11:12 AM 39.2°F4.0°C 31.6°F-0.2°C 74% 19.6 mph NW31.5 kmh NW 23.0 mph37.0 kmh 29.72 in1006.4 mb 0.00 in0.0 mm 0.00 in0.0 mm 0.01 in0.3 mm
11:13 AM 39.2°F4.0°C 31.6°F-0.2°C 74% 18.5 mph NW29.8 kmh NW 22.0 mph35.4 kmh 29.73 in1006.8 mb 0.00 in0.0 mm 0.00 in0.0 mm 0.01 in0.3 mm
11:14 AM 39.2°F4.0°C 32.0°F0.0°C 75% 21.0 mph NW33.8 kmh NW 23.0 mph37.0 kmh 29.73 in1006.8 mb 0.00 in0.0 mm 0.00 in0.0 mm 0.01 in0.3 mm
11:15 AM 39.2°F4.0°C 31.6°F-0.2°C 74% 20.2 mph NW32.5 kmh NW 23.0 mph37.0 kmh 29.73 in1006.8 mb 0.00 in0.0 mm 0.00 in0.0 mm 0.01 in0.3 mm
11:16 AM 39.2°F4.0°C 32.0°F0.0°C 75% 21.2 mph NW34.1 kmh NW 24.0 mph38.6 kmh 29.73 in1006.8 mb 0.00 in0.0 mm 0.00 in0.0 mm 0.01 in0.3 mm
11:17 AM 39.2°F4.0°C 32.0°F0.0°C 75% 20.6 mph NW33.2 kmh NW 24.0 mph38.6 kmh 29.73 in1006.8 mb 0.00 in0.0 mm 0.00 in0.0 mm 0.01 in0.3 mm
11:18 AM 39.2°F4.0°C 32.0°F0.0°C 75% 21.4 mph NW34.4 kmh NW 25.0 mph40.2 kmh 29.73 in1006.8 mb 0.00 in0.0 mm 0.00 in0.0 mm 0.01 in0.3 mm
11:19 AM 39.3°F4.1°C 32.1°F0.1°C 75% 22.5 mph NW36.2 kmh NW 25.0 mph40.2 kmh 29.73 in1006.8 mb 0.00 in0.0 mm 0.00 in0.0 mm 0.01 in0.3 mm
11:20 AM 39.3°F4.1°C 32.1°F0.1°C 75% 21.5 mph NW34.6 kmh NW 25.0 mph40.2 kmh 29.73 in1006.8 mb 0.00 in0.0 mm 0.00 in0.0 mm 0.01 in0.3 mm
11:21 AM 39.3°F4.1°C 31.7°F-0.2°C 74% 22.2 mph NW35.7 kmh NW 26.0 mph41.8 kmh 29.73 in1006.8 mb 0.00 in0.0 mm 0.00 in0.0 mm 0.01 in0.3 mm
11:22 AM 39.3°F4.1°C 31.7°F-0.2°C 74% 21.6 mph NW34.8 kmh NW 26.0 mph41.8 kmh 29.74 in1007.1 mb 0.00 in0.0 mm 0.00 in0.0 mm 0.01 in0.3 mm
11:23 AM 39.3°F4.1°C 32.1°F0.1°C 75% 20.1 mph NW32.3 kmh NW 23.0 mph37.0 kmh 29.74 in1007.1 mb 0.00 in0.0 mm 0.00 in0.0 mm 0.01 in0.3 mm
11:24 AM 39.3°F4.1°C 32.1°F0.1°C 75% 20.5 mph NW33.0 kmh NW 24.0 mph38.6 kmh 29.74 in1007.1 mb 0.00 in0.0 mm 0.00 in0.0 mm 0.01 in0.3 mm
11:25 AM 39.3°F4.1°C 32.1°F0.1°C 75% 20.0 mph NW32.2 kmh NW 24.0 mph38.6 kmh 29.74 in1007.1 mb 0.00 in0.0 mm 0.00 in0.0 mm 0.01 in0.3 mm
11:26 AM 39.3°F4.1°C 32.1°F0.1°C 75% 19.5 mph NW31.4 kmh NW 22.0 mph35.4 kmh 29.74 in1007.1 mb 0.00 in0.0 mm 0.00 in0.0 mm 0.01 in0.3 mm
11:27 AM 39.2°F4.0°C 32.0°F0.0°C 75% 22.8 mph NW36.7 kmh NW 26.0 mph41.8 kmh 29.74 in1007.1 mb 0.00 in0.0 mm 0.00 in0.0 mm 0.01 in0.3 mm
11:28 AM 39.3°F4.1°C 32.1°F0.1°C 75% 21.6 mph NW34.8 kmh NW 26.0 mph41.8 kmh 29.74 in1007.1 mb 0.00 in0.0 mm 0.00 in0.0 mm 0.01 in0.3 mm
11:29 AM 39.3°F4.1°C 31.7°F-0.2°C 74% 22.0 mph NW35.4 kmh NW 25.0 mph40.2 kmh 29.74 in1007.1 mb 0.00 in0.0 mm 0.00 in0.0 mm 0.01 in0.3 mm
11:30 AM 39.3°F4.1°C 32.1°F0.1°C 75% 20.0 mph NNW32.2 kmh NNW 23.0 mph37.0 kmh 29.74 in1007.1 mb 0.00 in0.0 mm 0.00 in0.0 mm 0.01 in0.3 mm
11:31 AM 39.3°F4.1°C 32.1°F0.1°C 75% 22.0 mph NW35.4 kmh NW 24.0 mph38.6 kmh 29.74 in1007.1 mb 0.00 in0.0 mm 0.00 in0.0 mm 0.01 in0.3 mm
11:32 AM 39.3°F4.1°C 31.7°F-0.2°C 74% 20.9 mph NW33.6 kmh NW 23.0 mph37.0 kmh 29.74 in1007.1 mb 0.00 in0.0 mm 0.00 in0.0 mm 0.01 in0.3 mm
11:33 AM 39.3°F4.1°C 32.1°F0.1°C 75% 21.3 mph NW34.3 kmh NW 24.0 mph38.6 kmh 29.74 in1007.1 mb 0.00 in0.0 mm 0.00 in0.0 mm 0.01 in0.3 mm
11:34 AM 39.3°F4.1°C 32.1°F0.1°C 75% 20.8 mph NW33.5 kmh NW 24.0 mph38.6 kmh 29.75 in1007.5 mb 0.00 in0.0 mm 0.00 in0.0 mm 0.01 in0.3 mm
11:35 AM 39.2°F4.0°C 32.0°F0.0°C 75% 20.6 mph NW33.2 kmh NW 24.0 mph38.6 kmh 29.75 in1007.5 mb 0.00 in0.0 mm 0.00 in0.0 mm 0.01 in0.3 mm
11:36 AM 39.3°F4.1°C 32.1°F0.1°C 75% 24.6 mph NW39.6 kmh NW 27.0 mph43.5 kmh 29.75 in1007.5 mb 0.00 in0.0 mm 0.00 in0.0 mm 0.01 in0.3 mm
11:37 AM 39.3°F4.1°C 31.7°F-0.2°C 74% 23.5 mph NW37.8 kmh NW 27.0 mph43.5 kmh 29.75 in1007.5 mb 0.00 in0.0 mm 0.00 in0.0 mm 0.01 in0.3 mm
11:38 AM 39.3°F4.1°C 31.7°F-0.2°C 74% 25.0 mph NW40.2 kmh NW 27.0 mph43.5 kmh 29.75 in1007.5 mb 0.00 in0.0 mm 0.00 in0.0 mm 0.01 in0.3 mm
11:39 AM 39.3°F4.1°C 31.7°F-0.2°C 74% 23.8 mph NW38.3 kmh NW 27.0 mph43.5 kmh 29.75 in1007.5 mb 0.00 in0.0 mm 0.00 in0.0 mm 0.01 in0.3 mm
11:40 AM 39.3°F4.1°C 31.7°F-0.2°C 74% 24.3 mph NW39.1 kmh NW 27.0 mph43.5 kmh 29.75 in1007.5 mb 0.00 in0.0 mm 0.00 in0.0 mm 0.01 in0.3 mm
11:41 AM 39.3°F4.1°C 31.4°F-0.3°C 73% 24.9 mph NW40.1 kmh NW 28.0 mph45.1 kmh 29.75 in1007.5 mb 0.00 in0.0 mm 0.00 in0.0 mm 0.01 in0.3 mm
11:42 AM 39.3°F4.1°C 31.4°F-0.3°C 73% 23.6 mph NW38.0 kmh NW 28.0 mph45.1 kmh 29.75 in1007.5 mb 0.00 in0.0 mm 0.00 in0.0 mm 0.01 in0.3 mm
11:43 AM 39.3°F4.1°C 31.7°F-0.2°C 74% 20.8 mph NW33.5 kmh NW 27.0 mph43.5 kmh 29.75 in1007.5 mb 0.00 in0.0 mm 0.00 in0.0 mm 0.01 in0.3 mm
11:44 AM 39.2°F4.0°C 31.6°F-0.2°C 74% 23.5 mph NW37.8 kmh NW 27.0 mph43.5 kmh 29.75 in1007.5 mb 0.00 in0.0 mm 0.00 in0.0 mm 0.01 in0.3 mm
11:45 AM 39.2°F4.0°C 31.6°F-0.2°C 74% 21.7 mph NW34.9 kmh NW 27.0 mph43.5 kmh 29.75 in1007.5 mb 0.00 in0.0 mm 0.00 in0.0 mm 0.01 in0.3 mm
11:46 AM 39.2°F4.0°C 31.6°F-0.2°C 74% 22.4 mph NW36.0 kmh NW 25.0 mph40.2 kmh 29.75 in1007.5 mb 0.00 in0.0 mm 0.00 in0.0 mm 0.01 in0.3 mm
11:47 AM 39.1°F3.9°C 31.5°F-0.3°C 74% 23.0 mph NW37.0 kmh NW 25.0 mph40.2 kmh 29.76 in1007.8 mb 0.00 in0.0 mm 0.00 in0.0 mm 0.01 in0.3 mm
11:48 AM 39.1°F3.9°C 31.5°F-0.3°C 74% 23.0 mph NW37.0 kmh NW 25.0 mph40.2 kmh 29.76 in1007.8 mb 0.00 in0.0 mm 0.00 in0.0 mm 0.01 in0.3 mm
11:49 AM 39.1°F3.9°C 31.5°F-0.3°C 74% 21.1 mph NW34.0 kmh NW 25.0 mph40.2 kmh 29.76 in1007.8 mb 0.00 in0.0 mm 0.00 in0.0 mm 0.01 in0.3 mm
11:50 AM 39.1°F3.9°C 31.5°F-0.3°C 74% 20.3 mph NW32.7 kmh NW 23.0 mph37.0 kmh 29.76 in1007.8 mb 0.00 in0.0 mm 0.00 in0.0 mm 0.01 in0.3 mm
11:51 AM 39.0°F3.9°C 31.4°F-0.3°C 74% 21.6 mph NW34.8 kmh NW 24.0 mph38.6 kmh 29.76 in1007.8 mb 0.00 in0.0 mm 0.00 in0.0 mm 0.01 in0.3 mm
11:52 AM 39.0°F3.9°C 31.4°F-0.3°C 74% 21.5 mph NW34.6 kmh NW 24.0 mph38.6 kmh 29.76 in1007.8 mb 0.00 in0.0 mm 0.00 in0.0 mm 0.01 in0.3 mm
11:53 AM 39.1°F3.9°C 31.5°F-0.3°C 74% 21.0 mph NW33.8 kmh NW 24.0 mph38.6 kmh 29.76 in1007.8 mb 0.00 in0.0 mm 0.00 in0.0 mm 0.01 in0.3 mm
11:54 AM 39.0°F3.9°C 31.4°F-0.3°C 74% 21.0 mph NW33.8 kmh NW 24.0 mph38.6 kmh 29.76 in1007.8 mb 0.00 in0.0 mm 0.00 in0.0 mm 0.01 in0.3 mm
11:55 AM 39.0°F3.9°C 31.4°F-0.3°C 74% 21.0 mph NW33.8 kmh NW 23.0 mph37.0 kmh 29.77 in1008.1 mb 0.00 in0.0 mm 0.00 in0.0 mm 0.01 in0.3 mm
11:56 AM 39.0°F3.9°C 31.4°F-0.3°C 74% 22.4 mph NW36.0 kmh NW 23.0 mph37.0 kmh 29.77 in1008.1 mb 0.00 in0.0 mm 0.00 in0.0 mm 0.01 in0.3 mm
11:57 AM 39.0°F3.9°C 31.4°F-0.3°C 74% 19.1 mph NW30.7 kmh NW 23.0 mph37.0 kmh 29.77 in1008.1 mb 0.00 in0.0 mm 0.00 in0.0 mm 0.01 in0.3 mm
11:58 AM 39.0°F3.9°C 31.4°F-0.3°C 74% 21.8 mph NW35.1 kmh NW 25.0 mph40.2 kmh 29.77 in1008.1 mb 0.00 in0.0 mm 0.00 in0.0 mm 0.01 in0.3 mm
11:59 AM 39.0°F3.9°C 31.1°F-0.5°C 73% 21.3 mph NW34.3 kmh NW 25.0 mph40.2 kmh 29.77 in1008.1 mb 0.00 in0.0 mm 0.00 in0.0 mm 0.01 in0.3 mm
12:00 PM 39.1°F3.9°C 31.5°F-0.3°C 74% 20.2 mph NW32.5 kmh NW 24.0 mph38.6 kmh 29.77 in1008.1 mb 0.00 in0.0 mm 0.00 in0.0 mm 0.01 in0.3 mm
12:01 PM 39.0°F3.9°C 31.4°F-0.3°C 74% 19.4 mph NW31.2 kmh NW 22.0 mph35.4 kmh 29.77 in1008.1 mb 0.00 in0.0 mm 0.00 in0.0 mm 0.01 in0.3 mm
12:02 PM 39.0°F3.9°C 31.4°F-0.3°C 74% 19.6 mph NW31.5 kmh NW 22.0 mph35.4 kmh 29.77 in1008.1 mb 0.00 in0.0 mm 0.00 in0.0 mm 0.01 in0.3 mm
12:03 PM 39.0°F3.9°C 31.4°F-0.3°C 74% 20.8 mph NW33.5 kmh NW 23.0 mph37.0 kmh 29.77 in1008.1 mb 0.00 in0.0 mm 0.00 in0.0 mm 0.01 in0.3 mm
12:04 PM 39.0°F3.9°C 31.4°F-0.3°C 74% 20.0 mph NW32.2 kmh NW 23.0 mph37.0 kmh 29.77 in1008.1 mb 0.00 in0.0 mm 0.00 in0.0 mm 0.01 in0.3 mm
12:05 PM 39.0°F3.9°C 31.4°F-0.3°C 74% 19.2 mph NNW30.9 kmh NNW 23.0 mph37.0 kmh 29.77 in1008.1 mb 0.00 in0.0 mm 0.00 in0.0 mm 0.01 in0.3 mm
12:06 PM 39.0°F3.9°C 31.4°F-0.3°C 74% 19.2 mph NW30.9 kmh NW 22.0 mph35.4 kmh 29.77 in1008.1 mb 0.00 in0.0 mm 0.00 in0.0 mm 0.01 in0.3 mm
12:07 PM 39.0°F3.9°C 31.4°F-0.3°C 74% 20.4 mph NNW32.8 kmh NNW 24.0 mph38.6 kmh 29.77 in1008.1 mb 0.00 in0.0 mm 0.00 in0.0 mm 0.01 in0.3 mm
12:08 PM 39.0°F3.9°C 31.1°F-0.5°C 73% 21.4 mph NNW34.4 kmh NNW 24.0 mph38.6 kmh 29.78 in1008.5 mb 0.00 in0.0 mm 0.00 in0.0 mm 0.01 in0.3 mm
12:09 PM 39.0°F3.9°C 31.1°F-0.5°C 73% 19.8 mph NNW31.9 kmh NNW 23.0 mph37.0 kmh 29.78 in1008.5 mb 0.00 in0.0 mm 0.00 in0.0 mm 0.01 in0.3 mm
12:10 PM 39.0°F3.9°C 31.1°F-0.5°C 73% 20.0 mph NNW32.2 kmh NNW 22.0 mph35.4 kmh 29.78 in1008.5 mb 0.00 in0.0 mm 0.00 in0.0 mm 0.01 in0.3 mm
12:11 PM 39.0°F3.9°C 30.8°F-0.7°C 72% 20.2 mph NNW32.5 kmh NNW 23.0 mph37.0 kmh 29.78 in1008.5 mb 0.00 in0.0 mm 0.00 in0.0 mm 0.01 in0.3 mm
12:12 PM 39.0°F3.9°C 31.1°F-0.5°C 73% 19.4 mph NNW31.2 kmh NNW 23.0 mph37.0 kmh 29.78 in1008.5 mb 0.00 in0.0 mm 0.00 in0.0 mm 0.01 in0.3 mm
12:13 PM 39.0°F3.9°C 31.1°F-0.5°C 73% 19.0 mph NNW30.6 kmh NNW 22.0 mph35.4 kmh 29.78 in1008.5 mb 0.00 in0.0 mm 0.00 in0.0 mm 0.01 in0.3 mm
12:14 PM 39.0°F3.9°C 31.1°F-0.5°C 73% 20.3 mph NNW32.7 kmh NNW 22.0 mph35.4 kmh 29.78 in1008.5 mb 0.00 in0.0 mm 0.00 in0.0 mm 0.01 in0.3 mm
12:15 PM 39.0°F3.9°C 31.1°F-0.5°C 73% 20.0 mph NNW32.2 kmh NNW 22.0 mph35.4 kmh 29.78 in1008.5 mb 0.00 in0.0 mm 0.00 in0.0 mm 0.01 in0.3 mm
12:16 PM 39.0°F3.9°C 31.1°F-0.5°C 73% 19.5 mph NNW31.4 kmh NNW 22.0 mph35.4 kmh 29.78 in1008.5 mb 0.00 in0.0 mm 0.00 in0.0 mm 0.01 in0.3 mm
12:17 PM 39.0°F3.9°C 31.1°F-0.5°C 73% 19.7 mph NNW31.7 kmh NNW 23.0 mph37.0 kmh 29.78 in1008.5 mb 0.00 in0.0 mm 0.00 in0.0 mm 0.01 in0.3 mm
12:18 PM 39.0°F3.9°C 31.1°F-0.5°C 73% 20.0 mph NNW32.2 kmh NNW 23.0 mph37.0 kmh 29.78 in1008.5 mb 0.00 in0.0 mm 0.00 in0.0 mm 0.01 in0.3 mm
12:19 PM 39.0°F3.9°C 31.1°F-0.5°C 73% 19.0 mph NNW30.6 kmh NNW 21.0 mph33.8 kmh 29.79 in1008.8 mb 0.00 in0.0 mm 0.00 in0.0 mm 0.01 in0.3 mm
12:20 PM 38.9°F3.8°C 31.3°F-0.4°C 74% 20.0 mph NNW32.2 kmh NNW 23.0 mph37.0 kmh 29.79 in1008.8 mb 0.00 in0.0 mm 0.00 in0.0 mm 0.01 in0.3 mm
12:21 PM 38.9°F3.8°C 31.0°F-0.6°C 73% 19.6 mph NNW31.5 kmh NNW 21.0 mph33.8 kmh 29.79 in1008.8 mb 0.00 in0.0 mm 0.00 in0.0 mm 0.01 in0.3 mm
12:22 PM 38.9°F3.8°C 31.0°F-0.6°C 73% 20.1 mph NNW32.3 kmh NNW 23.0 mph37.0 kmh 29.79 in1008.8 mb 0.00 in0.0 mm 0.00 in0.0 mm 0.01 in0.3 mm
12:23 PM 38.9°F3.8°C 31.3°F-0.4°C 74% 19.9 mph NNW32.0 kmh NNW 23.0 mph37.0 kmh 29.79 in1008.8 mb 0.00 in0.0 mm 0.00 in0.0 mm 0.01 in0.3 mm
12:24 PM 38.9°F3.8°C 31.3°F-0.4°C 74% 20.0 mph NW32.2 kmh NW 23.0 mph37.0 kmh 29.79 in1008.8 mb 0.00 in0.0 mm 0.00 in0.0 mm 0.01 in0.3 mm
12:25 PM 39.0°F3.9°C 31.4°F-0.3°C 74% 19.3 mph NNW31.1 kmh NNW 23.0 mph37.0 kmh 29.79 in1008.8 mb 0.00 in0.0 mm 0.00 in0.0 mm 0.01 in0.3 mm
12:26 PM 38.9°F3.8°C 31.3°F-0.4°C 74% 19.4 mph NNW31.2 kmh NNW 22.0 mph35.4 kmh 29.79 in1008.8 mb 0.00 in0.0 mm 0.00 in0.0 mm 0.01 in0.3 mm
12:27 PM 38.9°F3.8°C 31.3°F-0.4°C 74% 20.4 mph NNW32.8 kmh NNW 22.0 mph35.4 kmh 29.79 in1008.8 mb 0.00 in0.0 mm 0.00 in0.0 mm 0.01 in0.3 mm
12:28 PM 38.9°F3.8°C 31.3°F-0.4°C 74% 19.9 mph NNW32.0 kmh NNW 22.0 mph35.4 kmh 29.79 in1008.8 mb 0.00 in0.0 mm 0.00 in0.0 mm 0.01 in0.3 mm
12:29 PM 38.9°F3.8°C 31.3°F-0.4°C 74% 19.7 mph NNW31.7 kmh NNW 22.0 mph35.4 kmh 29.79 in1008.8 mb 0.00 in0.0 mm 0.00 in0.0 mm 0.01 in0.3 mm
12:30 PM 38.9°F3.8°C 31.3°F-0.4°C 74% 21.0 mph NNW33.8 kmh NNW 23.0 mph37.0 kmh 29.79 in1008.8 mb 0.00 in0.0 mm 0.00 in0.0 mm 0.01 in0.3 mm
12:31 PM 38.9°F3.8°C 31.3°F-0.4°C 74% 20.9 mph NNW33.6 kmh NNW 23.0 mph37.0 kmh 29.79 in1008.8 mb 0.00 in0.0 mm 0.00 in0.0 mm 0.01 in0.3 mm
12:32 PM 39.0°F3.9°C 31.4°F-0.3°C 74% 19.7 mph NW31.7 kmh NW 23.0 mph37.0 kmh 29.79 in1008.8 mb 0.00 in0.0 mm 0.00 in0.0 mm 0.01 in0.3 mm
12:33 PM 38.9°F3.8°C 31.3°F-0.4°C 74% 20.2 mph NW32.5 kmh NW 23.0 mph37.0 kmh 29.79 in1008.8 mb 0.00 in0.0 mm 0.00 in0.0 mm 0.01 in0.3 mm
12:34 PM 39.0°F3.9°C 31.4°F-0.3°C 74% 20.3 mph NW32.7 kmh NW 22.0 mph35.4 kmh 29.79 in1008.8 mb 0.00 in0.0 mm 0.00 in0.0 mm 0.01 in0.3 mm
12:35 PM 39.0°F3.9°C 31.4°F-0.3°C 74% 21.6 mph NW34.8 kmh NW 25.0 mph40.2 kmh 29.79 in1008.8 mb 0.00 in0.0 mm 0.00 in0.0 mm 0.01 in0.3 mm
12:36 PM 39.0°F3.9°C 31.1°F-0.5°C 73% 20.9 mph NW33.6 kmh NW 25.0 mph40.2 kmh 29.79 in1008.8 mb 0.00 in0.0 mm 0.00 in0.0 mm 0.01 in0.3 mm
12:37 PM 39.0°F3.9°C 31.1°F-0.5°C 73% 20.9 mph NNW33.6 kmh NNW 23.0 mph37.0 kmh 29.79 in1008.8 mb 0.00 in0.0 mm 0.00 in0.0 mm 0.01 in0.3 mm
12:38 PM 39.1°F3.9°C 31.2°F-0.4°C 73% 19.6 mph NW31.5 kmh NW 23.0 mph37.0 kmh 29.79 in1008.8 mb 0.00 in0.0 mm 0.00 in0.0 mm 0.01 in0.3 mm
12:39 PM 39.0°F3.9°C 31.1°F-0.5°C 73% 20.0 mph NW32.2 kmh NW 22.0 mph35.4 kmh 29.80 in1009.1 mb 0.00 in0.0 mm 0.00 in0.0 mm 0.01 in0.3 mm
12:40 PM 39.0°F3.9°C 31.1°F-0.5°C 73% 17.8 mph NW28.6 kmh NW 22.0 mph35.4 kmh 29.80 in1009.1 mb 0.00 in0.0 mm 0.00 in0.0 mm 0.01 in0.3 mm
12:41 PM 39.0°F3.9°C 31.1°F-0.5°C 73% 22.0 mph NW35.4 kmh NW 25.0 mph40.2 kmh 29.80 in1009.1 mb 0.00 in0.0 mm 0.00 in0.0 mm 0.01 in0.3 mm
12:42 PM 39.0°F3.9°C 31.1°F-0.5°C 73% 20.9 mph NW33.6 kmh NW 25.0 mph40.2 kmh 29.80 in1009.1 mb 0.00 in0.0 mm 0.00 in0.0 mm 0.01 in0.3 mm
12:43 PM 39.0°F3.9°C 31.1°F-0.5°C 73% 21.1 mph NW34.0 kmh NW 23.0 mph37.0 kmh 29.80 in1009.1 mb 0.00 in0.0 mm 0.00 in0.0 mm 0.01 in0.3 mm
12:44 PM 39.1°F3.9°C 31.2°F-0.4°C 73% 19.8 mph NNW31.9 kmh NNW 23.0 mph37.0 kmh 29.80 in1009.1 mb 0.00 in0.0 mm 0.00 in0.0 mm 0.01 in0.3 mm
12:45 PM 39.0°F3.9°C 31.4°F-0.3°C 74% 19.7 mph NW31.7 kmh NW 22.0 mph35.4 kmh 29.80 in1009.1 mb 0.00 in0.0 mm 0.00 in0.0 mm 0.01 in0.3 mm
12:46 PM 39.0°F3.9°C 31.4°F-0.3°C 74% 19.5 mph NW31.4 kmh NW 22.0 mph35.4 kmh 29.80 in1009.1 mb 0.00 in0.0 mm 0.00 in0.0 mm 0.01 in0.3 mm
12:47 PM 39.0°F3.9°C 31.4°F-0.3°C 74% 19.0 mph NW30.6 kmh NW 22.0 mph35.4 kmh 29.80 in1009.1 mb 0.00 in0.0 mm 0.00 in0.0 mm 0.01 in0.3 mm
12:48 PM 38.9°F3.8°C 31.3°F-0.4°C 74% 19.2 mph NW30.9 kmh NW 23.0 mph37.0 kmh 29.80 in1009.1 mb 0.00 in0.0 mm 0.00 in0.0 mm 0.01 in0.3 mm
12:49 PM 38.9°F3.8°C 31.3°F-0.4°C 74% 21.7 mph NW34.9 kmh NW 25.0 mph40.2 kmh 29.80 in1009.1 mb 0.00 in0.0 mm 0.00 in0.0 mm 0.01 in0.3 mm
12:50 PM 38.9°F3.8°C 31.0°F-0.6°C 73% 21.2 mph NW34.1 kmh NW 25.0 mph40.2 kmh 29.80 in1009.1 mb 0.00 in0.0 mm 0.00 in0.0 mm 0.01 in0.3 mm
12:51 PM 38.9°F3.8°C 31.0°F-0.6°C 73% 20.0 mph NW32.2 kmh NW 26.0 mph41.8 kmh 29.80 in1009.1 mb 0.00 in0.0 mm 0.00 in0.0 mm 0.01 in0.3 mm
12:52 PM 38.9°F3.8°C 31.0°F-0.6°C 73% 22.0 mph NW35.4 kmh NW 24.0 mph38.6 kmh 29.80 in1009.1 mb 0.00 in0.0 mm 0.00 in0.0 mm 0.01 in0.3 mm
12:53 PM 38.9°F3.8°C 31.0°F-0.6°C 73% 22.0 mph NNW35.4 kmh NNW 25.0 mph40.2 kmh 29.80 in1009.1 mb 0.00 in0.0 mm 0.00 in0.0 mm 0.01 in0.3 mm
12:54 PM 38.9°F3.8°C 31.0°F-0.6°C 73% 19.5 mph NW31.4 kmh NW 22.0 mph35.4 kmh 29.80 in1009.1 mb 0.00 in0.0 mm 0.00 in0.0 mm 0.01 in0.3 mm
12:55 PM 38.9°F3.8°C 31.0°F-0.6°C 73% 21.1 mph NW34.0 kmh NW 24.0 mph38.6 kmh 29.80 in1009.1 mb 0.00 in0.0 mm 0.00 in0.0 mm 0.01 in0.3 mm
12:56 PM 38.9°F3.8°C 31.0°F-0.6°C 73% 20.0 mph NNW32.2 kmh NNW 21.0 mph33.8 kmh 29.80 in1009.1 mb 0.00 in0.0 mm 0.00 in0.0 mm 0.01 in0.3 mm
12:57 PM 38.9°F3.8°C 31.0°F-0.6°C 73% 20.0 mph NW32.2 kmh NW 23.0 mph37.0 kmh 29.80 in1009.1 mb 0.00 in0.0 mm 0.00 in0.0 mm 0.01 in0.3 mm
12:58 PM 38.9°F3.8°C 31.0°F-0.6°C 73% 19.7 mph NW31.7 kmh NW 23.0 mph37.0 kmh 29.80 in1009.1 mb 0.00 in0.0 mm 0.00 in0.0 mm 0.01 in0.3 mm
12:59 PM 38.9°F3.8°C 31.0°F-0.6°C 73% 20.0 mph NW32.2 kmh NW 23.0 mph37.0 kmh 29.80 in1009.1 mb 0.00 in0.0 mm 0.00 in0.0 mm 0.01 in0.3 mm
01:00 PM 38.9°F3.8°C 31.0°F-0.6°C 73% 18.3 mph NW29.5 kmh NW 22.0 mph35.4 kmh 29.80 in1009.1 mb 0.00 in0.0 mm 0.00 in0.0 mm 0.01 in0.3 mm
01:01 PM 38.9°F3.8°C 31.3°F-0.4°C 74% 17.7 mph NW28.5 kmh NW 20.0 mph32.2 kmh 29.80 in1009.1 mb 0.00 in0.0 mm 0.00 in0.0 mm 0.01 in0.3 mm
01:02 PM 38.8°F3.8°C 30.9°F-0.6°C 73% 20.2 mph NW32.5 kmh NW 23.0 mph37.0 kmh 29.80 in1009.1 mb 0.00 in0.0 mm 0.00 in0.0 mm 0.01 in0.3 mm
01:03 PM 38.9°F3.8°C 31.0°F-0.6°C 73% 20.5 mph NNW33.0 kmh NNW 23.0 mph37.0 kmh 29.81 in1009.5 mb 0.00 in0.0 mm 0.00 in0.0 mm 0.01 in0.3 mm
01:04 PM 38.9°F3.8°C 31.3°F-0.4°C 74% 19.2 mph NW30.9 kmh NW 22.0 mph35.4 kmh 29.81 in1009.5 mb 0.00 in0.0 mm 0.00 in0.0 mm 0.01 in0.3 mm
01:05 PM 38.9°F3.8°C 31.0°F-0.6°C 73% 18.4 mph NW29.6 kmh NW 21.0 mph33.8 kmh 29.81 in1009.5 mb 0.00 in0.0 mm 0.00 in0.0 mm 0.01 in0.3 mm
01:06 PM 38.9°F3.8°C 31.3°F-0.4°C 74% 18.5 mph NW29.8 kmh NW 21.0 mph33.8 kmh 29.81 in1009.5 mb 0.00 in0.0 mm 0.00 in0.0 mm 0.01 in0.3 mm
01:07 PM 38.9°F3.8°C 31.3°F-0.4°C 74% 18.8 mph NW30.3 kmh NW 21.0 mph33.8 kmh 29.81 in1009.5 mb 0.00 in0.0 mm 0.00 in0.0 mm 0.01 in0.3 mm
01:08 PM 38.8°F3.8°C 31.2°F-0.4°C 74% 17.6 mph NW28.3 kmh NW 20.0 mph32.2 kmh 29.81 in1009.5 mb 0.00 in0.0 mm 0.00 in0.0 mm 0.01 in0.3 mm
01:09 PM 38.8°F3.8°C 31.2°F-0.4°C 74% 18.3 mph NW29.5 kmh NW 22.0 mph35.4 kmh 29.81 in1009.5 mb 0.00 in0.0 mm 0.00 in0.0 mm 0.01 in0.3 mm
01:10 PM 38.8°F3.8°C 31.2°F-0.4°C 74% 18.9 mph NW30.4 kmh NW 22.0 mph35.4 kmh 29.81 in1009.5 mb 0.00 in0.0 mm 0.00 in0.0 mm 0.01 in0.3 mm
01:11 PM 38.9°F3.8°C 31.3°F-0.4°C 74% 19.0 mph NW30.6 kmh NW 22.0 mph35.4 kmh 29.81 in1009.5 mb 0.00 in0.0 mm 0.00 in0.0 mm 0.01 in0.3 mm
01:12 PM 38.9°F3.8°C 31.0°F-0.6°C 73% 17.5 mph NW28.2 kmh NW 21.0 mph33.8 kmh 29.81 in1009.5 mb 0.00 in0.0 mm 0.00 in0.0 mm 0.01 in0.3 mm
01:13 PM 38.9°F3.8°C 31.3°F-0.4°C 74% 17.8 mph NW28.6 kmh NW 20.0 mph32.2 kmh 29.81 in1009.5 mb 0.00 in0.0 mm 0.00 in0.0 mm 0.01 in0.3 mm
01:14 PM 38.8°F3.8°C 31.2°F-0.4°C 74% 18.1 mph NW29.1 kmh NW 21.0 mph33.8 kmh 29.81 in1009.5 mb 0.00 in0.0 mm 0.00 in0.0 mm 0.01 in0.3 mm
01:15 PM 38.8°F3.8°C 31.2°F-0.4°C 74% 18.6 mph NW29.9 kmh NW 21.0 mph33.8 kmh 29.81 in1009.5 mb 0.00 in0.0 mm 0.00 in0.0 mm 0.01 in0.3 mm
01:16 PM 38.8°F3.8°C 31.2°F-0.4°C 74% 20.6 mph NW33.2 kmh NW 22.0 mph35.4 kmh 29.81 in1009.5 mb 0.00 in0.0 mm 0.00 in0.0 mm 0.01 in0.3 mm
01:17 PM 38.8°F3.8°C 30.9°F-0.6°C 73% 20.2 mph NW32.5 kmh NW 22.0 mph35.4 kmh 29.81 in1009.5 mb 0.00 in0.0 mm 0.00 in0.0 mm 0.01 in0.3 mm
01:18 PM 38.8°F3.8°C 30.9°F-0.6°C 73% 19.5 mph NW31.4 kmh NW 22.0 mph35.4 kmh 29.82 in1009.8 mb 0.00 in0.0 mm 0.00 in0.0 mm 0.01 in0.3 mm
01:19 PM 38.8°F3.8°C 30.9°F-0.6°C 73% 19.1 mph NW30.7 kmh NW 24.0 mph38.6 kmh 29.82 in1009.8 mb 0.00 in0.0 mm 0.00 in0.0 mm 0.01 in0.3 mm
01:20 PM 38.9°F3.8°C 31.0°F-0.6°C 73% 22.0 mph NNW35.4 kmh NNW 24.0 mph38.6 kmh 29.82 in1009.8 mb 0.00 in0.0 mm 0.00 in0.0 mm 0.01 in0.3 mm
01:21 PM 38.9°F3.8°C 31.0°F-0.6°C 73% 20.0 mph NW32.2 kmh NW 23.0 mph37.0 kmh 29.82 in1009.8 mb 0.00 in0.0 mm 0.00 in0.0 mm 0.01 in0.3 mm
01:22 PM 38.9°F3.8°C 31.0°F-0.6°C 73% 19.9 mph NW32.0 kmh NW 21.0 mph33.8 kmh 29.82 in1009.8 mb 0.00 in0.0 mm 0.00 in0.0 mm 0.01 in0.3 mm
01:23 PM 38.9°F3.8°C 31.0°F-0.6°C 73% 19.9 mph NW32.0 kmh NW 23.0 mph37.0 kmh 29.82 in1009.8 mb 0.00 in0.0 mm 0.00 in0.0 mm 0.01 in0.3 mm
01:24 PM 39.0°F3.9°C 31.1°F-0.5°C 73% 18.4 mph NW29.6 kmh NW 23.0 mph37.0 kmh 29.82 in1009.8 mb 0.00 in0.0 mm 0.00 in0.0 mm 0.01 in0.3 mm
01:25 PM 38.9°F3.8°C 31.3°F-0.4°C 74% 18.9 mph NW30.4 kmh NW 22.0 mph35.4 kmh 29.82 in1009.8 mb 0.00 in0.0 mm 0.00 in0.0 mm 0.01 in0.3 mm
01:26 PM 38.9°F3.8°C 31.3°F-0.4°C 74% 17.0 mph NW27.4 kmh NW 22.0 mph35.4 kmh 29.82 in1009.8 mb 0.00 in0.0 mm 0.00 in0.0 mm 0.01 in0.3 mm
01:27 PM 38.9°F3.8°C 31.3°F-0.4°C 74% 18.2 mph NW29.3 kmh NW 22.0 mph35.4 kmh 29.82 in1009.8 mb 0.00 in0.0 mm 0.00 in0.0 mm 0.01 in0.3 mm
01:28 PM 38.9°F3.8°C 31.3°F-0.4°C 74% 19.3 mph NW31.1 kmh NW 22.0 mph35.4 kmh 29.82 in1009.8 mb 0.00 in0.0 mm 0.00 in0.0 mm 0.01 in0.3 mm
01:29 PM 38.9°F3.8°C 31.3°F-0.4°C 74% 23.7 mph NW38.1 kmh NW 26.0 mph41.8 kmh 29.82 in1009.8 mb 0.00 in0.0 mm 0.00 in0.0 mm 0.01 in0.3 mm
01:30 PM 38.9°F3.8°C 30.7°F-0.7°C 72% 21.8 mph NW35.1 kmh NW 26.0 mph41.8 kmh 29.82 in1009.8 mb 0.00 in0.0 mm 0.00 in0.0 mm 0.01 in0.3 mm
01:31 PM 38.9°F3.8°C 30.7°F-0.7°C 72% 20.8 mph NW33.5 kmh NW 24.0 mph38.6 kmh 29.83 in1010.2 mb 0.00 in0.0 mm 0.00 in0.0 mm 0.01 in0.3 mm
01:32 PM 38.9°F3.8°C 31.0°F-0.6°C 73% 17.9 mph NW28.8 kmh NW 22.0 mph35.4 kmh 29.83 in1010.2 mb 0.00 in0.0 mm 0.00 in0.0 mm 0.01 in0.3 mm
01:33 PM 38.9°F3.8°C 31.0°F-0.6°C 73% 21.7 mph NW34.9 kmh NW 25.0 mph40.2 kmh 29.83 in1010.2 mb 0.00 in0.0 mm 0.00 in0.0 mm 0.01 in0.3 mm
01:34 PM 38.9°F3.8°C 31.0°F-0.6°C 73% 22.1 mph NW35.6 kmh NW 25.0 mph40.2 kmh 29.83 in1010.2 mb 0.00 in0.0 mm 0.00 in0.0 mm 0.01 in0.3 mm
01:35 PM 38.9°F3.8°C 31.0°F-0.6°C 73% 23.1 mph NW37.2 kmh NW 26.0 mph41.8 kmh 29.83 in1010.2 mb 0.00 in0.0 mm 0.00 in0.0 mm 0.01 in0.3 mm
01:36 PM 39.0°F3.9°C 30.4°F-0.9°C 71% 20.6 mph NW33.2 kmh NW 26.0 mph41.8 kmh 29.83 in1010.2 mb 0.00 in0.0 mm 0.00 in0.0 mm 0.01 in0.3 mm
01:37 PM 39.0°F3.9°C 30.8°F-0.7°C 72% 18.4 mph NW29.6 kmh NW 22.0 mph35.4 kmh 29.83 in1010.2 mb 0.00 in0.0 mm 0.00 in0.0 mm 0.01 in0.3 mm
01:38 PM 39.0°F3.9°C 31.4°F-0.3°C 74% 18.3 mph NW29.5 kmh NW 22.0 mph35.4 kmh 29.83 in1010.2 mb 0.00 in0.0 mm 0.00 in0.0 mm 0.01 in0.3 mm
01:39 PM 38.9°F3.8°C 31.0°F-0.6°C 73% 21.4 mph NW34.4 kmh NW 25.0 mph40.2 kmh 29.83 in1010.2 mb 0.00 in0.0 mm 0.00 in0.0 mm 0.01 in0.3 mm
01:40 PM 38.9°F3.8°C 30.3°F-0.9°C 71% 24.1 mph NW38.8 kmh NW 26.0 mph41.8 kmh 29.83 in1010.2 mb 0.00 in0.0 mm 0.00 in0.0 mm 0.01 in0.3 mm
01:41 PM 39.0°F3.9°C 30.4°F-0.9°C 71% 21.9 mph NW35.2 kmh NW 26.0 mph41.8 kmh 29.83 in1010.2 mb 0.00 in0.0 mm 0.00 in0.0 mm 0.01 in0.3 mm
01:42 PM 39.0°F3.9°C 30.8°F-0.7°C 72% 21.5 mph NW34.6 kmh NW 25.0 mph40.2 kmh 29.83 in1010.2 mb 0.00 in0.0 mm 0.00 in0.0 mm 0.01 in0.3 mm
01:43 PM 39.1°F3.9°C 30.8°F-0.7°C 72% 19.2 mph NW30.9 kmh NW 25.0 mph40.2 kmh 29.83 in1010.2 mb 0.00 in0.0 mm 0.00 in0.0 mm 0.01 in0.3 mm
01:44 PM 39.0°F3.9°C 30.8°F-0.7°C 72% 20.1 mph NW32.3 kmh NW 22.0 mph35.4 kmh 29.83 in1010.2 mb 0.00 in0.0 mm 0.00 in0.0 mm 0.01 in0.3 mm
01:45 PM 39.0°F3.9°C 30.8°F-0.7°C 72% 18.4 mph NW29.6 kmh NW 22.0 mph35.4 kmh 29.83 in1010.2 mb 0.00 in0.0 mm 0.00 in0.0 mm 0.01 in0.3 mm
01:46 PM 39.0°F3.9°C 30.8°F-0.7°C 72% 18.0 mph NW29.0 kmh NW 20.0 mph32.2 kmh 29.83 in1010.2 mb 0.00 in0.0 mm 0.00 in0.0 mm 0.01 in0.3 mm
01:47 PM 38.9°F3.8°C 30.7°F-0.7°C 72% 19.0 mph NW30.6 kmh NW 21.0 mph33.8 kmh 29.83 in1010.2 mb 0.00 in0.0 mm 0.00 in0.0 mm 0.01 in0.3 mm
01:48 PM 39.0°F3.9°C 30.8°F-0.7°C 72% 19.4 mph NW31.2 kmh NW 20.0 mph32.2 kmh 29.83 in1010.2 mb 0.00 in0.0 mm 0.00 in0.0 mm 0.01 in0.3 mm
01:49 PM 39.0°F3.9°C 30.8°F-0.7°C 72% 18.3 mph NW29.5 kmh NW 21.0 mph33.8 kmh 29.83 in1010.2 mb 0.00 in0.0 mm 0.00 in0.0 mm 0.01 in0.3 mm
01:50 PM 39.0°F3.9°C 31.1°F-0.5°C 73% 16.9 mph NW27.2 kmh NW 21.0 mph33.8 kmh 29.83 in1010.2 mb 0.00 in0.0 mm 0.00 in0.0 mm 0.01 in0.3 mm
01:51 PM 38.9°F3.8°C 31.0°F-0.6°C 73% 18.6 mph NW29.9 kmh NW 21.0 mph33.8 kmh 29.83 in1010.2 mb 0.00 in0.0 mm 0.00 in0.0 mm 0.01 in0.3 mm
01:52 PM 39.0°F3.9°C 31.1°F-0.5°C 73% 18.7 mph NW30.1 kmh NW 21.0 mph33.8 kmh 29.83 in1010.2 mb 0.00 in0.0 mm 0.00 in0.0 mm 0.01 in0.3 mm
01:53 PM 39.0°F3.9°C 31.1°F-0.5°C 73% 16.6 mph NW26.7 kmh NW 21.0 mph33.8 kmh 29.83 in1010.2 mb 0.00 in0.0 mm 0.00 in0.0 mm 0.01 in0.3 mm
01:54 PM 38.9°F3.8°C 31.0°F-0.6°C 73% 18.8 mph NW30.3 kmh NW 21.0 mph33.8 kmh 29.83 in1010.2 mb 0.00 in0.0 mm 0.00 in0.0 mm 0.01 in0.3 mm
01:55 PM 39.0°F3.9°C 30.8°F-0.7°C 72% 20.4 mph NW32.8 kmh NW 22.0 mph35.4 kmh 29.84 in1010.5 mb 0.00 in0.0 mm 0.00 in0.0 mm 0.01 in0.3 mm
01:56 PM 39.0°F3.9°C 30.8°F-0.7°C 72% 19.1 mph NW30.7 kmh NW 22.0 mph35.4 kmh 29.84 in1010.5 mb 0.00 in0.0 mm 0.00 in0.0 mm 0.01 in0.3 mm
01:57 PM 39.1°F3.9°C 30.8°F-0.7°C 72% 18.1 mph NW29.1 kmh NW 21.0 mph33.8 kmh 29.84 in1010.5 mb 0.00 in0.0 mm 0.00 in0.0 mm 0.01 in0.3 mm
01:58 PM 39.1°F3.9°C 31.2°F-0.4°C 73% 16.9 mph NW27.2 kmh NW 21.0 mph33.8 kmh 29.84 in1010.5 mb 0.00 in0.0 mm 0.00 in0.0 mm 0.01 in0.3 mm
01:59 PM 39.0°F3.9°C 31.1°F-0.5°C 73% 17.4 mph NW28.0 kmh NW 20.0 mph32.2 kmh 29.84 in1010.5 mb 0.00 in0.0 mm 0.00 in0.0 mm 0.01 in0.3 mm
02:00 PM 39.1°F3.9°C 31.2°F-0.4°C 73% 17.0 mph NW27.4 kmh NW 20.0 mph32.2 kmh 29.84 in1010.5 mb 0.00 in0.0 mm 0.00 in0.0 mm 0.01 in0.3 mm
02:01 PM 39.0°F3.9°C 31.4°F-0.3°C 74% 16.0 mph NW25.7 kmh NW 18.0 mph29.0 kmh 29.84 in1010.5 mb 0.00 in0.0 mm 0.00 in0.0 mm 0.01 in0.3 mm
02:02 PM 39.0°F3.9°C 31.4°F-0.3°C 74% 16.0 mph NNW25.7 kmh NNW 17.0 mph27.4 kmh 29.84 in1010.5 mb 0.00 in0.0 mm 0.00 in0.0 mm 0.01 in0.3 mm
02:03 PM 38.9°F3.8°C 31.3°F-0.4°C 74% 17.1 mph NW27.5 kmh NW 19.0 mph30.6 kmh 29.84 in1010.5 mb 0.00 in0.0 mm 0.00 in0.0 mm 0.01 in0.3 mm
02:04 PM 38.9°F3.8°C 31.0°F-0.6°C 73% 19.0 mph NW30.6 kmh NW 20.0 mph32.2 kmh 29.84 in1010.5 mb 0.00 in0.0 mm 0.00 in0.0 mm 0.01 in0.3 mm
02:05 PM 39.0°F3.9°C 31.1°F-0.5°C 73% 20.1 mph NW32.3 kmh NW 21.0 mph33.8 kmh 29.84 in1010.5 mb 0.00 in0.0 mm 0.00 in0.0 mm 0.01 in0.3 mm
02:06 PM 39.1°F3.9°C 30.8°F-0.7°C 72% 18.9 mph NW30.4 kmh NW 21.0 mph33.8 kmh 29.84 in1010.5 mb 0.00 in0.0 mm 0.00 in0.0 mm 0.01 in0.3 mm
02:07 PM 39.1°F3.9°C 31.2°F-0.4°C 73% 16.4 mph NW26.4 kmh NW 21.0 mph33.8 kmh 29.84 in1010.5 mb 0.00 in0.0 mm 0.00 in0.0 mm 0.01 in0.3 mm
02:08 PM 39.1°F3.9°C 31.2°F-0.4°C 73% 17.5 mph NW28.2 kmh NW 21.0 mph33.8 kmh 29.84 in1010.5 mb 0.00 in0.0 mm 0.00 in0.0 mm 0.01 in0.3 mm
02:09 PM 39.1°F3.9°C 30.8°F-0.7°C 72% 17.6 mph NW28.3 kmh NW 21.0 mph33.8 kmh 29.84 in1010.5 mb 0.00 in0.0 mm 0.00 in0.0 mm 0.01 in0.3 mm
02:10 PM 39.1°F3.9°C 31.2°F-0.4°C 73% 18.0 mph NW29.0 kmh NW 21.0 mph33.8 kmh 29.84 in1010.5 mb 0.00 in0.0 mm 0.00 in0.0 mm 0.01 in0.3 mm
02:11 PM 39.1°F3.9°C 30.8°F-0.7°C 72% 19.6 mph NW31.5 kmh NW 22.0 mph35.4 kmh 29.84 in1010.5 mb 0.00 in0.0 mm 0.00 in0.0 mm 0.01 in0.3 mm
02:12 PM 39.2°F4.0°C 30.6°F-0.8°C 71% 20.5 mph NW33.0 kmh NW 22.0 mph35.4 kmh 29.84 in1010.5 mb 0.00 in0.0 mm 0.00 in0.0 mm 0.01 in0.3 mm
02:13 PM 39.3°F4.1°C 31.0°F-0.6°C 72% 17.6 mph NW28.3 kmh NW 22.0 mph35.4 kmh 29.84 in1010.5 mb 0.00 in0.0 mm 0.00 in0.0 mm 0.01 in0.3 mm
02:14 PM 39.2°F4.0°C 30.9°F-0.6°C 72% 16.6 mph NW26.7 kmh NW 20.0 mph32.2 kmh 29.84 in1010.5 mb 0.00 in0.0 mm 0.00 in0.0 mm 0.01 in0.3 mm
02:15 PM 39.2°F4.0°C 31.3°F-0.4°C 73% 16.5 mph NW26.6 kmh NW 19.0 mph30.6 kmh 29.84 in1010.5 mb 0.00 in0.0 mm 0.00 in0.0 mm 0.01 in0.3 mm
02:16 PM 39.2°F4.0°C 31.3°F-0.4°C 73% 16.3 mph NW26.2 kmh NW 19.0 mph30.6 kmh 29.84 in1010.5 mb 0.00 in0.0 mm 0.00 in0.0 mm 0.01 in0.3 mm
02:17 PM 39.2°F4.0°C 31.3°F-0.4°C 73% 17.0 mph NW27.4 kmh NW 21.0 mph33.8 kmh 29.84 in1010.5 mb 0.00 in0.0 mm 0.00 in0.0 mm 0.01 in0.3 mm
02:18 PM 39.2°F4.0°C 30.9°F-0.6°C 72% 19.6 mph NW31.5 kmh NW 23.0 mph37.0 kmh 29.84 in1010.5 mb 0.00 in0.0 mm 0.00 in0.0 mm 0.01 in0.3 mm
02:19 PM 39.2°F4.0°C 30.6°F-0.8°C 71% 19.1 mph NW30.7 kmh NW 23.0 mph37.0 kmh 29.84 in1010.5 mb 0.00 in0.0 mm 0.00 in0.0 mm 0.01 in0.3 mm
02:20 PM 39.2°F4.0°C 30.9°F-0.6°C 72% 20.1 mph NW32.3 kmh NW 22.0 mph35.4 kmh 29.84 in1010.5 mb 0.00 in0.0 mm 0.00 in0.0 mm 0.01 in0.3 mm
02:21 PM 39.2°F4.0°C 30.6°F-0.8°C 71% 20.7 mph NW33.3 kmh NW 22.0 mph35.4 kmh 29.84 in1010.5 mb 0.00 in0.0 mm 0.00 in0.0 mm 0.01 in0.3 mm
02:22 PM 39.3°F4.1°C 30.7°F-0.7°C 71% 19.5 mph NW31.4 kmh NW 22.0 mph35.4 kmh 29.84 in1010.5 mb 0.00 in0.0 mm 0.00 in0.0 mm 0.01 in0.3 mm
02:23 PM 39.3°F4.1°C 31.0°F-0.6°C 72% 17.7 mph NW28.5 kmh NW 22.0 mph35.4 kmh 29.84 in1010.5 mb 0.00 in0.0 mm 0.00 in0.0 mm 0.01 in0.3 mm
02:24 PM 39.3°F4.1°C 31.0°F-0.6°C 72% 19.3 mph NW31.1 kmh NW 23.0 mph37.0 kmh 29.84 in1010.5 mb 0.00 in0.0 mm 0.00 in0.0 mm 0.01 in0.3 mm
02:25 PM 39.2°F4.0°C 30.9°F-0.6°C 72% 18.6 mph NW29.9 kmh NW 23.0 mph37.0 kmh 29.84 in1010.5 mb 0.00 in0.0 mm 0.00 in0.0 mm 0.01 in0.3 mm
02:26 PM 39.2°F4.0°C 30.9°F-0.6°C 72% 19.0 mph NW30.6 kmh NW 22.0 mph35.4 kmh 29.84 in1010.5 mb 0.00 in0.0 mm 0.00 in0.0 mm 0.01 in0.3 mm
02:27 PM 39.2°F4.0°C 30.9°F-0.6°C 72% 16.6 mph NW26.7 kmh NW 21.0 mph33.8 kmh 29.84 in1010.5 mb 0.00 in0.0 mm 0.00 in0.0 mm 0.01 in0.3 mm
02:28 PM 39.2°F4.0°C 31.3°F-0.4°C 73% 18.2 mph NW29.3 kmh NW 22.0 mph35.4 kmh 29.84 in1010.5 mb 0.00 in0.0 mm 0.00 in0.0 mm 0.01 in0.3 mm
02:29 PM 39.2°F4.0°C 31.3°F-0.4°C 73% 18.8 mph NW30.3 kmh NW 22.0 mph35.4 kmh 29.84 in1010.5 mb 0.00 in0.0 mm 0.00 in0.0 mm 0.01 in0.3 mm
02:30 PM 39.2°F4.0°C 31.3°F-0.4°C 73% 19.9 mph NW32.0 kmh NW 22.0 mph35.4 kmh 29.85 in1010.8 mb 0.00 in0.0 mm 0.00 in0.0 mm 0.01 in0.3 mm
02:31 PM 39.3°F4.1°C 31.4°F-0.3°C 73% 18.6 mph NW29.9 kmh NW 22.0 mph35.4 kmh 29.85 in1010.8 mb 0.00 in0.0 mm 0.00 in0.0 mm 0.01 in0.3 mm
02:32 PM 39.3°F4.1°C 31.4°F-0.3°C 73% 19.6 mph NW31.5 kmh NW 22.0 mph35.4 kmh 29.85 in1010.8 mb 0.00 in0.0 mm 0.00 in0.0 mm 0.01 in0.3 mm
02:33 PM 39.3°F4.1°C 31.0°F-0.6°C 72% 18.2 mph NW29.3 kmh NW 22.0 mph35.4 kmh 29.85 in1010.8 mb 0.00 in0.0 mm 0.00 in0.0 mm 0.01 in0.3 mm
02:34 PM 39.2°F4.0°C 31.3°F-0.4°C 73% 18.0 mph NW29.0 kmh NW 20.0 mph32.2 kmh 29.85 in1010.8 mb 0.00 in0.0 mm 0.00 in0.0 mm 0.01 in0.3 mm
02:35 PM 39.2°F4.0°C 31.3°F-0.4°C 73% 19.0 mph NW30.6 kmh NW 22.0 mph35.4 kmh 29.85 in1010.8 mb 0.00 in0.0 mm 0.00 in0.0 mm 0.01 in0.3 mm
02:36 PM 39.3°F4.1°C 31.4°F-0.3°C 73% 19.0 mph NW30.6 kmh NW 22.0 mph35.4 kmh 29.85 in1010.8 mb 0.00 in0.0 mm 0.00 in0.0 mm 0.01 in0.3 mm
02:37 PM 39.3°F4.1°C 31.4°F-0.3°C 73% 19.0 mph NW30.6 kmh NW 21.0 mph33.8 kmh 29.85 in1010.8 mb 0.00 in0.0 mm 0.00 in0.0 mm 0.01 in0.3 mm
02:38 PM 39.4°F4.1°C 31.5°F-0.3°C 73% 19.7 mph NW31.7 kmh NW 23.0 mph37.0 kmh 29.85 in1010.8 mb 0.00 in0.0 mm 0.00 in0.0 mm 0.01 in0.3 mm
02:39 PM 39.4°F4.1°C 31.5°F-0.3°C 73% 18.7 mph NW30.1 kmh NW 23.0 mph37.0 kmh 29.85 in1010.8 mb 0.00 in0.0 mm 0.00 in0.0 mm 0.01 in0.3 mm
02:40 PM 39.3°F4.1°C 31.4°F-0.3°C 73% 17.5 mph NW28.2 kmh NW 22.0 mph35.4 kmh 29.85 in1010.8 mb 0.00 in0.0 mm 0.00 in0.0 mm 0.01 in0.3 mm
02:41 PM 39.3°F4.1°C 31.7°F-0.2°C 74% 17.4 mph NW28.0 kmh NW 22.0 mph35.4 kmh 29.85 in1010.8 mb 0.00 in0.0 mm 0.00 in0.0 mm 0.01 in0.3 mm
02:42 PM 39.3°F4.1°C 31.0°F-0.6°C 72% 22.7 mph NW36.5 kmh NW 26.0 mph41.8 kmh 29.85 in1010.8 mb 0.00 in0.0 mm 0.00 in0.0 mm 0.01 in0.3 mm
02:43 PM 39.4°F4.1°C 31.1°F-0.5°C 72% 20.9 mph NW33.6 kmh NW 26.0 mph41.8 kmh 29.85 in1010.8 mb 0.00 in0.0 mm 0.00 in0.0 mm 0.01 in0.3 mm
02:44 PM 39.4°F4.1°C 31.5°F-0.3°C 73% 16.9 mph NW27.2 kmh NW 23.0 mph37.0 kmh 29.85 in1010.8 mb 0.00 in0.0 mm 0.00 in0.0 mm 0.01 in0.3 mm
02:45 PM 39.4°F4.1°C 31.8°F-0.1°C 74% 19.9 mph NW32.0 kmh NW 23.0 mph37.0 kmh 29.85 in1010.8 mb 0.00 in0.0 mm 0.00 in0.0 mm 0.01 in0.3 mm
02:46 PM 39.4°F4.1°C 31.1°F-0.5°C 72% 18.8 mph NW30.3 kmh NW 23.0 mph37.0 kmh 29.85 in1010.8 mb 0.00 in0.0 mm 0.00 in0.0 mm 0.01 in0.3 mm
02:47 PM 39.4°F4.1°C 31.1°F-0.5°C 72% 19.5 mph NW31.4 kmh NW 21.0 mph33.8 kmh 29.85 in1010.8 mb 0.00 in0.0 mm 0.00 in0.0 mm 0.01 in0.3 mm
02:48 PM 39.4°F4.1°C 31.5°F-0.3°C 73% 18.5 mph NW29.8 kmh NW 21.0 mph33.8 kmh 29.85 in1010.8 mb 0.00 in0.0 mm 0.00 in0.0 mm 0.01 in0.3 mm
02:49 PM 39.4°F4.1°C 31.5°F-0.3°C 73% 19.1 mph NW30.7 kmh NW 21.0 mph33.8 kmh 29.86 in1011.2 mb 0.00 in0.0 mm 0.00 in0.0 mm 0.01 in0.3 mm
02:50 PM 39.3°F4.1°C 31.4°F-0.3°C 73% 19.5 mph NW31.4 kmh NW 22.0 mph35.4 kmh 29.86 in1011.2 mb 0.00 in0.0 mm 0.00 in0.0 mm 0.01 in0.3 mm
02:51 PM 39.3°F4.1°C 31.0°F-0.6°C 72% 19.7 mph NW31.7 kmh NW 22.0 mph35.4 kmh 29.86 in1011.2 mb 0.00 in0.0 mm 0.00 in0.0 mm 0.01 in0.3 mm
02:52 PM 39.3°F4.1°C 31.4°F-0.3°C 73% 17.7 mph NW28.5 kmh NW 22.0 mph35.4 kmh 29.85 in1010.8 mb 0.00 in0.0 mm 0.00 in0.0 mm 0.01 in0.3 mm
02:53 PM 39.3°F4.1°C 31.0°F-0.6°C 72% 19.0 mph NNW30.6 kmh NNW 20.0 mph32.2 kmh 29.85 in1010.8 mb 0.00 in0.0 mm 0.00 in0.0 mm 0.01 in0.3 mm
02:54 PM 39.3°F4.1°C 31.0°F-0.6°C 72% 19.0 mph NW30.6 kmh NW 21.0 mph33.8 kmh 29.85 in1010.8 mb 0.00 in0.0 mm 0.00 in0.0 mm 0.01 in0.3 mm
02:55 PM 39.3°F4.1°C 31.0°F-0.6°C 72% 19.0 mph NW30.6 kmh NW 23.0 mph37.0 kmh 29.85 in1010.8 mb 0.00 in0.0 mm 0.00 in0.0 mm 0.01 in0.3 mm
02:56 PM 39.2°F4.0°C 30.9°F-0.6°C 72% 19.3 mph NW31.1 kmh NW 21.0 mph33.8 kmh 29.85 in1010.8 mb 0.00 in0.0 mm 0.00 in0.0 mm 0.01 in0.3 mm
02:57 PM 39.2°F4.0°C 30.9°F-0.6°C 72% 18.8 mph NW30.3 kmh NW 21.0 mph33.8 kmh 29.85 in1010.8 mb 0.00 in0.0 mm 0.00 in0.0 mm 0.01 in0.3 mm
02:58 PM 39.3°F4.1°C 31.0°F-0.6°C 72% 20.6 mph NW33.2 kmh NW 23.0 mph37.0 kmh 29.86 in1011.2 mb 0.00 in0.0 mm 0.00 in0.0 mm 0.01 in0.3 mm
02:59 PM 39.3°F4.1°C 31.0°F-0.6°C 72% 18.2 mph NW29.3 kmh NW 23.0 mph37.0 kmh 29.85 in1010.8 mb 0.00 in0.0 mm 0.00 in0.0 mm 0.01 in0.3 mm
03:00 PM 39.2°F4.0°C 31.3°F-0.4°C 73% 17.1 mph NW27.5 kmh NW 20.0 mph32.2 kmh 29.86 in1011.2 mb 0.00 in0.0 mm 0.00 in0.0 mm 0.01 in0.3 mm
03:01 PM 39.2°F4.0°C 31.3°F-0.4°C 73% 16.6 mph NW26.7 kmh NW 19.0 mph30.6 kmh 29.85 in1010.8 mb 0.00 in0.0 mm 0.00 in0.0 mm 0.01 in0.3 mm
03:02 PM 39.2°F4.0°C 31.3°F-0.4°C 73% 16.9 mph NW27.2 kmh NW 19.0 mph30.6 kmh 29.86 in1011.2 mb 0.00 in0.0 mm 0.00 in0.0 mm 0.01 in0.3 mm
03:03 PM 39.1°F3.9°C 31.2°F-0.4°C 73% 19.2 mph NW30.9 kmh NW 21.0 mph33.8 kmh 29.85 in1010.8 mb 0.00 in0.0 mm 0.00 in0.0 mm 0.01 in0.3 mm
03:04 PM 39.1°F3.9°C 30.8°F-0.7°C 72% 18.9 mph NW30.4 kmh NW 21.0 mph33.8 kmh 29.85 in1010.8 mb 0.00 in0.0 mm 0.00 in0.0 mm 0.01 in0.3 mm
03:05 PM 39.2°F4.0°C 30.9°F-0.6°C 72% 19.0 mph NW30.6 kmh NW 22.0 mph35.4 kmh 29.85 in1010.8 mb 0.00 in0.0 mm 0.00 in0.0 mm 0.01 in0.3 mm
03:06 PM 39.2°F4.0°C 30.9°F-0.6°C 72% 17.0 mph NW27.4 kmh NW 20.0 mph32.2 kmh 29.86 in1011.2 mb 0.00 in0.0 mm 0.00 in0.0 mm 0.01 in0.3 mm
03:07 PM 39.2°F4.0°C 31.3°F-0.4°C 73% 17.8 mph NW28.6 kmh NW 19.0 mph30.6 kmh 29.85 in1010.8 mb 0.00 in0.0 mm 0.00 in0.0 mm 0.01 in0.3 mm
03:08 PM 39.2°F4.0°C 31.3°F-0.4°C 73% 16.0 mph NW25.7 kmh NW 19.0 mph30.6 kmh 29.85 in1010.8 mb 0.00 in0.0 mm 0.00 in0.0 mm 0.01 in0.3 mm
03:09 PM 39.1°F3.9°C 31.2°F-0.4°C 73% 15.2 mph NW24.5 kmh NW 19.0 mph30.6 kmh 29.85 in1010.8 mb 0.00 in0.0 mm 0.00 in0.0 mm 0.01 in0.3 mm
03:10 PM 39.2°F4.0°C 31.3°F-0.4°C 73% 15.5 mph NW24.9 kmh NW 17.0 mph27.4 kmh 29.85 in1010.8 mb 0.00 in0.0 mm 0.00 in0.0 mm 0.01 in0.3 mm
03:11 PM 39.1°F3.9°C 31.2°F-0.4°C 73% 15.2 mph NW24.5 kmh NW 17.0 mph27.4 kmh 29.85 in1010.8 mb 0.00 in0.0 mm 0.00 in0.0 mm 0.01 in0.3 mm
03:12 PM 39.1°F3.9°C 31.5°F-0.3°C 74% 15.1 mph NW24.3 kmh NW 17.0 mph27.4 kmh 29.86 in1011.2 mb 0.00 in0.0 mm 0.00 in0.0 mm 0.01 in0.3 mm
03:13 PM 39.2°F4.0°C 31.6°F-0.2°C 74% 14.0 mph NW22.5 kmh NW 16.0 mph25.7 kmh 29.86 in1011.2 mb 0.00 in0.0 mm 0.00 in0.0 mm 0.01 in0.3 mm
03:14 PM 39.1°F3.9°C 31.9°F-0.1°C 75% 12.9 mph NW20.8 kmh NW 15.0 mph24.1 kmh 29.86 in1011.2 mb 0.00 in0.0 mm 0.00 in0.0 mm 0.01 in0.3 mm
03:15 PM 39.0°F3.9°C 31.8°F-0.1°C 75% 14.1 mph NW22.7 kmh NW 15.0 mph24.1 kmh 29.86 in1011.2 mb 0.00 in0.0 mm 0.00 in0.0 mm 0.01 in0.3 mm
03:16 PM 38.9°F3.8°C 31.7°F-0.2°C 75% 13.9 mph NW22.4 kmh NW 15.0 mph24.1 kmh 29.86 in1011.2 mb 0.00 in0.0 mm 0.00 in0.0 mm 0.01 in0.3 mm
03:17 PM 38.9°F3.8°C 31.7°F-0.2°C 75% 14.7 mph NW23.7 kmh NW 17.0 mph27.4 kmh 29.86 in1011.2 mb 0.00 in0.0 mm 0.00 in0.0 mm 0.01 in0.3 mm
03:18 PM 38.9°F3.8°C 31.3°F-0.4°C 74% 15.9 mph NW25.6 kmh NW 18.0 mph29.0 kmh 29.86 in1011.2 mb 0.00 in0.0 mm 0.00 in0.0 mm 0.01 in0.3 mm
03:19 PM 38.9°F3.8°C 31.3°F-0.4°C 74% 14.7 mph NW23.7 kmh NW 18.0 mph29.0 kmh 29.86 in1011.2 mb 0.00 in0.0 mm 0.00 in0.0 mm 0.01 in0.3 mm
03:20 PM 38.9°F3.8°C 31.3°F-0.4°C 74% 16.2 mph NW26.1 kmh NW 19.0 mph30.6 kmh 29.86 in1011.2 mb 0.00 in0.0 mm 0.00 in0.0 mm 0.01 in0.3 mm
03:21 PM 39.0°F3.9°C 31.4°F-0.3°C 74% 19.0 mph NW30.6 kmh NW 21.0 mph33.8 kmh 29.86 in1011.2 mb 0.00 in0.0 mm 0.00 in0.0 mm 0.01 in0.3 mm
03:22 PM 39.1°F3.9°C 30.8°F-0.7°C 72% 18.0 mph NW29.0 kmh NW 19.0 mph30.6 kmh 29.86 in1011.2 mb 0.00 in0.0 mm 0.00 in0.0 mm 0.01 in0.3 mm
03:23 PM 39.1°F3.9°C 30.8°F-0.7°C 72% 18.2 mph NW29.3 kmh NW 19.0 mph30.6 kmh 29.86 in1011.2 mb 0.00 in0.0 mm 0.00 in0.0 mm 0.01 in0.3 mm
03:24 PM 39.1°F3.9°C 30.8°F-0.7°C 72% 17.5 mph NW28.2 kmh NW 19.0 mph30.6 kmh 29.87 in1011.5 mb 0.00 in0.0 mm 0.00 in0.0 mm 0.01 in0.3 mm
03:25 PM 39.1°F3.9°C 31.2°F-0.4°C 73% 16.6 mph NW26.7 kmh NW 20.0 mph32.2 kmh 29.87 in1011.5 mb 0.00 in0.0 mm 0.00 in0.0 mm 0.01 in0.3 mm
03:26 PM 39.1°F3.9°C 31.2°F-0.4°C 73% 17.5 mph NW28.2 kmh NW 20.0 mph32.2 kmh 29.87 in1011.5 mb 0.00 in0.0 mm 0.00 in0.0 mm 0.01 in0.3 mm
03:27 PM 39.1°F3.9°C 30.8°F-0.7°C 72% 17.0 mph NW27.4 kmh NW 20.0 mph32.2 kmh 29.87 in1011.5 mb 0.00 in0.0 mm 0.00 in0.0 mm 0.01 in0.3 mm
03:28 PM 39.1°F3.9°C 31.2°F-0.4°C 73% 17.5 mph NW28.2 kmh NW 20.0 mph32.2 kmh 29.87 in1011.5 mb 0.00 in0.0 mm 0.00 in0.0 mm 0.01 in0.3 mm
03:29 PM 39.0°F3.9°C 31.1°F-0.5°C 73% 18.8 mph NW30.3 kmh NW 22.0 mph35.4 kmh 29.88 in1011.9 mb 0.00 in0.0 mm 0.00 in0.0 mm 0.01 in0.3 mm
03:30 PM 39.1°F3.9°C 30.8°F-0.7°C 72% 18.5 mph NW29.8 kmh NW 22.0 mph35.4 kmh 29.88 in1011.9 mb 0.00 in0.0 mm 0.00 in0.0 mm 0.01 in0.3 mm
03:31 PM 39.2°F4.0°C 31.3°F-0.4°C 73% 17.5 mph NW28.2 kmh NW 20.0 mph32.2 kmh 29.88 in1011.9 mb 0.00 in0.0 mm 0.00 in0.0 mm 0.01 in0.3 mm
03:32 PM 39.1°F3.9°C 31.2°F-0.4°C 73% 17.4 mph NW28.0 kmh NW 19.0 mph30.6 kmh 29.88 in1011.9 mb 0.00 in0.0 mm 0.00 in0.0 mm 0.01 in0.3 mm
03:33 PM 39.0°F3.9°C 31.1°F-0.5°C 73% 16.0 mph NW25.7 kmh NW 19.0 mph30.6 kmh 29.88 in1011.9 mb 0.00 in0.0 mm 0.00 in0.0 mm 0.01 in0.3 mm
03:34 PM 39.0°F3.9°C 31.1°F-0.5°C 73% 15.8 mph NW25.4 kmh NW 18.0 mph29.0 kmh 29.88 in1011.9 mb 0.00 in0.0 mm 0.00 in0.0 mm 0.01 in0.3 mm
03:35 PM 39.0°F3.9°C 31.1°F-0.5°C 73% 16.7 mph NW26.9 kmh NW 18.0 mph29.0 kmh 29.88 in1011.9 mb 0.00 in0.0 mm 0.00 in0.0 mm 0.01 in0.3 mm
03:36 PM 39.0°F3.9°C 30.8°F-0.7°C 72% 17.2 mph NW27.7 kmh NW 19.0 mph30.6 kmh 29.88 in1011.9 mb 0.00 in0.0 mm 0.00 in0.0 mm 0.01 in0.3 mm
03:37 PM 39.1°F3.9°C 31.2°F-0.4°C 73% 17.4 mph NW28.0 kmh NW 19.0 mph30.6 kmh 29.88 in1011.9 mb 0.00 in0.0 mm 0.00 in0.0 mm 0.01 in0.3 mm
03:38 PM 39.1°F3.9°C 30.8°F-0.7°C 72% 17.9 mph NW28.8 kmh NW 20.0 mph32.2 kmh 29.88 in1011.9 mb 0.00 in0.0 mm 0.00 in0.0 mm 0.01 in0.3 mm
03:39 PM 39.1°F3.9°C 30.8°F-0.7°C 72% 18.0 mph NW29.0 kmh NW 20.0 mph32.2 kmh 29.88 in1011.9 mb 0.00 in0.0 mm 0.00 in0.0 mm 0.01 in0.3 mm
03:40 PM 39.1°F3.9°C 31.2°F-0.4°C 73% 16.8 mph NW27.0 kmh NW 19.0 mph30.6 kmh 29.88 in1011.9 mb 0.00 in0.0 mm 0.00 in0.0 mm 0.01 in0.3 mm
03:41 PM 39.1°F3.9°C 31.2°F-0.4°C 73% 16.5 mph NW26.6 kmh NW 18.0 mph29.0 kmh 29.88 in1011.9 mb 0.00 in0.0 mm 0.00 in0.0 mm 0.01 in0.3 mm
03:42 PM 39.1°F3.9°C 31.2°F-0.4°C 73% 18.5 mph NW29.8 kmh NW 21.0 mph33.8 kmh 29.88 in1011.9 mb 0.00 in0.0 mm 0.00 in0.0 mm 0.01 in0.3 mm
03:43 PM 39.1°F3.9°C 30.8°F-0.7°C 72% 18.3 mph NW29.5 kmh NW 21.0 mph33.8 kmh 29.88 in1011.9 mb 0.00 in0.0 mm 0.00 in0.0 mm 0.01 in0.3 mm
03:44 PM 39.1°F3.9°C 30.8°F-0.7°C 72% 20.3 mph NW32.7 kmh NW 22.0 mph35.4 kmh 29.88 in1011.9 mb 0.00 in0.0 mm 0.00 in0.0 mm 0.01 in0.3 mm
03:45 PM 39.2°F4.0°C 30.6°F-0.8°C 71% 18.8 mph NW30.3 kmh NW 22.0 mph35.4 kmh 29.88 in1011.9 mb 0.00 in0.0 mm 0.00 in0.0 mm 0.01 in0.3 mm
03:46 PM 39.2°F4.0°C 30.6°F-0.8°C 71% 17.9 mph NW28.8 kmh NW 21.0 mph33.8 kmh 29.88 in1011.9 mb 0.00 in0.0 mm 0.00 in0.0 mm 0.01 in0.3 mm
03:47 PM 39.2°F4.0°C 30.9°F-0.6°C 72% 19.0 mph NW30.6 kmh NW 22.0 mph35.4 kmh 29.88 in1011.9 mb 0.00 in0.0 mm 0.00 in0.0 mm 0.01 in0.3 mm
03:48 PM 39.3°F4.1°C 30.7°F-0.7°C 71% 18.3 mph NW29.5 kmh NW 22.0 mph35.4 kmh 29.88 in1011.9 mb 0.00 in0.0 mm 0.00 in0.0 mm 0.01 in0.3 mm
03:49 PM 39.2°F4.0°C 30.6°F-0.8°C 71% 18.4 mph NW29.6 kmh NW 21.0 mph33.8 kmh 29.88 in1011.9 mb 0.00 in0.0 mm 0.00 in0.0 mm 0.01 in0.3 mm
03:50 PM 39.3°F4.1°C 30.7°F-0.7°C 71% 16.2 mph NW26.1 kmh NW 20.0 mph32.2 kmh 29.88 in1011.9 mb 0.00 in0.0 mm 0.00 in0.0 mm 0.01 in0.3 mm
03:51 PM 39.2°F4.0°C 30.9°F-0.6°C 72% 18.7 mph NW30.1 kmh NW 20.0 mph32.2 kmh 29.89 in1012.2 mb 0.00 in0.0 mm 0.00 in0.0 mm 0.01 in0.3 mm
03:52 PM 39.2°F4.0°C 30.9°F-0.6°C 72% 18.1 mph NW29.1 kmh NW 20.0 mph32.2 kmh 29.89 in1012.2 mb 0.00 in0.0 mm 0.00 in0.0 mm 0.01 in0.3 mm
03:53 PM 39.3°F4.1°C 30.7°F-0.7°C 71% 18.5 mph NW29.8 kmh NW 20.0 mph32.2 kmh 29.89 in1012.2 mb 0.00 in0.0 mm 0.00 in0.0 mm 0.01 in0.3 mm
03:54 PM 39.3°F4.1°C 30.7°F-0.7°C 71% 18.0 mph NW29.0 kmh NW 19.0 mph30.6 kmh 29.89 in1012.2 mb 0.00 in0.0 mm 0.00 in0.0 mm 0.01 in0.3 mm
03:55 PM 39.3°F4.1°C 30.7°F-0.7°C 71% 17.0 mph NW27.4 kmh NW 19.0 mph30.6 kmh 29.89 in1012.2 mb 0.00 in0.0 mm 0.00 in0.0 mm 0.01 in0.3 mm
03:56 PM 39.3°F4.1°C 31.0°F-0.6°C 72% 17.0 mph NW27.4 kmh NW 18.0 mph29.0 kmh 29.89 in1012.2 mb 0.00 in0.0 mm 0.00 in0.0 mm 0.01 in0.3 mm
03:57 PM 39.3°F4.1°C 31.0°F-0.6°C 72% 17.4 mph NW28.0 kmh NW 19.0 mph30.6 kmh 29.89 in1012.2 mb 0.00 in0.0 mm 0.00 in0.0 mm 0.01 in0.3 mm
03:58 PM 39.3°F4.1°C 31.0°F-0.6°C 72% 17.0 mph NW27.4 kmh NW 19.0 mph30.6 kmh 29.89 in1012.2 mb 0.00 in0.0 mm 0.00 in0.0 mm 0.01 in0.3 mm
03:59 PM 39.3°F4.1°C 31.0°F-0.6°C 72% 16.4 mph NW26.4 kmh NW 18.0 mph29.0 kmh 29.89 in1012.2 mb 0.00 in0.0 mm 0.00 in0.0 mm 0.01 in0.3 mm
04:00 PM 39.3°F4.1°C 31.0°F-0.6°C 72% 17.9 mph NW28.8 kmh NW 20.0 mph32.2 kmh 29.89 in1012.2 mb 0.00 in0.0 mm 0.00 in0.0 mm 0.01 in0.3 mm
04:01 PM 39.3°F4.1°C 31.0°F-0.6°C 72% 15.4 mph NW24.8 kmh NW 20.0 mph32.2 kmh 29.89 in1012.2 mb 0.00 in0.0 mm 0.00 in0.0 mm 0.01 in0.3 mm
04:02 PM 39.3°F4.1°C 31.0°F-0.6°C 72% 16.3 mph NW26.2 kmh NW 19.0 mph30.6 kmh 29.89 in1012.2 mb 0.00 in0.0 mm 0.00 in0.0 mm 0.01 in0.3 mm
04:03 PM 39.3°F4.1°C 31.0°F-0.6°C 72% 18.1 mph NW29.1 kmh NW 21.0 mph33.8 kmh 29.89 in1012.2 mb 0.00 in0.0 mm 0.00 in0.0 mm 0.01 in0.3 mm
04:04 PM 39.4°F4.1°C 30.8°F-0.7°C 71% 19.0 mph NW30.6 kmh NW 21.0 mph33.8 kmh 29.89 in1012.2 mb 0.00 in0.0 mm 0.00 in0.0 mm 0.01 in0.3 mm
04:05 PM 39.4°F4.1°C 30.8°F-0.7°C 71% 20.4 mph NW32.8 kmh NW 25.0 mph40.2 kmh 29.89 in1012.2 mb 0.00 in0.0 mm 0.00 in0.0 mm 0.01 in0.3 mm
04:06 PM 39.5°F4.2°C 30.5°F-0.8°C 70% 21.0 mph NW33.8 kmh NW 25.0 mph40.2 kmh 29.89 in1012.2 mb 0.00 in0.0 mm 0.00 in0.0 mm 0.01 in0.3 mm
04:07 PM 39.6°F4.2°C 30.6°F-0.8°C 70% 22.0 mph NW35.4 kmh NW 26.0 mph41.8 kmh 29.89 in1012.2 mb 0.00 in0.0 mm 0.00 in0.0 mm 0.01 in0.3 mm
04:08 PM 39.5°F4.2°C 30.5°F-0.8°C 70% 21.0 mph NW33.8 kmh NW 23.0 mph37.0 kmh 29.89 in1012.2 mb 0.00 in0.0 mm 0.00 in0.0 mm 0.01 in0.3 mm
04:09 PM 39.5°F4.2°C 30.2°F-1.0°C 69% 23.7 mph NW38.1 kmh NW 28.0 mph45.1 kmh 29.90 in1012.5 mb 0.00 in0.0 mm 0.00 in0.0 mm 0.01 in0.3 mm
04:10 PM 39.6°F4.2°C 29.9°F-1.2°C 68% 22.8 mph NW36.7 kmh NW 28.0 mph45.1 kmh 29.90 in1012.5 mb 0.00 in0.0 mm 0.00 in0.0 mm 0.01 in0.3 mm
04:11 PM 39.6°F4.2°C 30.6°F-0.8°C 70% 21.5 mph NW34.6 kmh NW 26.0 mph41.8 kmh 29.90 in1012.5 mb 0.00 in0.0 mm 0.00 in0.0 mm 0.01 in0.3 mm
04:12 PM 39.5°F4.2°C 30.2°F-1.0°C 69% 21.9 mph NW35.2 kmh NW 25.0 mph40.2 kmh 29.90 in1012.5 mb 0.00 in0.0 mm 0.00 in0.0 mm 0.01 in0.3 mm
04:13 PM 39.5°F4.2°C 30.2°F-1.0°C 69% 22.3 mph NW35.9 kmh NW 25.0 mph40.2 kmh 29.90 in1012.5 mb 0.00 in0.0 mm 0.00 in0.0 mm 0.01 in0.3 mm
04:14 PM 39.6°F4.2°C 29.9°F-1.2°C 68% 21.7 mph NW34.9 kmh NW 25.0 mph40.2 kmh 29.90 in1012.5 mb 0.00 in0.0 mm 0.00 in0.0 mm 0.01 in0.3 mm
04:15 PM 39.5°F4.2°C 30.2°F-1.0°C 69% 22.1 mph NW35.6 kmh NW 25.0 mph40.2 kmh 29.90 in1012.5 mb 0.00 in0.0 mm 0.00 in0.0 mm 0.01 in0.3 mm
04:16 PM 39.5°F4.2°C 30.2°F-1.0°C 69% 20.4 mph NW32.8 kmh NW 25.0 mph40.2 kmh 29.90 in1012.5 mb 0.00 in0.0 mm 0.00 in0.0 mm 0.01 in0.3 mm
04:17 PM 39.4°F4.1°C 30.4°F-0.9°C 70% 20.0 mph NW32.2 kmh NW 25.0 mph40.2 kmh 29.90 in1012.5 mb 0.00 in0.0 mm 0.00 in0.0 mm 0.01 in0.3 mm
04:18 PM 39.5°F4.2°C 30.2°F-1.0°C 69% 19.5 mph NW31.4 kmh NW 22.0 mph35.4 kmh 29.90 in1012.5 mb 0.00 in0.0 mm 0.00 in0.0 mm 0.01 in0.3 mm
04:19 PM 39.4°F4.1°C 30.4°F-0.9°C 70% 21.3 mph NW34.3 kmh NW 24.0 mph38.6 kmh 29.90 in1012.5 mb 0.00 in0.0 mm 0.00 in0.0 mm 0.01 in0.3 mm
04:20 PM 39.5°F4.2°C 29.8°F-1.2°C 68% 20.9 mph NW33.6 kmh NW 24.0 mph38.6 kmh 29.90 in1012.5 mb 0.00 in0.0 mm 0.00 in0.0 mm 0.01 in0.3 mm
04:21 PM 39.5°F4.2°C 29.8°F-1.2°C 68% 19.8 mph NW31.9 kmh NW 24.0 mph38.6 kmh 29.90 in1012.5 mb 0.00 in0.0 mm 0.00 in0.0 mm 0.01 in0.3 mm
04:22 PM 39.5°F4.2°C 29.8°F-1.2°C 68% 21.2 mph NW34.1 kmh NW 27.0 mph43.5 kmh 29.90 in1012.5 mb 0.00 in0.0 mm 0.00 in0.0 mm 0.01 in0.3 mm
04:23 PM 39.5°F4.2°C 29.8°F-1.2°C 68% 23.3 mph NW37.5 kmh NW 27.0 mph43.5 kmh 29.90 in1012.5 mb 0.00 in0.0 mm 0.00 in0.0 mm 0.01 in0.3 mm
04:24 PM 39.4°F4.1°C 30.4°F-0.9°C 70% 19.7 mph NW31.7 kmh NW 25.0 mph40.2 kmh 29.90 in1012.5 mb 0.00 in0.0 mm 0.00 in0.0 mm 0.01 in0.3 mm
04:25 PM 39.4°F4.1°C 30.1°F-1.1°C 69% 20.6 mph NW33.2 kmh NW 23.0 mph37.0 kmh 29.90 in1012.5 mb 0.00 in0.0 mm 0.00 in0.0 mm 0.01 in0.3 mm
04:26 PM 39.3°F4.1°C 30.7°F-0.7°C 71% 22.2 mph NW35.7 kmh NW 26.0 mph41.8 kmh 29.90 in1012.5 mb 0.00 in0.0 mm 0.00 in0.0 mm 0.01 in0.3 mm
04:27 PM 39.3°F4.1°C 30.3°F-0.9°C 70% 18.6 mph NW29.9 kmh NW 26.0 mph41.8 kmh 29.90 in1012.5 mb 0.00 in0.0 mm 0.00 in0.0 mm 0.01 in0.3 mm
04:28 PM 39.3°F4.1°C 30.7°F-0.7°C 71% 20.5 mph NW33.0 kmh NW 26.0 mph41.8 kmh 29.90 in1012.5 mb 0.00 in0.0 mm 0.00 in0.0 mm 0.01 in0.3 mm
04:29 PM 39.3°F4.1°C 30.7°F-0.7°C 71% 18.8 mph NW30.3 kmh NW 26.0 mph41.8 kmh 29.90 in1012.5 mb 0.00 in0.0 mm 0.00 in0.0 mm 0.01 in0.3 mm
04:30 PM 39.2°F4.0°C 30.6°F-0.8°C 71% 18.2 mph NW29.3 kmh NW 21.0 mph33.8 kmh 29.91 in1012.9 mb 0.00 in0.0 mm 0.00 in0.0 mm 0.01 in0.3 mm
04:31 PM 39.2°F4.0°C 30.9°F-0.6°C 72% 18.3 mph NW29.5 kmh NW 21.0 mph33.8 kmh 29.91 in1012.9 mb 0.00 in0.0 mm 0.00 in0.0 mm 0.01 in0.3 mm
04:32 PM 39.2°F4.0°C 30.9°F-0.6°C 72% 20.9 mph NW33.6 kmh NW 23.0 mph37.0 kmh 29.91 in1012.9 mb 0.00 in0.0 mm 0.00 in0.0 mm 0.01 in0.3 mm
04:33 PM 39.2°F4.0°C 30.9°F-0.6°C 72% 22.1 mph NW35.6 kmh NW 26.0 mph41.8 kmh 29.91 in1012.9 mb 0.00 in0.0 mm 0.00 in0.0 mm 0.01 in0.3 mm
04:34 PM 39.2°F4.0°C 30.9°F-0.6°C 72% 23.4 mph NW37.7 kmh NW 26.0 mph41.8 kmh 29.91 in1012.9 mb 0.00 in0.0 mm 0.00 in0.0 mm 0.01 in0.3 mm
04:35 PM 39.2°F4.0°C 30.9°F-0.6°C 72% 19.6 mph NW31.5 kmh NW 26.0 mph41.8 kmh 29.91 in1012.9 mb 0.00 in0.0 mm 0.00 in0.0 mm 0.01 in0.3 mm
04:36 PM 39.2°F4.0°C 30.9°F-0.6°C 72% 21.9 mph NW35.2 kmh NW 25.0 mph40.2 kmh 29.91 in1012.9 mb 0.00 in0.0 mm 0.00 in0.0 mm 0.01 in0.3 mm
04:37 PM 39.2°F4.0°C 30.9°F-0.6°C 72% 22.3 mph NW35.9 kmh NW 25.0 mph40.2 kmh 29.91 in1012.9 mb 0.00 in0.0 mm 0.00 in0.0 mm 0.01 in0.3 mm
04:38 PM 39.2°F4.0°C 31.3°F-0.4°C 73% 21.2 mph NW34.1 kmh NW 25.0 mph40.2 kmh 29.91 in1012.9 mb 0.00 in0.0 mm 0.00 in0.0 mm 0.01 in0.3 mm
04:39 PM 39.2°F4.0°C 31.3°F-0.4°C 73% 20.6 mph NW33.2 kmh NW 24.0 mph38.6 kmh 29.91 in1012.9 mb 0.00 in0.0 mm 0.00 in0.0 mm 0.01 in0.3 mm
04:40 PM 39.1°F3.9°C 31.2°F-0.4°C 73% 22.3 mph NW35.9 kmh NW 25.0 mph40.2 kmh 29.91 in1012.9 mb 0.00 in0.0 mm 0.00 in0.0 mm 0.01 in0.3 mm
04:41 PM 39.1°F3.9°C 31.2°F-0.4°C 73% 20.1 mph NW32.3 kmh NW 25.0 mph40.2 kmh 29.91 in1012.9 mb 0.00 in0.0 mm 0.00 in0.0 mm 0.01 in0.3 mm
04:42 PM 39.1°F3.9°C 31.2°F-0.4°C 73% 22.0 mph NW35.4 kmh NW 26.0 mph41.8 kmh 29.91 in1012.9 mb 0.00 in0.0 mm 0.00 in0.0 mm 0.01 in0.3 mm
04:43 PM 39.0°F3.9°C 31.4°F-0.3°C 74% 20.8 mph NW33.5 kmh NW 26.0 mph41.8 kmh 29.91 in1012.9 mb 0.00 in0.0 mm 0.00 in0.0 mm 0.01 in0.3 mm
04:44 PM 39.0°F3.9°C 31.1°F-0.5°C 73% 22.0 mph NW35.4 kmh NW 27.0 mph43.5 kmh 29.91 in1012.9 mb 0.00 in0.0 mm 0.00 in0.0 mm 0.01 in0.3 mm
04:45 PM 39.1°F3.9°C 31.2°F-0.4°C 73% 22.0 mph NW35.4 kmh NW 26.0 mph41.8 kmh 29.91 in1012.9 mb 0.00 in0.0 mm 0.00 in0.0 mm 0.01 in0.3 mm
04:46 PM 39.1°F3.9°C 30.8°F-0.7°C 72% 19.8 mph NW31.9 kmh NW 21.0 mph33.8 kmh 29.91 in1012.9 mb 0.00 in0.0 mm 0.00 in0.0 mm 0.01 in0.3 mm
04:47 PM 39.1°F3.9°C 31.2°F-0.4°C 73% 21.5 mph NW34.6 kmh NW 24.0 mph38.6 kmh 29.91 in1012.9 mb 0.00 in0.0 mm 0.00 in0.0 mm 0.01 in0.3 mm
04:48 PM 39.1°F3.9°C 30.8°F-0.7°C 72% 22.6 mph NW36.4 kmh NW 27.0 mph43.5 kmh 29.91 in1012.9 mb 0.00 in0.0 mm 0.00 in0.0 mm 0.01 in0.3 mm
04:49 PM 39.0°F3.9°C 31.1°F-0.5°C 73% 20.9 mph NW33.6 kmh NW 27.0 mph43.5 kmh 29.91 in1012.9 mb 0.00 in0.0 mm 0.00 in0.0 mm 0.01 in0.3 mm
04:50 PM 39.0°F3.9°C 31.1°F-0.5°C 73% 23.3 mph NW37.5 kmh NW 26.0 mph41.8 kmh 29.91 in1012.9 mb 0.00 in0.0 mm 0.00 in0.0 mm 0.01 in0.3 mm
04:51 PM 39.1°F3.9°C 30.8°F-0.7°C 72% 22.9 mph NW36.9 kmh NW 26.0 mph41.8 kmh 29.91 in1012.9 mb 0.00 in0.0 mm 0.00 in0.0 mm 0.01 in0.3 mm
04:52 PM 39.0°F3.9°C 30.8°F-0.7°C 72% 22.5 mph NW36.2 kmh NW 26.0 mph41.8 kmh 29.91 in1012.9 mb 0.00 in0.0 mm 0.00 in0.0 mm 0.01 in0.3 mm
04:53 PM 39.1°F3.9°C 30.8°F-0.7°C 72% 25.5 mph NW41.0 kmh NW 28.0 mph45.1 kmh 29.91 in1012.9 mb 0.00 in0.0 mm 0.00 in0.0 mm 0.01 in0.3 mm
04:54 PM 39.1°F3.9°C 30.8°F-0.7°C 72% 22.0 mph NW35.4 kmh NW 28.0 mph45.1 kmh 29.92 in1013.2 mb 0.00 in0.0 mm 0.00 in0.0 mm 0.01 in0.3 mm
04:55 PM 39.0°F3.9°C 31.1°F-0.5°C 73% 22.0 mph NW35.4 kmh NW 25.0 mph40.2 kmh 29.92 in1013.2 mb 0.00 in0.0 mm 0.00 in0.0 mm 0.01 in0.3 mm
04:56 PM 38.9°F3.8°C 31.0°F-0.6°C 73% 23.1 mph NW37.2 kmh NW 26.0 mph41.8 kmh 29.92 in1013.2 mb 0.00 in0.0 mm 0.00 in0.0 mm 0.01 in0.3 mm
04:57 PM 38.9°F3.8°C 31.0°F-0.6°C 73% 23.5 mph NW37.8 kmh NW 26.0 mph41.8 kmh 29.92 in1013.2 mb 0.00 in0.0 mm 0.00 in0.0 mm 0.01 in0.3 mm
04:58 PM 38.9°F3.8°C 31.0°F-0.6°C 73% 24.8 mph NW39.9 kmh NW 29.0 mph46.7 kmh 29.92 in1013.2 mb 0.00 in0.0 mm 0.00 in0.0 mm 0.01 in0.3 mm
04:59 PM 38.9°F3.8°C 31.0°F-0.6°C 73% 23.4 mph NW37.7 kmh NW 29.0 mph46.7 kmh 29.92 in1013.2 mb 0.00 in0.0 mm 0.00 in0.0 mm 0.01 in0.3 mm
05:00 PM 38.9°F3.8°C 31.0°F-0.6°C 73% 23.6 mph NW38.0 kmh NW 27.0 mph43.5 kmh 29.92 in1013.2 mb 0.00 in0.0 mm 0.00 in0.0 mm 0.01 in0.3 mm
05:01 PM 38.9°F3.8°C 31.0°F-0.6°C 73% 21.7 mph NW34.9 kmh NW 26.0 mph41.8 kmh 29.92 in1013.2 mb 0.00 in0.0 mm 0.00 in0.0 mm 0.01 in0.3 mm
05:02 PM 38.8°F3.8°C 31.2°F-0.4°C 74% 24.0 mph NW38.6 kmh NW 28.0 mph45.1 kmh 29.92 in1013.2 mb 0.00 in0.0 mm 0.00 in0.0 mm 0.01 in0.3 mm
05:03 PM 38.8°F3.8°C 31.2°F-0.4°C 74% 23.1 mph NW37.2 kmh NW 28.0 mph45.1 kmh 29.92 in1013.2 mb 0.00 in0.0 mm 0.00 in0.0 mm 0.01 in0.3 mm
05:04 PM 38.8°F3.8°C 31.2°F-0.4°C 74% 23.5 mph NW37.8 kmh NW 26.0 mph41.8 kmh 29.92 in1013.2 mb 0.00 in0.0 mm 0.00 in0.0 mm 0.01 in0.3 mm
05:05 PM 38.8°F3.8°C 31.2°F-0.4°C 74% 26.0 mph NW41.8 kmh NW 29.0 mph46.7 kmh 29.92 in1013.2 mb 0.00 in0.0 mm 0.00 in0.0 mm 0.01 in0.3 mm
05:06 PM 38.8°F3.8°C 30.9°F-0.6°C 73% 23.5 mph NW37.8 kmh NW 29.0 mph46.7 kmh 29.92 in1013.2 mb 0.00 in0.0 mm 0.00 in0.0 mm 0.01 in0.3 mm
05:07 PM 38.8°F3.8°C 31.2°F-0.4°C 74% 22.8 mph NW36.7 kmh NW 29.0 mph46.7 kmh 29.93 in1013.5 mb 0.00 in0.0 mm 0.00 in0.0 mm 0.01 in0.3 mm
05:08 PM 38.8°F3.8°C 30.9°F-0.6°C 73% 26.1 mph NW42.0 kmh NW 30.0 mph48.3 kmh 29.93 in1013.5 mb 0.00 in0.0 mm 0.00 in0.0 mm 0.01 in0.3 mm
05:09 PM 38.9°F3.8°C 31.0°F-0.6°C 73% 27.0 mph NW43.5 kmh NW 30.0 mph48.3 kmh 29.93 in1013.5 mb 0.00 in0.0 mm 0.00 in0.0 mm 0.01 in0.3 mm
05:10 PM 38.9°F3.8°C 31.0°F-0.6°C 73% 23.0 mph NW37.0 kmh NW 30.0 mph48.3 kmh 29.93 in1013.5 mb 0.00 in0.0 mm 0.00 in0.0 mm 0.01 in0.3 mm
05:11 PM 38.8°F3.8°C 31.2°F-0.4°C 74% 26.1 mph NW42.0 kmh NW 29.0 mph46.7 kmh 29.93 in1013.5 mb 0.00 in0.0 mm 0.00 in0.0 mm 0.01 in0.3 mm
05:12 PM 38.8°F3.8°C 30.9°F-0.6°C 73% 23.5 mph NW37.8 kmh NW 29.0 mph46.7 kmh 29.93 in1013.5 mb 0.00 in0.0 mm 0.00 in0.0 mm 0.01 in0.3 mm
05:13 PM 38.8°F3.8°C 30.9°F-0.6°C 73% 25.7 mph NW41.4 kmh NW 29.0 mph46.7 kmh 29.93 in1013.5 mb 0.00 in0.0 mm 0.00 in0.0 mm 0.01 in0.3 mm
05:14 PM 38.8°F3.8°C 31.2°F-0.4°C 74% 23.6 mph NW38.0 kmh NW 29.0 mph46.7 kmh 29.93 in1013.5 mb 0.00 in0.0 mm 0.00 in0.0 mm 0.01 in0.3 mm
05:15 PM 38.8°F3.8°C 30.9°F-0.6°C 73% 24.6 mph NW39.6 kmh NW 31.0 mph49.9 kmh 29.93 in1013.5 mb 0.00 in0.0 mm 0.00 in0.0 mm 0.01 in0.3 mm
05:16 PM 38.8°F3.8°C 30.9°F-0.6°C 73% 22.4 mph NW36.0 kmh NW 29.0 mph46.7 kmh 29.93 in1013.5 mb 0.00 in0.0 mm 0.00 in0.0 mm 0.01 in0.3 mm
05:17 PM 38.8°F3.8°C 31.2°F-0.4°C 74% 23.3 mph NW37.5 kmh NW 25.0 mph40.2 kmh 29.93 in1013.5 mb 0.00 in0.0 mm 0.00 in0.0 mm 0.01 in0.3 mm
05:18 PM 38.7°F3.7°C 31.1°F-0.5°C 74% 24.7 mph NW39.8 kmh NW 27.0 mph43.5 kmh 29.93 in1013.5 mb 0.00 in0.0 mm 0.00 in0.0 mm 0.01 in0.3 mm
05:19 PM 38.8°F3.8°C 31.2°F-0.4°C 74% 22.0 mph NW35.4 kmh NW 27.0 mph43.5 kmh 29.93 in1013.5 mb 0.00 in0.0 mm 0.00 in0.0 mm 0.01 in0.3 mm
05:20 PM 38.7°F3.7°C 31.1°F-0.5°C 74% 22.7 mph NW36.5 kmh NW 29.0 mph46.7 kmh 29.93 in1013.5 mb 0.00 in0.0 mm 0.00 in0.0 mm 0.01 in0.3 mm
05:21 PM 38.6°F3.7°C 31.0°F-0.6°C 74% 23.3 mph NW37.5 kmh NW 29.0 mph46.7 kmh 29.93 in1013.5 mb 0.00 in0.0 mm 0.00 in0.0 mm 0.01 in0.3 mm
05:22 PM 38.6°F3.7°C 31.0°F-0.6°C 74% 24.2 mph NW38.9 kmh NW 29.0 mph46.7 kmh 29.93 in1013.5 mb 0.00 in0.0 mm 0.00 in0.0 mm 0.01 in0.3 mm
05:23 PM 38.7°F3.7°C 31.1°F-0.5°C 74% 24.9 mph NW40.1 kmh NW 29.0 mph46.7 kmh 29.93 in1013.5 mb 0.00 in0.0 mm 0.00 in0.0 mm 0.01 in0.3 mm
05:24 PM 38.7°F3.7°C 30.8°F-0.7°C 73% 26.1 mph NW42.0 kmh NW 28.0 mph45.1 kmh 29.93 in1013.5 mb 0.00 in0.0 mm 0.00 in0.0 mm 0.01 in0.3 mm
05:25 PM 38.8°F3.8°C 31.2°F-0.4°C 74% 21.9 mph NW35.2 kmh NW 28.0 mph45.1 kmh 29.94 in1013.9 mb 0.00 in0.0 mm 0.00 in0.0 mm 0.01 in0.3 mm
05:26 PM 38.7°F3.7°C 30.8°F-0.7°C 73% 23.4 mph NW37.7 kmh NW 28.0 mph45.1 kmh 29.94 in1013.9 mb 0.00 in0.0 mm 0.00 in0.0 mm 0.01 in0.3 mm
05:27 PM 38.7°F3.7°C 30.5°F-0.8°C 72% 24.2 mph NW38.9 kmh NW 28.0 mph45.1 kmh 29.94 in1013.9 mb 0.00 in0.0 mm 0.00 in0.0 mm 0.01 in0.3 mm
05:28 PM 38.7°F3.7°C 30.8°F-0.7°C 73% 23.0 mph NW37.0 kmh NW 26.0 mph41.8 kmh 29.94 in1013.9 mb 0.00 in0.0 mm 0.00 in0.0 mm 0.01 in0.3 mm
05:29 PM 38.6°F3.7°C 30.7°F-0.7°C 73% 24.0 mph NW38.6 kmh NW 27.0 mph43.5 kmh 29.94 in1013.9 mb 0.00 in0.0 mm 0.00 in0.0 mm 0.01 in0.3 mm
05:30 PM 38.7°F3.7°C 31.1°F-0.5°C 74% 26.9 mph NW43.3 kmh NW 30.0 mph48.3 kmh 29.94 in1013.9 mb 0.00 in0.0 mm 0.00 in0.0 mm 0.01 in0.3 mm
05:31 PM 38.8°F3.8°C 30.9°F-0.6°C 73% 24.6 mph NW39.6 kmh NW 30.0 mph48.3 kmh 29.94 in1013.9 mb 0.00 in0.0 mm 0.00 in0.0 mm 0.01 in0.3 mm
05:32 PM 38.7°F3.7°C 30.8°F-0.7°C 73% 23.8 mph NW38.3 kmh NW 28.0 mph45.1 kmh 29.94 in1013.9 mb 0.00 in0.0 mm 0.00 in0.0 mm 0.01 in0.3 mm
05:33 PM 38.8°F3.8°C 30.6°F-0.8°C 72% 26.1 mph NW42.0 kmh NW 30.0 mph48.3 kmh 29.94 in1013.9 mb 0.00 in0.0 mm 0.00 in0.0 mm 0.01 in0.3 mm
05:34 PM 38.8°F3.8°C 30.9°F-0.6°C 73% 22.6 mph NW36.4 kmh NW 30.0 mph48.3 kmh 29.94 in1013.9 mb 0.00 in0.0 mm 0.00 in0.0 mm 0.01 in0.3 mm
05:35 PM 38.6°F3.7°C 30.7°F-0.7°C 73% 22.3 mph NW35.9 kmh NW 26.0 mph41.8 kmh 29.94 in1013.9 mb 0.00 in0.0 mm 0.00 in0.0 mm 0.01 in0.3 mm
05:36 PM 38.6°F3.7°C 30.7°F-0.7°C 73% 22.0 mph NW35.4 kmh NW 26.0 mph41.8 kmh 29.94 in1013.9 mb 0.00 in0.0 mm 0.00 in0.0 mm 0.01 in0.3 mm
05:37 PM 38.5°F3.6°C 30.9°F-0.6°C 74% 24.0 mph NW38.6 kmh NW 28.0 mph45.1 kmh 29.94 in1013.9 mb 0.00 in0.0 mm 0.00 in0.0 mm 0.01 in0.3 mm
05:38 PM 38.6°F3.7°C 30.7°F-0.7°C 73% 26.0 mph NW41.8 kmh NW 29.0 mph46.7 kmh 29.94 in1013.9 mb 0.00 in0.0 mm 0.00 in0.0 mm 0.01 in0.3 mm
05:39 PM 38.6°F3.7°C 30.7°F-0.7°C 73% 25.6 mph NW41.2 kmh NW 28.0 mph45.1 kmh 29.94 in1013.9 mb 0.00 in0.0 mm 0.00 in0.0 mm 0.01 in0.3 mm
05:40 PM 38.6°F3.7°C 30.7°F-0.7°C 73% 22.5 mph NW36.2 kmh NW 28.0 mph45.1 kmh 29.94 in1013.9 mb 0.00 in0.0 mm 0.00 in0.0 mm 0.01 in0.3 mm
05:41 PM 38.6°F3.7°C 31.0°F-0.6°C 74% 24.0 mph NW38.6 kmh NW 27.0 mph43.5 kmh 29.94 in1013.9 mb 0.00 in0.0 mm 0.00 in0.0 mm 0.01 in0.3 mm
05:42 PM 38.6°F3.7°C 30.7°F-0.7°C 73% 22.4 mph NW36.0 kmh NW 26.0 mph41.8 kmh 29.94 in1013.9 mb 0.00 in0.0 mm 0.00 in0.0 mm 0.01 in0.3 mm
05:43 PM 38.6°F3.7°C 31.0°F-0.6°C 74% 24.3 mph NW39.1 kmh NW 27.0 mph43.5 kmh 29.94 in1013.9 mb 0.00 in0.0 mm 0.00 in0.0 mm 0.01 in0.3 mm
05:44 PM 38.6°F3.7°C 31.0°F-0.6°C 74% 22.5 mph NW36.2 kmh NW 27.0 mph43.5 kmh 29.94 in1013.9 mb 0.00 in0.0 mm 0.00 in0.0 mm 0.01 in0.3 mm
05:45 PM 38.5°F3.6°C 30.9°F-0.6°C 74% 23.8 mph NW38.3 kmh NW 27.0 mph43.5 kmh 29.94 in1013.9 mb 0.00 in0.0 mm 0.00 in0.0 mm 0.01 in0.3 mm
05:46 PM 38.6°F3.7°C 31.0°F-0.6°C 74% 25.1 mph NW40.4 kmh NW 28.0 mph45.1 kmh 29.94 in1013.9 mb 0.00 in0.0 mm 0.00 in0.0 mm 0.01 in0.3 mm
05:47 PM 38.5°F3.6°C 30.9°F-0.6°C 74% 23.0 mph NW37.0 kmh NW 28.0 mph45.1 kmh 29.94 in1013.9 mb 0.00 in0.0 mm 0.00 in0.0 mm 0.01 in0.3 mm
05:48 PM 38.5°F3.6°C 30.9°F-0.6°C 74% 19.9 mph NW32.0 kmh NW 25.0 mph40.2 kmh 29.94 in1013.9 mb 0.00 in0.0 mm 0.00 in0.0 mm 0.01 in0.3 mm
05:49 PM 38.4°F3.6°C 31.2°F-0.4°C 75% 21.9 mph NW35.2 kmh NW 26.0 mph41.8 kmh 29.94 in1013.9 mb 0.00 in0.0 mm 0.00 in0.0 mm 0.01 in0.3 mm
05:50 PM 38.4°F3.6°C 31.2°F-0.4°C 75% 21.0 mph NW33.8 kmh NW 26.0 mph41.8 kmh 29.94 in1013.9 mb 0.00 in0.0 mm 0.00 in0.0 mm 0.01 in0.3 mm
05:51 PM 38.4°F3.6°C 31.2°F-0.4°C 75% 22.9 mph NW36.9 kmh NW 26.0 mph41.8 kmh 29.94 in1013.9 mb 0.00 in0.0 mm 0.00 in0.0 mm 0.01 in0.3 mm
05:52 PM 38.4°F3.6°C 31.2°F-0.4°C 75% 24.0 mph NW38.6 kmh NW 28.0 mph45.1 kmh 29.95 in1014.2 mb 0.00 in0.0 mm 0.00 in0.0 mm 0.01 in0.3 mm
05:53 PM 38.5°F3.6°C 31.3°F-0.4°C 75% 26.0 mph NW41.8 kmh NW 29.0 mph46.7 kmh 29.95 in1014.2 mb 0.00 in0.0 mm 0.00 in0.0 mm 0.01 in0.3 mm
05:54 PM 38.5°F3.6°C 31.3°F-0.4°C 75% 22.5 mph NW36.2 kmh NW 29.0 mph46.7 kmh 29.95 in1014.2 mb 0.00 in0.0 mm 0.00 in0.0 mm 0.01 in0.3 mm
05:55 PM 38.4°F3.6°C 31.2°F-0.4°C 75% 22.5 mph NW36.2 kmh NW 28.0 mph45.1 kmh 29.95 in1014.2 mb 0.00 in0.0 mm 0.00 in0.0 mm 0.01 in0.3 mm
05:56 PM 38.4°F3.6°C 31.5°F-0.3°C 76% 22.7 mph NW36.5 kmh NW 26.0 mph41.8 kmh 29.95 in1014.2 mb 0.00 in0.0 mm 0.00 in0.0 mm 0.01 in0.3 mm
05:57 PM 38.4°F3.6°C 31.5°F-0.3°C 76% 23.1 mph NW37.2 kmh NW 26.0 mph41.8 kmh 29.95 in1014.2 mb 0.00 in0.0 mm 0.00 in0.0 mm 0.01 in0.3 mm
05:58 PM 38.4°F3.6°C 31.5°F-0.3°C 76% 25.2 mph NW40.6 kmh NW 29.0 mph46.7 kmh 29.95 in1014.2 mb 0.00 in0.0 mm 0.00 in0.0 mm 0.01 in0.3 mm
05:59 PM 38.4°F3.6°C 31.2°F-0.4°C 75% 25.0 mph NW40.2 kmh NW 30.0 mph48.3 kmh 29.95 in1014.2 mb 0.00 in0.0 mm 0.00 in0.0 mm 0.01 in0.3 mm
06:00 PM 38.5°F3.6°C 31.3°F-0.4°C 75% 24.3 mph NW39.1 kmh NW 30.0 mph48.3 kmh 29.95 in1014.2 mb 0.00 in0.0 mm 0.00 in0.0 mm 0.01 in0.3 mm
06:01 PM 38.4°F3.6°C 31.5°F-0.3°C 76% 24.3 mph NW39.1 kmh NW 29.0 mph46.7 kmh 29.95 in1014.2 mb 0.00 in0.0 mm 0.00 in0.0 mm 0.01 in0.3 mm
06:02 PM 38.4°F3.6°C 31.5°F-0.3°C 76% 23.1 mph NW37.2 kmh NW 27.0 mph43.5 kmh 29.95 in1014.2 mb 0.00 in0.0 mm 0.00 in0.0 mm 0.01 in0.3 mm
06:03 PM 38.3°F3.5°C 31.4°F-0.3°C 76% 22.0 mph NW35.4 kmh NW 27.0 mph43.5 kmh 29.95 in1014.2 mb 0.00 in0.0 mm 0.00 in0.0 mm 0.01 in0.3 mm
06:04 PM 38.3°F3.5°C 31.7°F-0.2°C 77% 22.4 mph NW36.0 kmh NW 25.0 mph40.2 kmh 29.96 in1014.6 mb 0.00 in0.0 mm 0.00 in0.0 mm 0.01 in0.3 mm
06:05 PM 38.3°F3.5°C 31.4°F-0.3°C 76% 25.8 mph NW41.5 kmh NW 30.0 mph48.3 kmh 29.95 in1014.2 mb 0.00 in0.0 mm 0.00 in0.0 mm 0.01 in0.3 mm
06:06 PM 38.3°F3.5°C 31.4°F-0.3°C 76% 22.6 mph NW36.4 kmh NW 30.0 mph48.3 kmh 29.96 in1014.6 mb 0.00 in0.0 mm 0.00 in0.0 mm 0.01 in0.3 mm
06:07 PM 38.3°F3.5°C 31.1°F-0.5°C 75% 23.3 mph NW37.5 kmh NW 27.0 mph43.5 kmh 29.96 in1014.6 mb 0.00 in0.0 mm 0.00 in0.0 mm 0.01 in0.3 mm
06:08 PM 38.3°F3.5°C 31.4°F-0.3°C 76% 23.0 mph NW37.0 kmh NW 27.0 mph43.5 kmh 29.96 in1014.6 mb 0.00 in0.0 mm 0.00 in0.0 mm 0.01 in0.3 mm
06:09 PM 38.3°F3.5°C 31.4°F-0.3°C 76% 23.1 mph NW37.2 kmh NW 27.0 mph43.5 kmh 29.96 in1014.6 mb 0.00 in0.0 mm 0.00 in0.0 mm 0.01 in0.3 mm
06:10 PM 38.3°F3.5°C 31.4°F-0.3°C 76% 22.5 mph NW36.2 kmh NW 27.0 mph43.5 kmh 29.96 in1014.6 mb 0.00 in0.0 mm 0.00 in0.0 mm 0.01 in0.3 mm
06:11 PM 38.4°F3.6°C 31.2°F-0.4°C 75% 24.5 mph NW39.4 kmh NW 27.0 mph43.5 kmh 29.96 in1014.6 mb 0.00 in0.0 mm 0.00 in0.0 mm 0.01 in0.3 mm
06:12 PM 38.3°F3.5°C 31.4°F-0.3°C 76% 23.5 mph NW37.8 kmh NW 27.0 mph43.5 kmh 29.96 in1014.6 mb 0.00 in0.0 mm 0.00 in0.0 mm 0.01 in0.3 mm
06:13 PM 38.4°F3.6°C 31.5°F-0.3°C 76% 20.8 mph NW33.5 kmh NW 26.0 mph41.8 kmh 29.96 in1014.6 mb 0.00 in0.0 mm 0.00 in0.0 mm 0.01 in0.3 mm
06:14 PM 38.3°F3.5°C 31.4°F-0.3°C 76% 23.6 mph NW38.0 kmh NW 27.0 mph43.5 kmh 29.96 in1014.6 mb 0.00 in0.0 mm 0.00 in0.0 mm 0.01 in0.3 mm
06:15 PM 38.3°F3.5°C 31.4°F-0.3°C 76% 22.0 mph NW35.4 kmh NW 24.0 mph38.6 kmh 29.96 in1014.6 mb 0.00 in0.0 mm 0.00 in0.0 mm 0.01 in0.3 mm
06:16 PM 38.3°F3.5°C 31.4°F-0.3°C 76% 22.0 mph NW35.4 kmh NW 25.0 mph40.2 kmh 29.96 in1014.6 mb 0.00 in0.0 mm 0.00 in0.0 mm 0.01 in0.3 mm
06:17 PM 38.3°F3.5°C 31.4°F-0.3°C 76% 19.7 mph NW31.7 kmh NW 22.0 mph35.4 kmh 29.96 in1014.6 mb 0.00 in0.0 mm 0.00 in0.0 mm 0.01 in0.3 mm
06:18 PM 38.3°F3.5°C 31.4°F-0.3°C 76% 21.9 mph NW35.2 kmh NW 25.0 mph40.2 kmh 29.96 in1014.6 mb 0.00 in0.0 mm 0.00 in0.0 mm 0.01 in0.3 mm
06:19 PM 38.2°F3.4°C 31.3°F-0.4°C 76% 23.3 mph NW37.5 kmh NW 26.0 mph41.8 kmh 29.96 in1014.6 mb 0.00 in0.0 mm 0.00 in0.0 mm 0.01 in0.3 mm
06:20 PM 38.3°F3.5°C 31.1°F-0.5°C 75% 24.1 mph NW38.8 kmh NW 26.0 mph41.8 kmh 29.96 in1014.6 mb 0.00 in0.0 mm 0.00 in0.0 mm 0.01 in0.3 mm
06:21 PM 38.3°F3.5°C 31.1°F-0.5°C 75% 22.0 mph NW35.4 kmh NW 26.0 mph41.8 kmh 29.96 in1014.6 mb 0.00 in0.0 mm 0.00 in0.0 mm 0.01 in0.3 mm
06:22 PM 38.3°F3.5°C 31.1°F-0.5°C 75% 23.0 mph NW37.0 kmh NW 26.0 mph41.8 kmh 29.96 in1014.6 mb 0.00 in0.0 mm 0.00 in0.0 mm 0.01 in0.3 mm
06:23 PM 38.3°F3.5°C 31.1°F-0.5°C 75% 20.3 mph NW32.7 kmh NW 25.0 mph40.2 kmh 29.96 in1014.6 mb 0.00 in0.0 mm 0.00 in0.0 mm 0.01 in0.3 mm
06:24 PM 38.3°F3.5°C 31.1°F-0.5°C 75% 22.3 mph NW35.9 kmh NW 25.0 mph40.2 kmh 29.96 in1014.6 mb 0.00 in0.0 mm 0.00 in0.0 mm 0.01 in0.3 mm
06:25 PM 38.3°F3.5°C 31.1°F-0.5°C 75% 20.6 mph NW33.2 kmh NW 25.0 mph40.2 kmh 29.96 in1014.6 mb 0.00 in0.0 mm 0.00 in0.0 mm 0.01 in0.3 mm
06:26 PM 38.3°F3.5°C 31.1°F-0.5°C 75% 22.5 mph NW36.2 kmh NW 25.0 mph40.2 kmh 29.96 in1014.6 mb 0.00 in0.0 mm 0.00 in0.0 mm 0.01 in0.3 mm
06:27 PM 38.3°F3.5°C 31.1°F-0.5°C 75% 24.9 mph NW40.1 kmh NW 29.0 mph46.7 kmh 29.96 in1014.6 mb 0.00 in0.0 mm 0.00 in0.0 mm 0.01 in0.3 mm
06:28 PM 38.3°F3.5°C 31.1°F-0.5°C 75% 23.2 mph NW37.3 kmh NW 30.0 mph48.3 kmh 29.96 in1014.6 mb 0.00 in0.0 mm 0.00 in0.0 mm 0.01 in0.3 mm
06:29 PM 38.3°F3.5°C 31.1°F-0.5°C 75% 24.0 mph NW38.6 kmh NW 27.0 mph43.5 kmh 29.96 in1014.6 mb 0.00 in0.0 mm 0.00 in0.0 mm 0.01 in0.3 mm
06:30 PM 38.3°F3.5°C 31.4°F-0.3°C 76% 23.0 mph NW37.0 kmh NW 27.0 mph43.5 kmh 29.96 in1014.6 mb 0.00 in0.0 mm 0.00 in0.0 mm 0.01 in0.3 mm
06:31 PM 38.2°F3.4°C 31.3°F-0.4°C 76% 25.6 mph NW41.2 kmh NW 27.0 mph43.5 kmh 29.96 in1014.6 mb 0.00 in0.0 mm 0.00 in0.0 mm 0.01 in0.3 mm
06:32 PM 38.3°F3.5°C 31.1°F-0.5°C 75% 23.9 mph NW38.5 kmh NW 28.0 mph45.1 kmh 29.96 in1014.6 mb 0.00 in0.0 mm 0.00 in0.0 mm 0.01 in0.3 mm
06:33 PM 38.2°F3.4°C 31.3°F-0.4°C 76% 20.9 mph NW33.6 kmh NW 28.0 mph45.1 kmh 29.96 in1014.6 mb 0.00 in0.0 mm 0.00 in0.0 mm 0.01 in0.3 mm
06:34 PM 38.3°F3.5°C 31.4°F-0.3°C 76% 19.6 mph NW31.5 kmh NW 25.0 mph40.2 kmh 29.96 in1014.6 mb 0.00 in0.0 mm 0.00 in0.0 mm 0.01 in0.3 mm
06:35 PM 38.2°F3.4°C 31.3°F-0.4°C 76% 21.3 mph NW34.3 kmh NW 24.0 mph38.6 kmh 29.97 in1014.9 mb 0.00 in0.0 mm 0.00 in0.0 mm 0.01 in0.3 mm
06:36 PM 38.1°F3.4°C 31.2°F-0.4°C 76% 20.9 mph NW33.6 kmh NW 24.0 mph38.6 kmh 29.97 in1014.9 mb 0.00 in0.0 mm 0.00 in0.0 mm 0.01 in0.3 mm
06:37 PM 38.2°F3.4°C 31.3°F-0.4°C 76% 21.8 mph NW35.1 kmh NW 26.0 mph41.8 kmh 29.97 in1014.9 mb 0.00 in0.0 mm 0.00 in0.0 mm 0.01 in0.3 mm
06:38 PM 38.1°F3.4°C 31.2°F-0.4°C 76% 22.9 mph NW36.9 kmh NW 26.0 mph41.8 kmh 29.97 in1014.9 mb 0.00 in0.0 mm 0.00 in0.0 mm 0.01 in0.3 mm
06:39 PM 38.1°F3.4°C 31.2°F-0.4°C 76% 20.7 mph NW33.3 kmh NW 25.0 mph40.2 kmh 29.97 in1014.9 mb 0.00 in0.0 mm 0.00 in0.0 mm 0.01 in0.3 mm
06:40 PM 38.1°F3.4°C 31.2°F-0.4°C 76% 22.1 mph NW35.6 kmh NW 25.0 mph40.2 kmh 29.97 in1014.9 mb 0.00 in0.0 mm 0.00 in0.0 mm 0.01 in0.3 mm
06:41 PM 38.2°F3.4°C 31.3°F-0.4°C 76% 24.1 mph NW38.8 kmh NW 28.0 mph45.1 kmh 29.97 in1014.9 mb 0.00 in0.0 mm 0.00 in0.0 mm 0.01 in0.3 mm
06:42 PM 38.2°F3.4°C 31.0°F-0.6°C 75% 25.0 mph NW40.2 kmh NW 28.0 mph45.1 kmh 29.97 in1014.9 mb 0.00 in0.0 mm 0.00 in0.0 mm 0.01 in0.3 mm
06:43 PM 38.3°F3.5°C 31.1°F-0.5°C 75% 23.9 mph NW38.5 kmh NW 27.0 mph43.5 kmh 29.97 in1014.9 mb 0.00 in0.0 mm 0.00 in0.0 mm 0.01 in0.3 mm
06:44 PM 38.3°F3.5°C 31.1°F-0.5°C 75% 22.8 mph NW36.7 kmh NW 27.0 mph43.5 kmh 29.97 in1014.9 mb 0.00 in0.0 mm 0.00 in0.0 mm 0.01 in0.3 mm
06:45 PM 38.3°F3.5°C 31.1°F-0.5°C 75% 22.0 mph NW35.4 kmh NW 27.0 mph43.5 kmh 29.97 in1014.9 mb 0.00 in0.0 mm 0.00 in0.0 mm 0.01 in0.3 mm
06:46 PM 38.2°F3.4°C 31.0°F-0.6°C 75% 18.6 mph NW29.9 kmh NW 24.0 mph38.6 kmh 29.97 in1014.9 mb 0.00 in0.0 mm 0.00 in0.0 mm 0.01 in0.3 mm
06:47 PM 38.2°F3.4°C 31.3°F-0.4°C 76% 17.5 mph NW28.2 kmh NW 20.0 mph32.2 kmh 29.97 in1014.9 mb 0.00 in0.0 mm 0.00 in0.0 mm 0.01 in0.3 mm
06:48 PM 38.1°F3.4°C 31.2°F-0.4°C 76% 18.4 mph NW29.6 kmh NW 20.0 mph32.2 kmh 29.97 in1014.9 mb 0.00 in0.0 mm 0.00 in0.0 mm 0.01 in0.3 mm
06:49 PM 38.1°F3.4°C 31.2°F-0.4°C 76% 20.5 mph NW33.0 kmh NW 22.0 mph35.4 kmh 29.97 in1014.9 mb 0.00 in0.0 mm 0.00 in0.0 mm 0.01 in0.3 mm
06:50 PM 38.1°F3.4°C 31.2°F-0.4°C 76% 18.0 mph NW29.0 kmh NW 21.0 mph33.8 kmh 29.97 in1014.9 mb 0.00 in0.0 mm 0.00 in0.0 mm 0.01 in0.3 mm
06:51 PM 38.0°F3.3°C 31.1°F-0.5°C 76% 19.0 mph NW30.6 kmh NW 22.0 mph35.4 kmh 29.97 in1014.9 mb 0.00 in0.0 mm 0.00 in0.0 mm 0.01 in0.3 mm
06:52 PM 38.0°F3.3°C 31.1°F-0.5°C 76% 18.7 mph NW30.1 kmh NW 20.0 mph32.2 kmh 29.97 in1014.9 mb 0.00 in0.0 mm 0.00 in0.0 mm 0.01 in0.3 mm
06:53 PM 38.0°F3.3°C 31.1°F-0.5°C 76% 18.9 mph NW30.4 kmh NW 20.0 mph32.2 kmh 29.98 in1015.2 mb 0.00 in0.0 mm 0.00 in0.0 mm 0.01 in0.3 mm
06:54 PM 38.0°F3.3°C 31.1°F-0.5°C 76% 20.1 mph NW32.3 kmh NW 23.0 mph37.0 kmh 29.98 in1015.2 mb 0.00 in0.0 mm 0.00 in0.0 mm 0.01 in0.3 mm
06:55 PM 38.0°F3.3°C 31.1°F-0.5°C 76% 20.1 mph NW32.3 kmh NW 23.0 mph37.0 kmh 29.98 in1015.2 mb 0.00 in0.0 mm 0.00 in0.0 mm 0.01 in0.3 mm
06:56 PM 38.0°F3.3°C 31.1°F-0.5°C 76% 22.1 mph NW35.6 kmh NW 25.0 mph40.2 kmh 29.98 in1015.2 mb 0.00 in0.0 mm 0.00 in0.0 mm 0.01 in0.3 mm
06:57 PM 38.0°F3.3°C 31.1°F-0.5°C 76% 21.7 mph NW34.9 kmh NW 25.0 mph40.2 kmh 29.98 in1015.2 mb 0.00 in0.0 mm 0.00 in0.0 mm 0.01 in0.3 mm
06:58 PM 38.0°F3.3°C 31.1°F-0.5°C 76% 20.7 mph NW33.3 kmh NW 25.0 mph40.2 kmh 29.98 in1015.2 mb 0.00 in0.0 mm 0.00 in0.0 mm 0.01 in0.3 mm
06:59 PM 38.1°F3.4°C 31.2°F-0.4°C 76% 20.2 mph NW32.5 kmh NW 23.0 mph37.0 kmh 29.98 in1015.2 mb 0.00 in0.0 mm 0.00 in0.0 mm 0.01 in0.3 mm
07:00 PM 38.1°F3.4°C 31.2°F-0.4°C 76% 21.0 mph NW33.8 kmh NW 24.0 mph38.6 kmh 29.98 in1015.2 mb 0.00 in0.0 mm 0.00 in0.0 mm 0.01 in0.3 mm
07:01 PM 38.1°F3.4°C 31.2°F-0.4°C 76% 21.6 mph NW34.8 kmh NW 25.0 mph40.2 kmh 29.98 in1015.2 mb 0.00 in0.0 mm 0.00 in0.0 mm 0.01 in0.3 mm
07:02 PM 38.1°F3.4°C 31.2°F-0.4°C 76% 20.4 mph NW32.8 kmh NW 25.0 mph40.2 kmh 29.98 in1015.2 mb 0.00 in0.0 mm 0.00 in0.0 mm 0.01 in0.3 mm
07:03 PM 38.2°F3.4°C 31.3°F-0.4°C 76% 22.4 mph NW36.0 kmh NW 24.0 mph38.6 kmh 29.98 in1015.2 mb 0.00 in0.0 mm 0.00 in0.0 mm 0.01 in0.3 mm
07:04 PM 38.3°F3.5°C 31.4°F-0.3°C 76% 20.9 mph NW33.6 kmh NW 24.0 mph38.6 kmh 29.98 in1015.2 mb 0.00 in0.0 mm 0.00 in0.0 mm 0.01 in0.3 mm
07:05 PM 38.2°F3.4°C 31.3°F-0.4°C 76% 20.9 mph NW33.6 kmh NW 23.0 mph37.0 kmh 29.98 in1015.2 mb 0.00 in0.0 mm 0.00 in0.0 mm 0.01 in0.3 mm
07:06 PM 38.2°F3.4°C 31.3°F-0.4°C 76% 20.9 mph NW33.6 kmh NW 23.0 mph37.0 kmh 29.98 in1015.2 mb 0.00 in0.0 mm 0.00 in0.0 mm 0.01 in0.3 mm
07:07 PM 38.2°F3.4°C 31.3°F-0.4°C 76% 19.0 mph NW30.6 kmh NW 22.0 mph35.4 kmh 29.98 in1015.2 mb 0.00 in0.0 mm 0.00 in0.0 mm 0.01 in0.3 mm
07:08 PM 38.1°F3.4°C 31.2°F-0.4°C 76% 20.0 mph NW32.2 kmh NW 23.0 mph37.0 kmh 29.98 in1015.2 mb 0.00 in0.0 mm 0.00 in0.0 mm 0.01 in0.3 mm
07:09 PM 38.1°F3.4°C 31.2°F-0.4°C 76% 20.3 mph NW32.7 kmh NW 23.0 mph37.0 kmh 29.98 in1015.2 mb 0.00 in0.0 mm 0.00 in0.0 mm 0.01 in0.3 mm
07:10 PM 38.2°F3.4°C 31.3°F-0.4°C 76% 19.1 mph NW30.7 kmh NW 23.0 mph37.0 kmh 29.98 in1015.2 mb 0.00 in0.0 mm 0.00 in0.0 mm 0.01 in0.3 mm
07:11 PM 38.1°F3.4°C 31.2°F-0.4°C 76% 18.5 mph NW29.8 kmh NW 21.0 mph33.8 kmh 29.98 in1015.2 mb 0.00 in0.0 mm 0.00 in0.0 mm 0.01 in0.3 mm
07:12 PM 38.1°F3.4°C 31.2°F-0.4°C 76% 18.5 mph NW29.8 kmh NW 22.0 mph35.4 kmh 29.99 in1015.6 mb 0.00 in0.0 mm 0.00 in0.0 mm 0.01 in0.3 mm
07:13 PM 38.1°F3.4°C 31.2°F-0.4°C 76% 19.1 mph NW30.7 kmh NW 23.0 mph37.0 kmh 29.98 in1015.2 mb 0.00 in0.0 mm 0.00 in0.0 mm 0.01 in0.3 mm
07:14 PM 38.1°F3.4°C 31.2°F-0.4°C 76% 20.6 mph NW33.2 kmh NW 23.0 mph37.0 kmh 29.99 in1015.6 mb 0.00 in0.0 mm 0.00 in0.0 mm 0.01 in0.3 mm
07:15 PM 38.1°F3.4°C 31.2°F-0.4°C 76% 20.0 mph NW32.2 kmh NW 23.0 mph37.0 kmh 29.98 in1015.2 mb 0.00 in0.0 mm 0.00 in0.0 mm 0.01 in0.3 mm
07:16 PM 38.2°F3.4°C 31.3°F-0.4°C 76% 21.4 mph NW34.4 kmh NW 23.0 mph37.0 kmh 29.98 in1015.2 mb 0.00 in0.0 mm 0.00 in0.0 mm 0.01 in0.3 mm
07:17 PM 38.2°F3.4°C 31.3°F-0.4°C 76% 19.7 mph NW31.7 kmh NW 23.0 mph37.0 kmh 29.99 in1015.6 mb 0.00 in0.0 mm 0.00 in0.0 mm 0.01 in0.3 mm
07:18 PM 38.2°F3.4°C 31.3°F-0.4°C 76% 18.4 mph NW29.6 kmh NW 21.0 mph33.8 kmh 29.99 in1015.6 mb 0.00 in0.0 mm 0.00 in0.0 mm 0.01 in0.3 mm
07:19 PM 38.1°F3.4°C 31.2°F-0.4°C 76% 18.4 mph NW29.6 kmh NW 21.0 mph33.8 kmh 29.99 in1015.6 mb 0.00 in0.0 mm 0.00 in0.0 mm 0.01 in0.3 mm
07:20 PM 38.1°F3.4°C 31.2°F-0.4°C 76% 18.6 mph NW29.9 kmh NW 21.0 mph33.8 kmh 29.99 in1015.6 mb 0.00 in0.0 mm 0.00 in0.0 mm 0.01 in0.3 mm
07:21 PM 38.1°F3.4°C 31.2°F-0.4°C 76% 17.2 mph NW27.7 kmh NW 21.0 mph33.8 kmh 29.98 in1015.2 mb 0.00 in0.0 mm 0.00 in0.0 mm 0.01 in0.3 mm
07:22 PM 38.1°F3.4°C 31.5°F-0.3°C 77% 18.3 mph NW29.5 kmh NW 19.0 mph30.6 kmh 29.99 in1015.6 mb 0.00 in0.0 mm 0.00 in0.0 mm 0.01 in0.3 mm
07:23 PM 38.0°F3.3°C 31.4°F-0.3°C 77% 17.5 mph NW28.2 kmh NW 21.0 mph33.8 kmh 29.98 in1015.2 mb 0.00 in0.0 mm 0.00 in0.0 mm 0.01 in0.3 mm
07:24 PM 38.1°F3.4°C 31.5°F-0.3°C 77% 18.5 mph NW29.8 kmh NW 21.0 mph33.8 kmh 29.98 in1015.2 mb 0.00 in0.0 mm 0.00 in0.0 mm 0.01 in0.3 mm
07:25 PM 38.1°F3.4°C 31.5°F-0.3°C 77% 20.1 mph NW32.3 kmh NW 24.0 mph38.6 kmh 29.98 in1015.2 mb 0.00 in0.0 mm 0.00 in0.0 mm 0.01 in0.3 mm
07:26 PM 38.2°F3.4°C 31.6°F-0.2°C 77% 19.9 mph NW32.0 kmh NW 24.0 mph38.6 kmh 29.98 in1015.2 mb 0.00 in0.0 mm 0.00 in0.0 mm 0.01 in0.3 mm
07:27 PM 38.2°F3.4°C 31.6°F-0.2°C 77% 19.5 mph NW31.4 kmh NW 23.0 mph37.0 kmh 29.98 in1015.2 mb 0.00 in0.0 mm 0.00 in0.0 mm 0.01 in0.3 mm
07:28 PM 38.2°F3.4°C 31.6°F-0.2°C 77% 20.9 mph NW33.6 kmh NW 24.0 mph38.6 kmh 29.98 in1015.2 mb 0.00 in0.0 mm 0.00 in0.0 mm 0.01 in0.3 mm
07:29 PM 38.2°F3.4°C 31.3°F-0.4°C 76% 20.6 mph NW33.2 kmh NW 24.0 mph38.6 kmh 29.98 in1015.2 mb 0.00 in0.0 mm 0.00 in0.0 mm 0.01 in0.3 mm
07:30 PM 38.2°F3.4°C 31.6°F-0.2°C 77% 18.0 mph NW29.0 kmh NW 20.0 mph32.2 kmh 29.98 in1015.2 mb 0.00 in0.0 mm 0.00 in0.0 mm 0.01 in0.3 mm
07:31 PM 38.2°F3.4°C 31.6°F-0.2°C 77% 19.0 mph NW30.6 kmh NW 22.0 mph35.4 kmh 29.99 in1015.6 mb 0.00 in0.0 mm 0.00 in0.0 mm 0.01 in0.3 mm
07:32 PM